Darstellungsparameter: Aktuell verwendete Einstellungen:
Skalierung der Graphiken ... ?
xyx+y,   Skalierungsfaktor:      Skalierung: Modus: x, Faktor: 1
Darstellungszeitraum ... ?
Vom - - bis: - -   Zeitraum: 20.09.2018 - 22.03.2019
Min/Max/Avg-Anzeige ... ?
Zeige MMA aktuell
Zeige MMA Monat
Zeige MMA alles
Zeige --A aktuell
Zeige --A Monat
Zeige --A alles
Keine MMA-Anzeige
MMA:
Minimum Maximum Average (ber die Originaldaten)
MMA-Basis: 20.09.2018 - 22.03.2019
Quicknavigation für Darstellung... ?
Tage:      1T, 2T, 3T, 5T -1T -2T -3T -5T +1T +2T +3T +5T
Wochen: 1W, 2W, 3W -1W -2W -3W +1W +2W +3W
Monate: 1M, 3M, 6M -1M -3M -6M +1M +3M +6M
Jahre:    1J, 3J, 5J, 10J -1J -3J -5J -10J +1J +3J +5J +10J
Nutze für die Darstellung ... ?
Originaldaten oder Mittelwerte auf ...
Stundenbasis Tagesbasis Wochenbasis
Monatsbasis Jahresbasis      Datenbasis: Original-Daten
Darstellen als:
Statistik (Auto) Statistik J:M      Darstellung:
Zur Graphik,    zurück zur Übersicht aller Sensoren.
 
Tabellarische Datenbersicht: ?
 
Sensor: Nr:Datum:Temp:Feuchte:Taupunkt:
Aussen-T/F 1 20-09-2018 00:00:00 17.9 C 82 % 14.78 C
2 20-09-2018 00:05:00 17.8 C 82 % 14.69 C
3 20-09-2018 00:10:00 17.8 C 82 % 14.69 C
4 20-09-2018 00:15:00 17.7 C 82 % 14.59 C
5 20-09-2018 00:20:00 17.6 C 82 % 14.49 C
6 20-09-2018 00:25:00 17.5 C 82 % 14.39 C
7 20-09-2018 00:30:00 17.4 C 82 % 14.3 C
8 20-09-2018 00:35:00 17.4 C 83 % 14.48 C
9 20-09-2018 00:40:00 17.3 C 83 % 14.39 C
10 20-09-2018 00:45:00 17.3 C 83 % 14.39 C
11 20-09-2018 00:50:00 17.3 C 84 % 14.57 C
12 20-09-2018 00:55:00 17.2 C 84 % 14.47 C
13 20-09-2018 01:00:00 17.2 C 84 % 14.47 C
14 20-09-2018 01:05:00 17.3 C 84 % 14.57 C
15 20-09-2018 01:10:00 17.2 C 84 % 14.47 C
16 20-09-2018 01:15:00 17.2 C 84 % 14.47 C
17 20-09-2018 01:20:00 17.2 C 84 % 14.47 C
18 20-09-2018 01:25:00 17.2 C 84 % 14.47 C
19 20-09-2018 01:30:00 17.1 C 84 % 14.38 C
20 20-09-2018 01:35:00 17 C 84 % 14.28 C
21 20-09-2018 01:40:00 16.9 C 85 % 14.36 C
22 20-09-2018 01:45:00 16.9 C 85 % 14.36 C
23 20-09-2018 01:50:00 16.8 C 85 % 14.26 C
24 20-09-2018 01:55:00 16.8 C 85 % 14.26 C
25 20-09-2018 02:00:00 16.7 C 85 % 14.17 C
Sensor: Nr:Datum:Temp:Feuchte:Taupunkt:
Aussen-T/F 26 20-09-2018 02:05:00 16.6 C 86 % 14.25 C
27 20-09-2018 02:10:00 16.6 C 86 % 14.25 C
28 20-09-2018 02:15:00 16.5 C 86 % 14.15 C
29 20-09-2018 02:20:00 16.4 C 86 % 14.05 C
30 20-09-2018 02:25:00 16.3 C 86 % 13.95 C
31 20-09-2018 02:30:00 16.3 C 86 % 13.95 C
32 20-09-2018 02:35:00 16.2 C 87 % 14.03 C
33 20-09-2018 02:40:00 16.1 C 87 % 13.94 C
34 20-09-2018 02:45:00 16.1 C 87 % 13.94 C
35 20-09-2018 02:50:00 16 C 87 % 13.84 C
36 20-09-2018 02:55:00 16 C 88 % 14.01 C
37 20-09-2018 03:00:00 16.1 C 88 % 14.11 C
38 20-09-2018 03:05:00 16.1 C 88 % 14.11 C
39 20-09-2018 03:10:00 16.2 C 88 % 14.21 C
40 20-09-2018 03:15:00 16.1 C 87 % 13.94 C
41 20-09-2018 03:20:00 16 C 87 % 13.84 C
42 20-09-2018 03:25:00 15.8 C 87 % 13.64 C
43 20-09-2018 03:30:00 15.6 C 86 % 13.27 C
44 20-09-2018 03:35:00 15.4 C 87 % 13.25 C
45 20-09-2018 03:40:00 15.2 C 88 % 13.23 C
46 20-09-2018 03:45:00 15.1 C 88 % 13.13 C
47 20-09-2018 03:50:00 15.1 C 89 % 13.3 C
48 20-09-2018 03:55:00 14.9 C 89 % 13.1 C
49 20-09-2018 04:00:00 14.8 C 89 % 13.01 C
50 20-09-2018 04:05:00 14.7 C 89 % 12.91 C
Sensor: Nr:Datum:Temp:Feuchte:Taupunkt:
Aussen-T/F 51 20-09-2018 04:10:00 14.6 C 89 % 12.81 C
52 20-09-2018 04:15:00 14.4 C 89 % 12.61 C
53 20-09-2018 04:20:00 14.4 C 90 % 12.78 C
54 20-09-2018 04:25:00 14.3 C 90 % 12.68 C
55 20-09-2018 04:30:00 14.3 C 91 % 12.85 C
56 20-09-2018 04:35:00 14.3 C 91 % 12.85 C
57 20-09-2018 04:40:00 14.3 C 91 % 12.85 C
58 20-09-2018 04:45:00 14.2 C 91 % 12.75 C
59 20-09-2018 04:50:00 14.2 C 92 % 12.92 C
60 20-09-2018 04:55:00 14.2 C 91 % 12.75 C
61 20-09-2018 05:00:00 14.1 C 91 % 12.65 C
62 20-09-2018 05:05:00 13.9 C 91 % 12.46 C
63 20-09-2018 05:10:00 13.8 C 91 % 12.36 C
64 20-09-2018 05:15:00 13.8 C 92 % 12.52 C
65 20-09-2018 05:20:00 13.8 C 92 % 12.52 C
66 20-09-2018 05:25:00 13.8 C 92 % 12.52 C
67 20-09-2018 05:30:00 13.7 C 92 % 12.42 C
68 20-09-2018 05:35:00 13.7 C 92 % 12.42 C
69 20-09-2018 05:40:00 13.7 C 92 % 12.42 C
70 20-09-2018 05:45:00 13.7 C 93 % 12.59 C
71 20-09-2018 05:50:00 13.7 C 93 % 12.59 C
72 20-09-2018 05:55:00 13.8 C 93 % 12.69 C
73 20-09-2018 06:00:00 13.8 C 93 % 12.69 C
74 20-09-2018 06:05:00 13.6 C 93 % 12.49 C
75 20-09-2018 06:10:00 13.6 C 93 % 12.49 C
Sensor: Nr:Datum:Temp:Feuchte:Taupunkt:
Aussen-T/F 76 20-09-2018 06:15:00 13.4 C 92 % 12.13 C
77 20-09-2018 06:20:00 13.4 C 93 % 12.29 C
78 20-09-2018 06:25:00 13.3 C 93 % 12.19 C
79 20-09-2018 06:30:00 13.3 C 93 % 12.19 C
80 20-09-2018 06:35:00 13.3 C 93 % 12.19 C
81 20-09-2018 06:40:00 13.4 C 94 % 12.45 C
82 20-09-2018 06:45:00 13.4 C 93 % 12.29 C
83 20-09-2018 06:50:00 13.4 C 94 % 12.45 C
84 20-09-2018 06:55:00 13.4 C 93 % 12.29 C
85 20-09-2018 07:00:00 13.3 C 93 % 12.19 C
86 20-09-2018 07:05:00 13.3 C 94 % 12.36 C
87 20-09-2018 07:10:00 13.3 C 94 % 12.36 C
88 20-09-2018 07:15:00 13.3 C 93 % 12.19 C
89 20-09-2018 07:20:00 13.3 C 94 % 12.36 C
90 20-09-2018 07:25:00 13.5 C 94 % 12.55 C
91 20-09-2018 07:30:00 13.4 C 94 % 12.45 C
92 20-09-2018 07:35:00 13.3 C 93 % 12.19 C
93 20-09-2018 07:40:00 13.2 C 93 % 12.09 C
94 20-09-2018 07:45:00 13.2 C 93 % 12.09 C
95 20-09-2018 07:50:00 13.1 C 93 % 11.99 C
96 20-09-2018 07:55:00 13.1 C 94 % 12.16 C
97 20-09-2018 08:00:00 13.1 C 94 % 12.16 C
98 20-09-2018 08:05:00 13.1 C 94 % 12.16 C
99 20-09-2018 08:10:00 13.1 C 94 % 12.16 C
100 20-09-2018 08:15:00 13.2 C 94 % 12.26 C
Sensor: Nr:Datum:Temp:Feuchte:Taupunkt:
Aussen-T/F 101 20-09-2018 08:20:00 13.3 C 94 % 12.36 C
102 20-09-2018 08:25:00 13.3 C 94 % 12.36 C
103 20-09-2018 08:30:00 13.4 C 94 % 12.45 C
104 20-09-2018 08:35:00 13.4 C 94 % 12.45 C
105 20-09-2018 08:40:00 13.6 C 95 % 12.81 C
106 20-09-2018 08:45:00 13.6 C 95 % 12.81 C
107 20-09-2018 08:50:00 13.7 C 95 % 12.91 C
108 20-09-2018 08:55:00 13.8 C 95 % 13.01 C
109 20-09-2018 09:00:00 13.9 C 95 % 13.11 C
110 20-09-2018 09:05:00 13.9 C 95 % 13.11 C
111 20-09-2018 09:10:00 14.1 C 95 % 13.31 C
112 20-09-2018 09:15:00 14.2 C 95 % 13.41 C
113 20-09-2018 09:20:00 14.3 C 95 % 13.51 C
114 20-09-2018 09:25:00 14.4 C 95 % 13.61 C
115 20-09-2018 09:30:00 14.4 C 94 % 13.45 C
116 20-09-2018 09:35:00 14.5 C 94 % 13.55 C
117 20-09-2018 09:40:00 14.6 C 94 % 13.65 C
118 20-09-2018 09:45:00 14.7 C 94 % 13.74 C
119 20-09-2018 09:50:00 14.8 C 94 % 13.84 C
120 20-09-2018 09:55:00 14.8 C 94 % 13.84 C
121 20-09-2018 10:00:00 14.9 C 94 % 13.94 C
122 20-09-2018 10:05:00 15.1 C 94 % 14.14 C
123 20-09-2018 10:10:00 15.2 C 94 % 14.24 C
124 20-09-2018 10:15:00 15.4 C 94 % 14.44 C
125 20-09-2018 10:20:00 15.6 C 94 % 14.64 C
Sensor: Nr:Datum:Temp:Feuchte:Taupunkt:
Aussen-T/F 126 20-09-2018 10:25:00 15.8 C 93 % 14.67 C
127 20-09-2018 10:30:00 16 C 93 % 14.87 C
128 20-09-2018 10:35:00 16.2 C 92 % 14.9 C
129 20-09-2018 10:40:00 16.6 C 91 % 15.13 C
130 20-09-2018 10:45:00 16.9 C 89 % 15.08 C
131 20-09-2018 10:50:00 17.3 C 87 % 15.12 C
132 20-09-2018 10:55:00 17.7 C 85 % 15.15 C
133 20-09-2018 11:00:00 18 C 83 % 15.07 C
134 20-09-2018 11:05:00 18.4 C 81 % 15.08 C
135 20-09-2018 11:10:00 18.9 C 79 % 15.18 C
136 20-09-2018 11:15:00 19.3 C 77 % 15.17 C
137 20-09-2018 11:20:00 19.8 C 76 % 15.45 C
138 20-09-2018 11:25:00 20.2 C 74 % 15.42 C
139 20-09-2018 11:30:00 20.4 C 72 % 15.18 C
140 20-09-2018 11:35:00 20.7 C 71 % 15.25 C
141 20-09-2018 11:40:00 20.8 C 70 % 15.13 C
142 20-09-2018 11:45:00 21.1 C 69 % 15.19 C
143 20-09-2018 11:50:00 21.2 C 69 % 15.29 C
144 20-09-2018 11:55:00 21.3 C 68 % 15.16 C
145 20-09-2018 12:00:00 21.4 C 68 % 15.25 C
146 20-09-2018 12:05:00 21.6 C 67 % 15.21 C
147 20-09-2018 12:10:00 21.7 C 66 % 15.07 C
148 20-09-2018 12:15:00 21.7 C 67 % 15.31 C
149 20-09-2018 12:20:00 21.8 C 66 % 15.17 C
150 20-09-2018 12:25:00 21.9 C 65 % 15.02 C
Sensor: Nr:Datum:Temp:Feuchte:Taupunkt:
Aussen-T/F 151 20-09-2018 12:30:00 22.1 C 65 % 15.21 C
152 20-09-2018 12:35:00 22.3 C 64 % 15.16 C
153 20-09-2018 12:40:00 22.4 C 64 % 15.26 C
154 20-09-2018 12:45:00 22.6 C 63 % 15.2 C
155 20-09-2018 12:50:00 22.7 C 63 % 15.3 C
156 20-09-2018 12:55:00 22.8 C 63 % 15.39 C
157 20-09-2018 13:00:00 22.9 C 62 % 15.23 C
158 20-09-2018 13:05:00 23.1 C 61 % 15.17 C
159 20-09-2018 13:10:00 23.2 C 61 % 15.26 C
160 20-09-2018 13:15:00 23.3 C 60 % 15.1 C
161 20-09-2018 13:20:00 23.3 C 59 % 14.84 C
162 20-09-2018 13:25:00 23.4 C 59 % 14.93 C
163 20-09-2018 13:30:00 23.6 C 59 % 15.12 C
164 20-09-2018 13:35:00 23.7 C 58 % 14.95 C
165 20-09-2018 13:40:00 23.8 C 56 % 14.5 C
166 20-09-2018 13:45:00 23.9 C 55 % 14.31 C
167 20-09-2018 13:50:00 23.9 C 56 % 14.59 C
168 20-09-2018 13:55:00 24.1 C 56 % 14.78 C
169 20-09-2018 14:00:00 24.3 C 56 % 14.96 C
170 20-09-2018 14:05:00 24.5 C 54 % 14.58 C
171 20-09-2018 14:10:00 24.7 C 54 % 14.77 C
172 20-09-2018 14:15:00 24.9 C 52 % 14.37 C
173 20-09-2018 14:20:00 25.1 C 51 % 14.25 C
174 20-09-2018 14:25:00 25.3 C 49 % 13.82 C
175 20-09-2018 14:30:00 25.4 C 49 % 13.91 C
Sensor: Nr:Datum:Temp:Feuchte:Taupunkt:
Aussen-T/F 176 20-09-2018 14:35:00 25.6 C 48 % 13.78 C
177 20-09-2018 14:40:00 25.7 C 48 % 13.87 C
178 20-09-2018 14:45:00 25.7 C 47 % 13.55 C
179 20-09-2018 14:50:00 25.7 C 48 % 13.87 C
180 20-09-2018 14:55:00 25.7 C 45 % 12.88 C
181 20-09-2018 15:00:00 25.8 C 44 % 12.63 C
182 20-09-2018 15:05:00 25.8 C 44 % 12.63 C
183 20-09-2018 15:10:00 25.8 C 43 % 12.28 C
184 20-09-2018 15:15:00 25.9 C 43 % 12.37 C
185 20-09-2018 15:20:00 26 C 43 % 12.46 C
186 20-09-2018 15:25:00 26.1 C 44 % 12.9 C
187 20-09-2018 15:30:00 26.1 C 44 % 12.9 C
188 20-09-2018 15:35:00 26.2 C 43 % 12.64 C
189 20-09-2018 15:40:00 26.2 C 42 % 12.28 C
190 20-09-2018 15:45:00 26.3 C 43 % 12.73 C
191 20-09-2018 15:50:00 26.3 C 43 % 12.73 C
192 20-09-2018 15:55:00 26.3 C 42 % 12.37 C
193 20-09-2018 16:00:00 26.3 C 41 % 12 C
194 20-09-2018 16:05:00 26.4 C 41 % 12.09 C
195 20-09-2018 16:10:00 26.4 C 40 % 11.72 C
196 20-09-2018 16:15:00 26.5 C 41 % 12.18 C
197 20-09-2018 16:20:00 26.6 C 40 % 11.9 C
198 20-09-2018 16:25:00 26.6 C 41 % 12.27 C
199 20-09-2018 16:30:00 26.7 C 40 % 11.99 C
200 20-09-2018 16:35:00 26.7 C 39 % 11.6 C
Sensor: Nr:Datum:Temp:Feuchte:Taupunkt:
Aussen-T/F 201 20-09-2018 16:40:00 26.8 C 39 % 11.69 C
202 20-09-2018 16:45:00 26.8 C 39 % 11.69 C
203 20-09-2018 16:50:00 26.9 C 40 % 12.16 C
204 20-09-2018 16:55:00 26.9 C 40 % 12.16 C
205 20-09-2018 17:00:00 27 C 40 % 12.25 C
206 20-09-2018 17:05:00 27 C 39 % 11.87 C
207 20-09-2018 17:10:00 27.1 C 39 % 11.96 C
208 20-09-2018 17:15:00 27.2 C 40 % 12.43 C
209 20-09-2018 17:20:00 27.3 C 39 % 12.13 C
210 20-09-2018 17:25:00 27.7 C 39 % 12.49 C
211 20-09-2018 17:30:00 27.9 C 38 % 12.27 C
212 20-09-2018 17:35:00 28 C 38 % 12.36 C
213 20-09-2018 17:40:00 27.9 C 38 % 12.27 C
214 20-09-2018 17:45:00 28 C 38 % 12.36 C
215 20-09-2018 17:50:00 28.1 C 39 % 12.85 C
216 20-09-2018 17:55:00 28 C 39 % 12.76 C
217 20-09-2018 18:00:00 27.8 C 39 % 12.58 C
218 20-09-2018 18:05:00 27.7 C 40 % 12.88 C
219 20-09-2018 18:10:00 27.6 C 42 % 13.53 C
220 20-09-2018 18:15:00 27.4 C 41 % 12.99 C
221 20-09-2018 18:20:00 27.3 C 43 % 13.63 C
222 20-09-2018 18:25:00 27.2 C 44 % 13.89 C
223 20-09-2018 18:30:00 26.9 C 43 % 13.27 C
224 20-09-2018 18:35:00 26.7 C 44 % 13.44 C
225 20-09-2018 18:40:00 26.4 C 45 % 13.51 C
Sensor: Nr:Datum:Temp:Feuchte:Taupunkt:
Aussen-T/F 226 20-09-2018 18:45:00 26.1 C 47 % 13.91 C
227 20-09-2018 18:50:00 25.8 C 47 % 13.64 C
228 20-09-2018 18:55:00 25.4 C 48 % 13.6 C
229 20-09-2018 19:00:00 25.1 C 49 % 13.64 C
230 20-09-2018 19:05:00 24.7 C 50 % 13.58 C
231 20-09-2018 19:10:00 24.3 C 51 % 13.52 C
232 20-09-2018 19:15:00 23.9 C 52 % 13.45 C
233 20-09-2018 19:20:00 23.6 C 53 % 13.46 C
234 20-09-2018 19:25:00 23.2 C 54 % 13.38 C
235 20-09-2018 19:30:00 22.8 C 54 % 13.01 C
236 20-09-2018 19:35:00 22.5 C 55 % 13.01 C
237 20-09-2018 19:40:00 22.2 C 56 % 13.01 C
238 20-09-2018 19:45:00 21.9 C 57 % 13 C
239 20-09-2018 19:50:00 21.7 C 58 % 13.08 C
240 20-09-2018 19:55:00 21.4 C 59 % 13.06 C
241 20-09-2018 20:00:00 21.3 C 59 % 12.97 C
242 20-09-2018 20:05:00 21.1 C 60 % 13.04 C
243 20-09-2018 20:10:00 20.9 C 60 % 12.85 C
244 20-09-2018 20:15:00 20.7 C 61 % 12.91 C
245 20-09-2018 20:20:00 20.6 C 61 % 12.82 C
246 20-09-2018 20:25:00 20.4 C 62 % 12.88 C
247 20-09-2018 20:30:00 20.2 C 62 % 12.69 C
248 20-09-2018 20:35:00 20.1 C 63 % 12.84 C
249 20-09-2018 20:40:00 19.9 C 64 % 12.89 C
250 20-09-2018 20:45:00 19.7 C 64 % 12.7 C
Sensor: Nr:Datum:Temp:Feuchte:Taupunkt:
Aussen-T/F 251 20-09-2018 20:50:00 19.5 C 65 % 12.75 C
252 20-09-2018 20:55:00 19.4 C 65 % 12.66 C
253 20-09-2018 21:00:00 19.3 C 66 % 12.79 C
254 20-09-2018 21:05:00 19.2 C 66 % 12.7 C
255 20-09-2018 21:10:00 19.1 C 66 % 12.6 C
256 20-09-2018 21:15:00 19.1 C 67 % 12.83 C
257 20-09-2018 21:20:00 19 C 67 % 12.74 C
258 20-09-2018 21:25:00 18.9 C 67 % 12.64 C
259 20-09-2018 21:30:00 18.8 C 68 % 12.77 C
260 20-09-2018 21:35:00 18.7 C 68 % 12.68 C
261 20-09-2018 21:40:00 18.6 C 69 % 12.8 C
262 20-09-2018 21:45:00 18.4 C 69 % 12.61 C
263 20-09-2018 21:50:00 18.3 C 70 % 12.74 C
264 20-09-2018 21:55:00 18.2 C 70 % 12.64 C
265 20-09-2018 22:00:00 18.1 C 71 % 12.76 C
266 20-09-2018 22:05:00 17.9 C 71 % 12.57 C
267 20-09-2018 22:10:00 17.8 C 72 % 12.69 C
268 20-09-2018 22:15:00 17.7 C 72 % 12.59 C
269 20-09-2018 22:20:00 17.7 C 73 % 12.8 C
270 20-09-2018 22:25:00 17.6 C 73 % 12.71 C
271 20-09-2018 22:30:00 17.6 C 73 % 12.71 C
272 20-09-2018 22:35:00 17.6 C 73 % 12.71 C
273 20-09-2018 22:40:00 17.6 C 74 % 12.91 C
274 20-09-2018 22:45:00 17.4 C 74 % 12.72 C
275 20-09-2018 22:50:00 17.4 C 74 % 12.72 C
Sensor: Nr:Datum:Temp:Feuchte:Taupunkt:
Aussen-T/F 276 20-09-2018 22:55:00 17.3 C 75 % 12.83 C
277 20-09-2018 23:00:00 17.2 C 75 % 12.73 C
278 20-09-2018 23:05:00 17.1 C 76 % 12.84 C
279 20-09-2018 23:10:00 17.1 C 76 % 12.84 C
280 20-09-2018 23:15:00 17.1 C 76 % 12.84 C
281 20-09-2018 23:20:00 17.1 C 76 % 12.84 C
282 20-09-2018 23:25:00 17.1 C 76 % 12.84 C
283 20-09-2018 23:30:00 17.1 C 76 % 12.84 C
284 20-09-2018 23:35:00 17 C 77 % 12.94 C
285 20-09-2018 23:40:00 16.9 C 77 % 12.84 C
286 20-09-2018 23:45:00 16.8 C 77 % 12.75 C
287 20-09-2018 23:50:00 16.8 C 78 % 12.94 C
288 20-09-2018 23:55:00 16.8 C 78 % 12.94 C
289 21-09-2018 00:00:00 16.8 C 78 % 12.94 C
290 21-09-2018 00:05:00 16.8 C 78 % 12.94 C
291 21-09-2018 00:10:00 16.7 C 78 % 12.85 C
292 21-09-2018 00:15:00 16.6 C 79 % 12.95 C
293 21-09-2018 00:20:00 16.5 C 79 % 12.85 C
294 21-09-2018 00:25:00 16.4 C 79 % 12.75 C
295 21-09-2018 00:30:00 16.3 C 80 % 12.85 C
296 21-09-2018 00:35:00 16.2 C 80 % 12.75 C
297 21-09-2018 00:40:00 16.2 C 80 % 12.75 C
298 21-09-2018 00:45:00 16.2 C 81 % 12.94 C
299 21-09-2018 00:50:00 16.3 C 81 % 13.04 C
300 21-09-2018 00:55:00 16.2 C 81 % 12.94 C
Sensor: Nr:Datum:Temp:Feuchte:Taupunkt:
Aussen-T/F 301 21-09-2018 01:00:00 16.2 C 81 % 12.94 C
302 21-09-2018 01:05:00 16.2 C 82 % 13.13 C
303 21-09-2018 01:10:00 16.2 C 82 % 13.13 C
304 21-09-2018 01:15:00 16.1 C 82 % 13.03 C
305 21-09-2018 01:20:00 16.2 C 82 % 13.13 C
306 21-09-2018 01:25:00 16.2 C 82 % 13.13 C
307 21-09-2018 01:30:00 16.1 C 83 % 13.21 C
308 21-09-2018 01:35:00 16.1 C 83 % 13.21 C
309 21-09-2018 01:40:00 16.1 C 83 % 13.21 C
310 21-09-2018 01:45:00 16 C 83 % 13.12 C
311 21-09-2018 01:50:00 15.9 C 84 % 13.2 C
312 21-09-2018 01:55:00 15.9 C 84 % 13.2 C
313 21-09-2018 02:00:00 15.9 C 83 % 13.02 C
314 21-09-2018 02:05:00 15.9 C 83 % 13.02 C
315 21-09-2018 02:10:00 15.8 C 84 % 13.1 C
316 21-09-2018 02:15:00 15.8 C 84 % 13.1 C
317 21-09-2018 02:20:00 15.7 C 84 % 13.01 C
318 21-09-2018 02:25:00 15.7 C 85 % 13.19 C
319 21-09-2018 02:30:00 15.7 C 85 % 13.19 C
320 21-09-2018 02:35:00 15.7 C 85 % 13.19 C
321 21-09-2018 02:40:00 15.8 C 85 % 13.28 C
322 21-09-2018 02:45:00 15.8 C 85 % 13.28 C
323 21-09-2018 02:50:00 15.8 C 85 % 13.28 C
324 21-09-2018 02:55:00 15.8 C 85 % 13.28 C
325 21-09-2018 03:00:00 15.7 C 85 % 13.19 C
Sensor: Nr:Datum:Temp:Feuchte:Taupunkt:
Aussen-T/F 326 21-09-2018 03:05:00 15.7 C 85 % 13.19 C
327 21-09-2018 03:10:00 15.8 C 85 % 13.28 C
328 21-09-2018 03:15:00 15.8 C 85 % 13.28 C
329 21-09-2018 03:20:00 15.7 C 85 % 13.19 C
330 21-09-2018 03:25:00 15.8 C 86 % 13.46 C
331 21-09-2018 03:30:00 15.8 C 86 % 13.46 C
332 21-09-2018 03:35:00 15.8 C 86 % 13.46 C
333 21-09-2018 03:40:00 15.8 C 85 % 13.28 C
334 21-09-2018 03:45:00 15.9 C 85 % 13.38 C
335 21-09-2018 03:50:00 15.9 C 85 % 13.38 C
336 21-09-2018 03:55:00 15.8 C 85 % 13.28 C
337 21-09-2018 04:00:00 15.8 C 85 % 13.28 C
338 21-09-2018 04:05:00 15.7 C 85 % 13.19 C
339 21-09-2018 04:10:00 15.7 C 85 % 13.19 C
340 21-09-2018 04:15:00 15.6 C 85 % 13.09 C
341 21-09-2018 04:20:00 15.6 C 85 % 13.09 C
342 21-09-2018 04:25:00 15.6 C 85 % 13.09 C
343 21-09-2018 04:30:00 15.5 C 86 % 13.17 C
344 21-09-2018 04:35:00 15.6 C 86 % 13.27 C
345 21-09-2018 04:40:00 15.6 C 86 % 13.27 C
346 21-09-2018 04:45:00 15.6 C 86 % 13.27 C
347 21-09-2018 04:50:00 15.6 C 86 % 13.27 C
348 21-09-2018 04:55:00 15.6 C 86 % 13.27 C
349 21-09-2018 05:00:00 15.6 C 86 % 13.27 C
350 21-09-2018 05:05:00 15.7 C 86 % 13.37 C
Sensor: Nr:Datum:Temp:Feuchte:Taupunkt:
Aussen-T/F 351 21-09-2018 05:10:00 15.7 C 86 % 13.37 C
352 21-09-2018 05:15:00 15.7 C 86 % 13.37 C
353 21-09-2018 05:20:00 15.8 C 86 % 13.46 C
354 21-09-2018 05:25:00 15.8 C 86 % 13.46 C
355 21-09-2018 05:30:00 15.8 C 86 % 13.46 C
356 21-09-2018 05:35:00 15.8 C 86 % 13.46 C
357 21-09-2018 05:40:00 15.8 C 86 % 13.46 C
358 21-09-2018 05:45:00 15.8 C 86 % 13.46 C
359 21-09-2018 05:50:00 15.7 C 86 % 13.37 C
360 21-09-2018 05:55:00 15.7 C 86 % 13.37 C
361 21-09-2018 06:00:00 15.7 C 86 % 13.37 C
362 21-09-2018 06:05:00 15.7 C 86 % 13.37 C
363 21-09-2018 06:10:00 15.7 C 86 % 13.37 C
364 21-09-2018 06:15:00 15.7 C 86 % 13.37 C
365 21-09-2018 06:20:00 15.7 C 86 % 13.37 C
366 21-09-2018 06:25:00 15.7 C 86 % 13.37 C
367 21-09-2018 06:30:00 15.8 C 86 % 13.46 C
368 21-09-2018 06:35:00 15.8 C 85 % 13.28 C
369 21-09-2018 06:40:00 15.9 C 85 % 13.38 C
370 21-09-2018 06:45:00 15.9 C 85 % 13.38 C
371 21-09-2018 06:50:00 15.9 C 85 % 13.38 C
372 21-09-2018 06:55:00 15.9 C 84 % 13.2 C
373 21-09-2018 07:00:00 16 C 84 % 13.3 C
374 21-09-2018 07:05:00 16.1 C 84 % 13.4 C
375 21-09-2018 07:10:00 16.1 C 84 % 13.4 C
Sensor: Nr:Datum:Temp:Feuchte:Taupunkt:
Aussen-T/F 376 21-09-2018 07:15:00 16.1 C 84 % 13.4 C
377 21-09-2018 07:20:00 16.2 C 83 % 13.31 C
378 21-09-2018 07:25:00 16.2 C 84 % 13.5 C
379 21-09-2018 07:30:00 16.2 C 83 % 13.31 C
380 21-09-2018 07:35:00 16.3 C 84 % 13.59 C
381 21-09-2018 07:40:00 16.3 C 84 % 13.59 C
382 21-09-2018 07:45:00 16.3 C 84 % 13.59 C
383 21-09-2018 07:50:00 16.3 C 84 % 13.59 C
384 21-09-2018 07:55:00 16.4 C 84 % 13.69 C
385 21-09-2018 08:00:00 16.5 C 84 % 13.79 C
386 21-09-2018 08:05:00 16.6 C 84 % 13.89 C
387 21-09-2018 08:10:00 16.7 C 84 % 13.98 C
388 21-09-2018 08:15:00 16.8 C 83 % 13.9 C
389 21-09-2018 08:20:00 16.9 C 83 % 14 C
390 21-09-2018 08:25:00 17 C 83 % 14.09 C
391 21-09-2018 08:30:00 17.2 C 83 % 14.29 C
392 21-09-2018 08:35:00 17.3 C 82 % 14.2 C
393 21-09-2018 08:40:00 17.4 C 82 % 14.3 C
394 21-09-2018 08:45:00 17.6 C 81 % 14.3 C
395 21-09-2018 08:50:00 18 C 80 % 14.5 C
396 21-09-2018 08:55:00 18.6 C 78 % 14.69 C
397 21-09-2018 09:00:00 19.2 C 75 % 14.66 C
398 21-09-2018 09:05:00 19.7 C 73 % 14.73 C
399 21-09-2018 09:10:00 20.1 C 72 % 14.9 C
400 21-09-2018 09:15:00 20.3 C 71 % 14.87 C
Sensor: Nr:Datum:Temp:Feuchte:Taupunkt:
Aussen-T/F 401 21-09-2018 09:20:00 20.6 C 70 % 14.94 C
402 21-09-2018 09:25:00 20.9 C 69 % 15 C
403 21-09-2018 09:30:00 21.1 C 68 % 14.97 C
404 21-09-2018 09:35:00 21.3 C 68 % 15.16 C
405 21-09-2018 09:40:00 21.4 C 67 % 15.02 C
406 21-09-2018 09:45:00 21.4 C 65 % 14.55 C
407 21-09-2018 09:50:00 21.5 C 65 % 14.65 C
408 21-09-2018 09:55:00 21.6 C 63 % 14.26 C
409 21-09-2018 10:00:00 21.7 C 62 % 14.1 C
410 21-09-2018 10:05:00 21.8 C 60 % 13.69 C
411 21-09-2018 10:10:00 21.9 C 61 % 14.04 C
412 21-09-2018 10:15:00 21.9 C 60 % 13.79 C
413 21-09-2018 10:20:00 22.1 C 59 % 13.72 C
414 21-09-2018 10:25:00 22.2 C 59 % 13.81 C
415 21-09-2018 10:30:00 22.3 C 58 % 13.64 C
416 21-09-2018 10:35:00 22.4 C 57 % 13.47 C
417 21-09-2018 10:40:00 22.5 C 58 % 13.83 C
418 21-09-2018 10:45:00 22.6 C 58 % 13.92 C
419 21-09-2018 10:50:00 22.7 C 58 % 14.01 C
420 21-09-2018 10:55:00 22.8 C 58 % 14.11 C
421 21-09-2018 11:00:00 22.9 C 56 % 13.66 C
422 21-09-2018 11:05:00 22.9 C 56 % 13.66 C
423 21-09-2018 11:10:00 22.8 C 56 % 13.57 C
424 21-09-2018 11:15:00 22.6 C 56 % 13.38 C
425 21-09-2018 11:20:00 22.5 C 57 % 13.56 C
Sensor: Nr:Datum:Temp:Feuchte:Taupunkt:
Aussen-T/F 426 21-09-2018 11:25:00 22.4 C 57 % 13.47 C
427 21-09-2018 11:30:00 22.5 C 57 % 13.56 C
428 21-09-2018 11:35:00 22.5 C 57 % 13.56 C
429 21-09-2018 11:40:00 22.6 C 57 % 13.65 C
430 21-09-2018 11:45:00 22.7 C 58 % 14.01 C
431 21-09-2018 11:50:00 22.7 C 57 % 13.75 C
432 21-09-2018 11:55:00 22.7 C 58 % 14.01 C
433 21-09-2018 12:00:00 22.6 C 59 % 14.18 C
434 21-09-2018 12:05:00 22.4 C 60 % 14.26 C
435 21-09-2018 12:10:00 22.3 C 61 % 14.42 C
436 21-09-2018 12:15:00 22.1 C 64 % 14.97 C
437 21-09-2018 12:20:00 21.7 C 64 % 14.6 C
438 21-09-2018 12:25:00 21.6 C 66 % 14.98 C
439 21-09-2018 12:30:00 21.6 C 66 % 14.98 C
440 21-09-2018 12:35:00 21.7 C 66 % 15.07 C
441 21-09-2018 12:40:00 21.7 C 66 % 15.07 C
442 21-09-2018 12:45:00 21.7 C 67 % 15.31 C
443 21-09-2018 12:50:00 21.6 C 67 % 15.21 C
444 21-09-2018 12:55:00 21.4 C 67 % 15.02 C
445 21-09-2018 13:00:00 21.2 C 68 % 15.06 C
446 21-09-2018 13:05:00 21.1 C 69 % 15.19 C
447 21-09-2018 13:10:00 20.7 C 74 % 15.9 C
448 21-09-2018 13:15:00 20.1 C 78 % 16.14 C
449 21-09-2018 13:20:00 18.5 C 75 % 13.99 C
450 21-09-2018 13:25:00 17 C 79 % 13.33 C
Sensor: Nr:Datum:Temp:Feuchte:Taupunkt:
Aussen-T/F 451 21-09-2018 13:30:00 16.3 C 83 % 13.41 C
452 21-09-2018 13:35:00 15.9 C 85 % 13.38 C
453 21-09-2018 13:40:00 15.5 C 87 % 13.35 C
454 21-09-2018 13:45:00 15.2 C 88 % 13.23 C
455 21-09-2018 13:50:00 14.9 C 88 % 12.93 C
456 21-09-2018 13:55:00 14.7 C 89 % 12.91 C
457 21-09-2018 14:00:00 14.4 C 89 % 12.61 C
458 21-09-2018 14:05:00 14.3 C 90 % 12.68 C
459 21-09-2018 14:10:00 14.2 C 91 % 12.75 C
460 21-09-2018 14:15:00 14.1 C 91 % 12.65 C
461 21-09-2018 14:20:00 14.1 C 91 % 12.65 C
462 21-09-2018 14:25:00 14 C 91 % 12.56 C
463 21-09-2018 14:30:00 13.8 C 92 % 12.52 C
464 21-09-2018 14:35:00 13.8 C 92 % 12.52 C
465 21-09-2018 14:40:00 13.8 C 92 % 12.52 C
466 21-09-2018 14:45:00 13.7 C 92 % 12.42 C
467 21-09-2018 14:50:00 13.8 C 93 % 12.69 C
468 21-09-2018 14:55:00 13.8 C 93 % 12.69 C
469 21-09-2018 15:00:00 13.9 C 94 % 12.95 C
470 21-09-2018 15:05:00 14.1 C 94 % 13.15 C
471 21-09-2018 15:10:00 14.2 C 94 % 13.25 C
472 21-09-2018 15:15:00 14.4 C 94 % 13.45 C
473 21-09-2018 15:20:00 14.6 C 94 % 13.65 C
474 21-09-2018 15:25:00 14.7 C 94 % 13.74 C
475 21-09-2018 15:30:00 14.7 C 94 % 13.74 C
Sensor: Nr:Datum:Temp:Feuchte:Taupunkt:
Aussen-T/F 476 21-09-2018 15:35:00 14.7 C 93 % 13.58 C
477 21-09-2018 15:40:00 14.7 C 94 % 13.74 C
478 21-09-2018 15:45:00 14.7 C 93 % 13.58 C
479 21-09-2018 15:50:00 14.7 C 93 % 13.58 C
480 21-09-2018 15:55:00 14.8 C 93 % 13.68 C
481 21-09-2018 16:00:00 14.7 C 93 % 13.58 C
482 21-09-2018 16:05:00 14.8 C 93 % 13.68 C
483 21-09-2018 16:10:00 14.8 C 94 % 13.84 C
484 21-09-2018 16:15:00 14.9 C 94 % 13.94 C
485 21-09-2018 16:20:00 14.8 C 93 % 13.68 C
486 21-09-2018 16:25:00 14.8 C 93 % 13.68 C
487 21-09-2018 16:30:00 14.8 C 93 % 13.68 C
488 21-09-2018 16:35:00 14.7 C 93 % 13.58 C
489 21-09-2018 16:40:00 14.8 C 93 % 13.68 C
490 21-09-2018 16:45:00 14.8 C 93 % 13.68 C
491 21-09-2018 16:50:00 14.9 C 93 % 13.78 C
492 21-09-2018 16:55:00 14.6 C 88 % 12.64 C
493 21-09-2018 17:00:00 14.3 C 83 % 11.45 C
494 21-09-2018 17:05:00 14.2 C 80 % 10.8 C
495 21-09-2018 17:10:00 14.3 C 79 % 10.71 C
496 21-09-2018 17:15:00 14.3 C 78 % 10.52 C
497 21-09-2018 17:20:00 14.3 C 76 % 10.13 C
498 21-09-2018 17:25:00 14.4 C 82 % 11.37 C
499 21-09-2018 17:30:00 14.3 C 85 % 11.81 C
500 21-09-2018 17:35:00 13.9 C 84 % 11.24 C
Sensor: Nr:Datum:Temp:Feuchte:Taupunkt:
Aussen-T/F 501 21-09-2018 17:40:00 13.6 C 80 % 10.22 C
502 21-09-2018 17:45:00 13.5 C 79 % 9.93 C
503 21-09-2018 17:50:00 13.5 C 77 % 9.55 C
504 21-09-2018 17:55:00 13.7 C 72 % 8.75 C
505 21-09-2018 18:00:00 13.9 C 70 % 8.53 C
506 21-09-2018 18:05:00 14.1 C 75 % 9.74 C
507 21-09-2018 18:10:00 14.1 C 80 % 10.71 C
508 21-09-2018 18:15:00 13.8 C 77 % 9.84 C
509 21-09-2018 18:20:00 13.7 C 78 % 9.94 C
510 21-09-2018 18:25:00 13.7 C 76 % 9.55 C
511 21-09-2018 18:30:00 13.7 C 72 % 8.75 C
512 21-09-2018 18:35:00 13.8 C 71 % 8.64 C
513 21-09-2018 18:40:00 13.9 C 71 % 8.73 C
514 21-09-2018 18:45:00 14.1 C 70 % 8.72 C
515 21-09-2018 18:50:00 14.6 C 70 % 9.2 C
516 21-09-2018 18:55:00 14.8 C 67 % 8.74 C
517 21-09-2018 19:00:00 15 C 65 % 8.48 C
518 21-09-2018 19:05:00 15.1 C 69 % 9.46 C
519 21-09-2018 19:10:00 15.1 C 70 % 9.67 C
520 21-09-2018 19:15:00 14.8 C 67 % 8.74 C
521 21-09-2018 19:20:00 14.4 C 68 % 8.58 C
522 21-09-2018 19:25:00 14.1 C 69 % 8.5 C
523 21-09-2018 19:30:00 13.8 C 68 % 8 C
524 21-09-2018 19:35:00 13.6 C 69 % 8.03 C
525 21-09-2018 19:40:00 13.4 C 69 % 7.84 C
Sensor: Nr:Datum:Temp:Feuchte:Taupunkt:
Aussen-T/F 526 21-09-2018 19:45:00 13.3 C 73 % 8.57 C
527 21-09-2018 19:50:00 13.1 C 74 % 8.58 C
528 21-09-2018 19:55:00 12.8 C 75 % 8.48 C
529 21-09-2018 20:00:00 12.6 C 77 % 8.68 C
530 21-09-2018 20:05:00 12.4 C 76 % 8.29 C
531 21-09-2018 20:10:00 12.3 C 77 % 8.39 C
532 21-09-2018 20:15:00 12.2 C 79 % 8.67 C
533 21-09-2018 20:20:00 12.1 C 78 % 8.38 C
534 21-09-2018 20:25:00 12 C 79 % 8.48 C
535 21-09-2018 20:30:00 11.9 C 80 % 8.56 C
536 21-09-2018 20:35:00 11.8 C 80 % 8.47 C
537 21-09-2018 20:40:00 11.6 C 81 % 8.45 C
538 21-09-2018 20:45:00 11.4 C 81 % 8.26 C
539 21-09-2018 20:50:00 11.2 C 81 % 8.06 C
540 21-09-2018 20:55:00 11.1 C 83 % 8.33 C
541 21-09-2018 21:00:00 11 C 83 % 8.23 C
542 21-09-2018 21:05:00 10.8 C 84 % 8.21 C
543 21-09-2018 21:10:00 10.7 C 85 % 8.28 C
544 21-09-2018 21:15:00 10.6 C 85 % 8.19 C
545 21-09-2018 21:20:00 10.6 C 85 % 8.19 C
546 21-09-2018 21:25:00 10.5 C 85 % 8.09 C
547 21-09-2018 21:30:00 10.6 C 84 % 8.01 C
548 21-09-2018 21:35:00 10.8 C 81 % 7.67 C
549 21-09-2018 21:40:00 11.1 C 79 % 7.6 C
550 21-09-2018 21:45:00 11.6 C 78 % 7.9 C
Sensor: Nr:Datum:Temp:Feuchte:Taupunkt:
Aussen-T/F 551 21-09-2018 21:50:00 11.8 C 77 % 7.9 C
552 21-09-2018 21:55:00 11.8 C 76 % 7.71 C
553 21-09-2018 22:00:00 11.9 C 75 % 7.62 C
554 21-09-2018 22:05:00 12.1 C 76 % 8 C
555 21-09-2018 22:10:00 12.1 C 76 % 8 C
556 21-09-2018 22:15:00 11.9 C 75 % 7.62 C
557 21-09-2018 22:20:00 11.9 C 75 % 7.62 C
558 21-09-2018 22:25:00 11.9 C 75 % 7.62 C
559 21-09-2018 22:30:00 11.9 C 73 % 7.22 C
560 21-09-2018 22:35:00 12.1 C 74 % 7.61 C
561 21-09-2018 22:40:00 12.1 C 72 % 7.21 C
562 21-09-2018 22:45:00 12.1 C 72 % 7.21 C
563 21-09-2018 22:50:00 12.2 C 72 % 7.31 C
564 21-09-2018 22:55:00 12.4 C 72 % 7.5 C
565 21-09-2018 23:00:00 12.4 C 71 % 7.3 C
566 21-09-2018 23:05:00 12.6 C 70 % 7.28 C
567 21-09-2018 23:10:00 12.6 C 70 % 7.28 C
568 21-09-2018 23:15:00 12.6 C 71 % 7.49 C
569 21-09-2018 23:20:00 12.4 C 70 % 7.09 C
570 21-09-2018 23:25:00 12.3 C 72 % 7.4 C
571 21-09-2018 23:30:00 12.3 C 71 % 7.2 C
572 21-09-2018 23:35:00 12.2 C 71 % 7.1 C
573 21-09-2018 23:40:00 12.2 C 72 % 7.31 C
574 21-09-2018 23:45:00 12.2 C 73 % 7.51 C
575 21-09-2018 23:50:00 12.2 C 72 % 7.31 C
Sensor: Nr:Datum:Temp:Feuchte:Taupunkt:
Aussen-T/F 576 21-09-2018 23:55:00 12.2 C 72 % 7.31 C
577 22-09-2018 00:00:00 12.2 C 70 % 6.9 C
578 22-09-2018 00:05:00 12.4 C 69 % 6.88 C
579 22-09-2018 00:10:00 12.6 C 69 % 7.07 C
580 22-09-2018 00:15:00 12.6 C 69 % 7.07 C
581 22-09-2018 00:20:00 12.5 C 68 % 6.76 C
582 22-09-2018 00:25:00 12.5 C 70 % 7.18 C
583 22-09-2018 00:30:00 12.4 C 70 % 7.09 C
584 22-09-2018 00:35:00 12.3 C 70 % 6.99 C
585 22-09-2018 00:40:00 12.3 C 70 % 6.99 C
586 22-09-2018 00:45:00 12.3 C 70 % 6.99 C
587 22-09-2018 00:50:00 12.3 C 70 % 6.99 C
588 22-09-2018 00:55:00 12.4 C 70 % 7.09 C
589 22-09-2018 01:00:00 12.4 C 70 % 7.09 C
590 22-09-2018 01:05:00 12.3 C 70 % 6.99 C
591 22-09-2018 01:10:00 12.3 C 70 % 6.99 C
592 22-09-2018 01:15:00 12.3 C 70 % 6.99 C
593 22-09-2018 01:20:00 12.2 C 70 % 6.9 C
594 22-09-2018 01:25:00 12.2 C 71 % 7.1 C
595 22-09-2018 01:30:00 12.1 C 71 % 7.01 C
596 22-09-2018 01:35:00 12.1 C 71 % 7.01 C
597 22-09-2018 01:40:00 12.1 C 71 % 7.01 C
598 22-09-2018 01:45:00 12 C 72 % 7.12 C
599 22-09-2018 01:50:00 11.9 C 72 % 7.02 C
600 22-09-2018 01:55:00 11.9 C 71 % 6.82 C
Sensor: Nr:Datum:Temp:Feuchte:Taupunkt:
Aussen-T/F 601 22-09-2018 02:00:00 11.8 C 73 % 7.12 C
602 22-09-2018 02:05:00 11.7 C 73 % 7.03 C
603 22-09-2018 02:10:00 11.7 C 72 % 6.83 C
604 22-09-2018 02:15:00 11.6 C 73 % 6.93 C
605 22-09-2018 02:20:00 11.5 C 73 % 6.84 C
606 22-09-2018 02:25:00 11.4 C 74 % 6.94 C
607 22-09-2018 02:30:00 11.2 C 75 % 6.94 C
608 22-09-2018 02:35:00 11.1 C 76 % 7.04 C
609 22-09-2018 02:40:00 10.9 C 77 % 7.03 C
610 22-09-2018 02:45:00 10.7 C 77 % 6.84 C
611 22-09-2018 02:50:00 10.6 C 78 % 6.93 C
612 22-09-2018 02:55:00 10.5 C 77 % 6.64 C
613 22-09-2018 03:00:00 10.5 C 78 % 6.83 C
614 22-09-2018 03:05:00 10.5 C 79 % 7.02 C
615 22-09-2018 03:10:00 10.5 C 78 % 6.83 C
616 22-09-2018 03:15:00 10.4 C 79 % 6.92 C
617 22-09-2018 03:20:00 10.5 C 78 % 6.83 C
618 22-09-2018 03:25:00 10.6 C 78 % 6.93 C
619 22-09-2018 03:30:00 10.7 C 77 % 6.84 C
620 22-09-2018 03:35:00 10.8 C 76 % 6.75 C
621 22-09-2018 03:40:00 10.8 C 77 % 6.94 C
622 22-09-2018 03:45:00 10.8 C 77 % 6.94 C
623 22-09-2018 03:50:00 10.7 C 77 % 6.84 C
624 22-09-2018 03:55:00 10.5 C 78 % 6.83 C
625 22-09-2018 04:00:00 10.3 C 79 % 6.82 C
Sensor: Nr:Datum:Temp:Feuchte:Taupunkt:
Aussen-T/F 626 22-09-2018 04:05:00 10.2 C 79 % 6.73 C
627 22-09-2018 04:10:00 10.1 C 81 % 6.99 C
628 22-09-2018 04:15:00 10 C 81 % 6.89 C
629 22-09-2018 04:20:00 10 C 82 % 7.07 C
630 22-09-2018 04:25:00 10.1 C 81 % 6.99 C
631 22-09-2018 04:30:00 10.2 C 81 % 7.09 C
632 22-09-2018 04:35:00 10.3 C 81 % 7.19 C
633 22-09-2018 04:40:00 10.4 C 80 % 7.1 C
634 22-09-2018 04:45:00 10.5 C 80 % 7.2 C
635 22-09-2018 04:50:00 10.6 C 80 % 7.3 C
636 22-09-2018 04:55:00 10.6 C 80 % 7.3 C
637 22-09-2018 05:00:00 10.7 C 80 % 7.4 C
638 22-09-2018 05:05:00 10.7 C 80 % 7.4 C
639 22-09-2018 05:10:00 10.7 C 80 % 7.4 C
640 22-09-2018 05:15:00 10.7 C 80 % 7.4 C
641 22-09-2018 05:20:00 10.8 C 80 % 7.49 C
642 22-09-2018 05:25:00 10.8 C 80 % 7.49 C
643 22-09-2018 05:30:00 10.7 C 80 % 7.4 C
644 22-09-2018 05:35:00 10.7 C 80 % 7.4 C
645 22-09-2018 05:40:00 10.7 C 80 % 7.4 C
646 22-09-2018 05:45:00 10.7 C 80 % 7.4 C
647 22-09-2018 05:50:00 10.7 C 80 % 7.4 C
648 22-09-2018 05:55:00 10.7 C 81 % 7.58 C
649 22-09-2018 06:00:00 10.7 C 80 % 7.4 C
650 22-09-2018 06:05:00 10.7 C 81 % 7.58 C
Sensor: Nr:Datum:Temp:Feuchte:Taupunkt:
Aussen-T/F 651 22-09-2018 06:10:00 10.6 C 81 % 7.48 C
652 22-09-2018 06:15:00 10.6 C 81 % 7.48 C
653 22-09-2018 06:20:00 10.6 C 81 % 7.48 C
654 22-09-2018 06:25:00 10.6 C 81 % 7.48 C
655 22-09-2018 06:30:00 10.6 C 81 % 7.48 C
656 22-09-2018 06:35:00 10.6 C 81 % 7.48 C
657 22-09-2018 06:40:00 10.6 C 81 % 7.48 C
658 22-09-2018 06:45:00 10.6 C 81 % 7.48 C
659 22-09-2018 06:50:00 10.7 C 81 % 7.58 C
660 22-09-2018 06:55:00 10.7 C 80 % 7.4 C
661 22-09-2018 07:00:00 10.7 C 81 % 7.58 C
662 22-09-2018 07:05:00 10.7 C 80 % 7.4 C
663 22-09-2018 07:10:00 10.7 C 80 % 7.4 C
664 22-09-2018 07:15:00 10.7 C 81 % 7.58 C
665 22-09-2018 07:20:00 10.7 C 81 % 7.58 C
666 22-09-2018 07:25:00 10.7 C 81 % 7.58 C
667 22-09-2018 07:30:00 10.6 C 81 % 7.48 C
668 22-09-2018 07:35:00 10.6 C 81 % 7.48 C
669 22-09-2018 07:40:00 10.5 C 82 % 7.56 C
670 22-09-2018 07:45:00 10.4 C 82 % 7.46 C
671 22-09-2018 07:50:00 10.4 C 82 % 7.46 C
672 22-09-2018 07:55:00 10.4 C 82 % 7.46 C
673 22-09-2018 08:00:00 10.4 C 82 % 7.46 C
674 22-09-2018 08:05:00 10.5 C 82 % 7.56 C
675 22-09-2018 08:10:00 10.6 C 82 % 7.66 C
Sensor: Nr:Datum:Temp:Feuchte:Taupunkt:
Aussen-T/F 676 22-09-2018 08:15:00 10.6 C 82 % 7.66 C
677 22-09-2018 08:20:00 10.6 C 83 % 7.84 C
678 22-09-2018 08:25:00 10.7 C 82 % 7.76 C
679 22-09-2018 08:30:00 10.7 C 82 % 7.76 C
680 22-09-2018 08:35:00 10.7 C 82 % 7.76 C
681 22-09-2018 08:40:00 10.8 C 82 % 7.85 C
682 22-09-2018 08:45:00 10.9 C 81 % 7.77 C
683 22-09-2018 08:50:00 11.1 C 81 % 7.97 C
684 22-09-2018 08:55:00 11.2 C 81 % 8.06 C
685 22-09-2018 09:00:00 11.2 C 81 % 8.06 C
686 22-09-2018 09:05:00 11.3 C 80 % 7.98 C
687 22-09-2018 09:10:00 11.4 C 80 % 8.08 C
688 22-09-2018 09:15:00 11.4 C 80 % 8.08 C
689 22-09-2018 09:20:00 11.6 C 80 % 8.27 C
690 22-09-2018 09:25:00 11.6 C 80 % 8.27 C
691 22-09-2018 09:30:00 11.7 C 79 % 8.18 C
692 22-09-2018 09:35:00 11.8 C 79 % 8.28 C
693 22-09-2018 09:40:00 11.8 C 79 % 8.28 C
694 22-09-2018 09:45:00 11.9 C 79 % 8.38 C
695 22-09-2018 09:50:00 11.9 C 79 % 8.38 C
696 22-09-2018 09:55:00 12 C 79 % 8.48 C
697 22-09-2018 10:00:00 12.1 C 78 % 8.38 C
698 22-09-2018 10:05:00 12.1 C 79 % 8.57 C
699 22-09-2018 10:10:00 12.2 C 78 % 8.48 C
700 22-09-2018 10:15:00 12.3 C 78 % 8.58 C
Sensor: Nr:Datum:Temp:Feuchte:Taupunkt:
Aussen-T/F 701 22-09-2018 10:20:00 12.4 C 78 % 8.68 C
702 22-09-2018 10:25:00 12.5 C 77 % 8.58 C
703 22-09-2018 10:30:00 12.6 C 77 % 8.68 C
704 22-09-2018 10:35:00 12.6 C 77 % 8.68 C
705 22-09-2018 10:40:00 12.8 C 78 % 9.06 C
706 22-09-2018 10:45:00 13.1 C 75 % 8.77 C
707 22-09-2018 10:50:00 13.2 C 75 % 8.87 C
708 22-09-2018 10:55:00 13.3 C 75 % 8.97 C
709 22-09-2018 11:00:00 13.3 C 75 % 8.97 C
710 22-09-2018 11:05:00 13.5 C 74 % 8.96 C
711 22-09-2018 11:10:00 13.6 C 74 % 9.06 C
712 22-09-2018 11:15:00 13.8 C 73 % 9.05 C
713 22-09-2018 11:20:00 13.9 C 73 % 9.15 C
714 22-09-2018 11:25:00 14 C 72 % 9.04 C
715 22-09-2018 11:30:00 14.1 C 72 % 9.13 C
716 22-09-2018 11:35:00 14.2 C 72 % 9.23 C
717 22-09-2018 11:40:00 14.3 C 71 % 9.12 C
718 22-09-2018 11:45:00 14.4 C 71 % 9.21 C
719 22-09-2018 11:50:00 14.5 C 70 % 9.1 C
720 22-09-2018 11:55:00 14.6 C 70 % 9.2 C
721 22-09-2018 12:00:00 14.6 C 71 % 9.41 C
722 22-09-2018 12:05:00 14.7 C 70 % 9.29 C
723 22-09-2018 12:10:00 14.9 C 70 % 9.48 C
724 22-09-2018 12:15:00 15.1 C 69 % 9.46 C
725 22-09-2018 12:20:00 15.2 C 68 % 9.34 C
Sensor: Nr:Datum:Temp:Feuchte:Taupunkt:
Aussen-T/F 726 22-09-2018 12:25:00 15.3 C 69 % 9.65 C
727 22-09-2018 12:30:00 15.4 C 68 % 9.53 C
728 22-09-2018 12:35:00 15.6 C 69 % 9.94 C
729 22-09-2018 12:40:00 15.7 C 68 % 9.82 C
730 22-09-2018 12:45:00 15.8 C 66 % 9.47 C
731 22-09-2018 12:50:00 15.8 C 68 % 9.91 C
732 22-09-2018 12:55:00 15.9 C 66 % 9.56 C
733 22-09-2018 13:00:00 15.9 C 67 % 9.79 C
734 22-09-2018 13:05:00 16 C 67 % 9.88 C
735 22-09-2018 13:10:00 16.1 C 67 % 9.98 C
736 22-09-2018 13:15:00 16.2 C 67 % 10.07 C
737 22-09-2018 13:20:00 16.3 C 67 % 10.17 C
738 22-09-2018 13:25:00 16.7 C 65 % 10.09 C
739 22-09-2018 13:30:00 16.8 C 64 % 9.96 C
740 22-09-2018 13:35:00 16.9 C 63 % 9.82 C
741 22-09-2018 13:40:00 17 C 62 % 9.67 C
742 22-09-2018 13:45:00 16.9 C 61 % 9.34 C
743 22-09-2018 13:50:00 17 C 63 % 9.91 C
744 22-09-2018 13:55:00 17 C 61 % 9.43 C
745 22-09-2018 14:00:00 17 C 61 % 9.43 C
746 22-09-2018 14:05:00 17 C 61 % 9.43 C
747 22-09-2018 14:10:00 17.1 C 61 % 9.53 C
748 22-09-2018 14:15:00 17.1 C 61 % 9.53 C
749 22-09-2018 14:20:00 17.1 C 62 % 9.77 C
750 22-09-2018 14:25:00 17.2 C 61 % 9.62 C
Sensor: Nr:Datum:Temp:Feuchte:Taupunkt:
Aussen-T/F 751 22-09-2018 14:30:00 17.3 C 61 % 9.71 C
752 22-09-2018 14:35:00 17.3 C 60 % 9.47 C
753 22-09-2018 14:40:00 17.2 C 60 % 9.37 C
754 22-09-2018 14:45:00 17.1 C 60 % 9.28 C
755 22-09-2018 14:50:00 16.9 C 61 % 9.34 C
756 22-09-2018 14:55:00 16.9 C 61 % 9.34 C
757 22-09-2018 15:00:00 16.9 C 60 % 9.09 C
758 22-09-2018 15:05:00 16.9 C 61 % 9.34 C
759 22-09-2018 15:10:00 16.9 C 61 % 9.34 C
760 22-09-2018 15:15:00 17 C 60 % 9.19 C
761 22-09-2018 15:20:00 17.1 C 60 % 9.28 C
762 22-09-2018 15:25:00 17.1 C 59 % 9.03 C
763 22-09-2018 15:30:00 17.1 C 59 % 9.03 C
764 22-09-2018 15:35:00 17.1 C 60 % 9.28 C
765 22-09-2018 15:40:00 17.1 C 60 % 9.28 C
766 22-09-2018 15:45:00 17.1 C 60 % 9.28 C
767 22-09-2018 15:50:00 17.1 C 59 % 9.03 C
768 22-09-2018 15:55:00 17.2 C 61 % 9.62 C
769 22-09-2018 16:00:00 17.4 C 60 % 9.56 C
770 22-09-2018 16:05:00 17.6 C 60 % 9.75 C
771 22-09-2018 16:10:00 17.4 C 59 % 9.31 C
772 22-09-2018 16:15:00 17.4 C 59 % 9.31 C
773 22-09-2018 16:20:00 17.3 C 59 % 9.22 C
774 22-09-2018 16:25:00 17.3 C 58 % 8.97 C
775 22-09-2018 16:30:00 17.2 C 58 % 8.87 C
Sensor: Nr:Datum:Temp:Feuchte:Taupunkt:
Aussen-T/F 776 22-09-2018 16:35:00 17.3 C 59 % 9.22 C
777 22-09-2018 16:40:00 17.3 C 56 % 8.45 C
778 22-09-2018 16:45:00 17.2 C 56 % 8.35 C
779 22-09-2018 16:50:00 17.1 C 56 % 8.26 C
780 22-09-2018 16:55:00 17 C 55 % 7.9 C
781 22-09-2018 17:00:00 16.9 C 56 % 8.07 C
782 22-09-2018 17:05:00 16.8 C 55 % 7.72 C
783 22-09-2018 17:10:00 16.7 C 58 % 8.4 C
784 22-09-2018 17:15:00 16.3 C 67 % 10.17 C
785 22-09-2018 17:20:00 15.8 C 69 % 10.13 C
786 22-09-2018 17:25:00 15.2 C 70 % 9.77 C
787 22-09-2018 17:30:00 14.6 C 73 % 9.82 C
788 22-09-2018 17:35:00 14.1 C 75 % 9.74 C
789 22-09-2018 17:40:00 13.8 C 76 % 9.65 C
790 22-09-2018 17:45:00 13.6 C 78 % 9.84 C
791 22-09-2018 17:50:00 13.5 C 79 % 9.93 C
792 22-09-2018 17:55:00 13.4 C 80 % 10.02 C
793 22-09-2018 18:00:00 13.3 C 81 % 10.11 C
794 22-09-2018 18:05:00 13.2 C 81 % 10.01 C
795 22-09-2018 18:10:00 13.2 C 83 % 10.38 C
796 22-09-2018 18:15:00 13.1 C 83 % 10.28 C
797 22-09-2018 18:20:00 13.1 C 84 % 10.46 C
798 22-09-2018 18:25:00 12.9 C 83 % 10.09 C
799 22-09-2018 18:30:00 12.9 C 84 % 10.26 C
800 22-09-2018 18:35:00 12.8 C 84 % 10.17 C
Sensor: Nr:Datum:Temp:Feuchte:Taupunkt:
Aussen-T/F 801 22-09-2018 18:40:00 12.8 C 85 % 10.34 C
802 22-09-2018 18:45:00 12.7 C 85 % 10.25 C
803 22-09-2018 18:50:00 12.6 C 86 % 10.32 C
804 22-09-2018 18:55:00 12.5 C 86 % 10.22 C
805 22-09-2018 19:00:00 12.4 C 86 % 10.13 C
806 22-09-2018 19:05:00 12.3 C 87 % 10.2 C
807 22-09-2018 19:10:00 12.2 C 87 % 10.1 C
808 22-09-2018 19:15:00 12.1 C 88 % 10.17 C
809 22-09-2018 19:20:00 12 C 88 % 10.08 C
810 22-09-2018 19:25:00 11.9 C 89 % 10.15 C
811 22-09-2018 19:30:00 11.9 C 90 % 10.31 C
812 22-09-2018 19:35:00 11.9 C 90 % 10.31 C
813 22-09-2018 19:40:00 11.8 C 90 % 10.21 C
814 22-09-2018 19:45:00 11.8 C 91 % 10.38 C
815 22-09-2018 19:50:00 11.7 C 91 % 10.28 C
816 22-09-2018 19:55:00 11.7 C 91 % 10.28 C
817 22-09-2018 20:00:00 11.7 C 91 % 10.28 C
818 22-09-2018 20:05:00 11.6 C 91 % 10.18 C
819 22-09-2018 20:10:00 11.6 C 92 % 10.35 C
820 22-09-2018 20:15:00 11.6 C 92 % 10.35 C
821 22-09-2018 20:20:00 11.5 C 92 % 10.25 C
822 22-09-2018 20:25:00 11.5 C 92 % 10.25 C
823 22-09-2018 20:30:00 11.5 C 92 % 10.25 C
824 22-09-2018 20:35:00 11.5 C 92 % 10.25 C
825 22-09-2018 20:40:00 11.4 C 93 % 10.31 C
Sensor: Nr:Datum:Temp:Feuchte:Taupunkt:
Aussen-T/F 826 22-09-2018 20:45:00 11.4 C 93 % 10.31 C
827 22-09-2018 20:50:00 11.4 C 93 % 10.31 C
828 22-09-2018 20:55:00 11.4 C 93 % 10.31 C
829 22-09-2018 21:00:00 11.4 C 93 % 10.31 C
830 22-09-2018 21:05:00 11.4 C 93 % 10.31 C
831 22-09-2018 21:10:00 11.3 C 93 % 10.21 C
832 22-09-2018 21:15:00 11.3 C 93 % 10.21 C
833 22-09-2018 21:20:00 11.3 C 93 % 10.21 C
834 22-09-2018 21:25:00 11.3 C 93 % 10.21 C
835 22-09-2018 21:30:00 11.3 C 93 % 10.21 C
836 22-09-2018 21:35:00 11.3 C 93 % 10.21 C
837 22-09-2018 21:40:00 11.3 C 93 % 10.21 C
838 22-09-2018 21:45:00 11.3 C 94 % 10.37 C
839 22-09-2018 21:50:00 11.3 C 94 % 10.37 C
840 22-09-2018 21:55:00 11.3 C 94 % 10.37 C
841 22-09-2018 22:00:00 11.3 C 94 % 10.37 C
842 22-09-2018 22:05:00 11.3 C 94 % 10.37 C
843 22-09-2018 22:10:00 11.3 C 94 % 10.37 C
844 22-09-2018 22:15:00 11.3 C 94 % 10.37 C
845 22-09-2018 22:20:00 11.2 C 94 % 10.27 C
846 22-09-2018 22:25:00 11.2 C 94 % 10.27 C
847 22-09-2018 22:30:00 11.2 C 94 % 10.27 C
848 22-09-2018 22:35:00 11.2 C 94 % 10.27 C
849 22-09-2018 22:40:00 11.2 C 94 % 10.27 C
850 22-09-2018 22:45:00 11.2 C 94 % 10.27 C
Sensor: Nr:Datum:Temp:Feuchte:Taupunkt:
Aussen-T/F 851 22-09-2018 22:50:00 11.2 C 94 % 10.27 C
852 22-09-2018 22:55:00 11.2 C 94 % 10.27 C
853 22-09-2018 23:00:00 11.2 C 94 % 10.27 C
854 22-09-2018 23:05:00 11.2 C 94 % 10.27 C
855 22-09-2018 23:10:00 11.2 C 94 % 10.27 C
856 22-09-2018 23:15:00 11.2 C 94 % 10.27 C
857 22-09-2018 23:20:00 11.3 C 94 % 10.37 C
858 22-09-2018 23:25:00 11.3 C 94 % 10.37 C
859 22-09-2018 23:30:00 11.2 C 94 % 10.27 C
860 22-09-2018 23:35:00 11.2 C 94 % 10.27 C
861 22-09-2018 23:40:00 11.2 C 94 % 10.27 C
862 22-09-2018 23:45:00 11.2 C 95 % 10.43 C
863 22-09-2018 23:50:00 11.2 C 95 % 10.43 C
864 22-09-2018 23:55:00 11.2 C 95 % 10.43 C
865 23-09-2018 00:00:00 11.2 C 95 % 10.43 C
866 23-09-2018 00:05:00 11.2 C 95 % 10.43 C
867 23-09-2018 00:10:00 11.2 C 95 % 10.43 C
868 23-09-2018 00:15:00 11.2 C 95 % 10.43 C
869 23-09-2018 00:20:00 11.3 C 95 % 10.53 C
870 23-09-2018 00:25:00 11.3 C 95 % 10.53 C
871 23-09-2018 00:30:00 11.3 C 95 % 10.53 C
872 23-09-2018 00:35:00 11.3 C 95 % 10.53 C
873 23-09-2018 00:40:00 11.3 C 95 % 10.53 C
874 23-09-2018 00:45:00 11.3 C 95 % 10.53 C
875 23-09-2018 00:50:00 11.3 C 95 % 10.53 C
Sensor: Nr:Datum:Temp:Feuchte:Taupunkt:
Aussen-T/F 876 23-09-2018 00:55:00 11.3 C 95 % 10.53 C
877 23-09-2018 01:00:00 11.3 C 95 % 10.53 C
878 23-09-2018 01:05:00 11.3 C 95 % 10.53 C
879 23-09-2018 01:10:00 11.3 C 95 % 10.53 C
880 23-09-2018 01:15:00 11.3 C 95 % 10.53 C
881 23-09-2018 01:20:00 11.3 C 95 % 10.53 C
882 23-09-2018 01:25:00 11.2 C 95 % 10.43 C
883 23-09-2018 01:30:00 11.3 C 95 % 10.53 C
884 23-09-2018 01:35:00 11.2 C 95 % 10.43 C
885 23-09-2018 01:40:00 11.2 C 95 % 10.43 C
886 23-09-2018 01:45:00 11.2 C 95 % 10.43 C
887 23-09-2018 01:50:00 11.2 C 95 % 10.43 C
888 23-09-2018 01:55:00 11.2 C 95 % 10.43 C
889 23-09-2018 02:00:00 11.2 C 95 % 10.43 C
890 23-09-2018 02:05:00 11.2 C 95 % 10.43 C
891 23-09-2018 02:10:00 11.2 C 95 % 10.43 C
892 23-09-2018 02:15:00 11.2 C 95 % 10.43 C
893 23-09-2018 02:20:00 11.2 C 95 % 10.43 C
894 23-09-2018 02:25:00 11.2 C 96 % 10.59 C
895 23-09-2018 02:30:00 11.2 C 96 % 10.59 C
896 23-09-2018 02:35:00 11.2 C 96 % 10.59 C
897 23-09-2018 02:40:00 11.3 C 96 % 10.69 C
898 23-09-2018 02:45:00 11.3 C 96 % 10.69 C
899 23-09-2018 02:50:00 11.3 C 96 % 10.69 C
900 23-09-2018 02:55:00 11.3 C 96 % 10.69 C
Sensor: Nr:Datum:Temp:Feuchte:Taupunkt:
Aussen-T/F 901 23-09-2018 03:00:00 11.3 C 96 % 10.69 C
902 23-09-2018 03:05:00 11.3 C 96 % 10.69 C
903 23-09-2018 03:10:00 11.3 C 96 % 10.69 C
904 23-09-2018 03:15:00 11.3 C 96 % 10.69 C
905 23-09-2018 03:20:00 11.3 C 96 % 10.69 C
906 23-09-2018 03:25:00 11.3 C 96 % 10.69 C
907 23-09-2018 03:30:00 11.3 C 96 % 10.69 C
908 23-09-2018 03:35:00 11.3 C 96 % 10.69 C
909 23-09-2018 03:40:00 11.3 C 96 % 10.69 C
910 23-09-2018 03:45:00 11.3 C 96 % 10.69 C
911 23-09-2018 03:50:00 11.3 C 96 % 10.69 C
912 23-09-2018 03:55:00 11.3 C 96 % 10.69 C
913 23-09-2018 04:00:00 11.3 C 96 % 10.69 C
914 23-09-2018 04:05:00 11.3 C 96 % 10.69 C
915 23-09-2018 04:10:00 11.3 C 96 % 10.69 C
916 23-09-2018 04:15:00 11.3 C 96 % 10.69 C
917 23-09-2018 04:20:00 11.3 C 96 % 10.69 C
918 23-09-2018 04:25:00 11.3 C 96 % 10.69 C
919 23-09-2018 04:30:00 11.3 C 96 % 10.69 C
920 23-09-2018 04:35:00 11.3 C 96 % 10.69 C
921 23-09-2018 04:40:00 11.3 C 96 % 10.69 C
922 23-09-2018 04:45:00 11.3 C 96 % 10.69 C
923 23-09-2018 04:50:00 11.3 C 96 % 10.69 C
924 23-09-2018 04:55:00 11.3 C 96 % 10.69 C
925 23-09-2018 05:00:00 11.4 C 96 % 10.79 C
Sensor: Nr:Datum:Temp:Feuchte:Taupunkt:
Aussen-T/F 926 23-09-2018 05:05:00 11.4 C 96 % 10.79 C
927 23-09-2018 05:10:00 11.3 C 96 % 10.69 C
928 23-09-2018 05:15:00 11.3 C 96 % 10.69 C
929 23-09-2018 05:20:00 11.3 C 96 % 10.69 C
930 23-09-2018 05:25:00 11.3 C 96 % 10.69 C
931 23-09-2018 05:30:00 11.3 C 96 % 10.69 C
932 23-09-2018 05:35:00 11.4 C 96 % 10.79 C
933 23-09-2018 05:40:00 11.4 C 96 % 10.79 C
934 23-09-2018 05:45:00 11.4 C 96 % 10.79 C
935 23-09-2018 05:50:00 11.4 C 96 % 10.79 C
936 23-09-2018 05:55:00 11.4 C 96 % 10.79 C
937 23-09-2018 06:00:00 11.4 C 96 % 10.79 C
938 23-09-2018 06:05:00 11.4 C 96 % 10.79 C
939 23-09-2018 06:10:00 11.4 C 96 % 10.79 C
940 23-09-2018 06:15:00 11.4 C 96 % 10.79 C
941 23-09-2018 06:20:00 11.4 C 96 % 10.79 C
942 23-09-2018 06:25:00 11.4 C 96 % 10.79 C
943 23-09-2018 06:30:00 11.5 C 96 % 10.88 C
944 23-09-2018 06:35:00 11.5 C 96 % 10.88 C
945 23-09-2018 06:40:00 11.5 C 96 % 10.88 C
946 23-09-2018 06:45:00 11.5 C 96 % 10.88 C
947 23-09-2018 06:50:00 11.5 C 96 % 10.88 C
948 23-09-2018 06:55:00 11.5 C 96 % 10.88 C
949 23-09-2018 07:00:00 11.5 C 96 % 10.88 C
950 23-09-2018 07:05:00 11.5 C 96 % 10.88 C
Sensor: Nr:Datum:Temp:Feuchte:Taupunkt:
Aussen-T/F 951 23-09-2018 07:10:00 11.6 C 96 % 10.98 C
952 23-09-2018 07:15:00 11.6 C 96 % 10.98 C
953 23-09-2018 07:20:00 11.6 C 96 % 10.98 C
954 23-09-2018 07:25:00 11.6 C 96 % 10.98 C
955 23-09-2018 07:30:00 11.6 C 96 % 10.98 C
956 23-09-2018 07:35:00 11.6 C 96 % 10.98 C
957 23-09-2018 07:40:00 11.7 C 96 % 11.08 C
958 23-09-2018 07:45:00 11.7 C 96 % 11.08 C
959 23-09-2018 07:50:00 11.7 C 96 % 11.08 C
960 23-09-2018 07:55:00 11.7 C 96 % 11.08 C
961 23-09-2018 08:00:00 11.8 C 96 % 11.18 C
962 23-09-2018 08:05:00 11.7 C 96 % 11.08 C
963 23-09-2018 08:10:00 11.8 C 97 % 11.34 C
964 23-09-2018 08:15:00 11.8 C 97 % 11.34 C
965 23-09-2018 08:20:00 11.8 C 96 % 11.18 C
966 23-09-2018 08:25:00 11.9 C 96 % 11.28 C
967 23-09-2018 08:30:00 11.9 C 96 % 11.28 C
968 23-09-2018 08:35:00 11.9 C 96 % 11.28 C
969 23-09-2018 08:40:00 12 C 96 % 11.38 C
970 23-09-2018 08:45:00 12 C 96 % 11.38 C
971 23-09-2018 08:50:00 12.1 C 96 % 11.48 C
972 23-09-2018 08:55:00 12.1 C 97 % 11.64 C
973 23-09-2018 09:00:00 12.2 C 97 % 11.74 C
974 23-09-2018 09:05:00 12.2 C 97 % 11.74 C
975 23-09-2018 09:10:00 12.3 C 97 % 11.84 C
Sensor: Nr:Datum:Temp:Feuchte:Taupunkt:
Aussen-T/F 976 23-09-2018 09:15:00 12.3 C 97 % 11.84 C
977 23-09-2018 09:20:00 12.4 C 97 % 11.94 C
978 23-09-2018 09:25:00 12.4 C 97 % 11.94 C
979 23-09-2018 09:30:00 12.5 C 97 % 12.04 C
980 23-09-2018 09:35:00 12.5 C 97 % 12.04 C
981 23-09-2018 09:40:00 12.6 C 97 % 12.14 C
982 23-09-2018 09:45:00 12.6 C 97 % 12.14 C
983 23-09-2018 09:50:00 12.6 C 97 % 12.14 C
984 23-09-2018 09:55:00 12.7 C 97 % 12.24 C
985 23-09-2018 10:00:00 12.7 C 97 % 12.24 C
986 23-09-2018 10:05:00 12.8 C 97 % 12.34 C
987 23-09-2018 10:10:00 12.9 C 97 % 12.44 C
988 23-09-2018 10:15:00 12.9 C 97 % 12.44 C
989 23-09-2018 10:20:00 12.9 C 97 % 12.44 C
990 23-09-2018 10:25:00 12.9 C 97 % 12.44 C
991 23-09-2018 10:30:00 13.1 C 97 % 12.63 C
992 23-09-2018 10:35:00 13.1 C 97 % 12.63 C
993 23-09-2018 10:40:00 13.2 C 97 % 12.73 C
994 23-09-2018 10:45:00 13.3 C 97 % 12.83 C
995 23-09-2018 10:50:00 13.3 C 97 % 12.83 C
996 23-09-2018 10:55:00 13.4 C 97 % 12.93 C
997 23-09-2018 11:00:00 13.4 C 97 % 12.93 C
998 23-09-2018 11:05:00 13.6 C 97 % 13.13 C
999 23-09-2018 11:10:00 13.7 C 97 % 13.23 C
1000 23-09-2018 11:15:00 13.7 C 97 % 13.23 C
Sensor: Nr:Datum:Temp:Feuchte:Taupunkt:
Aussen-T/F 1001 23-09-2018 11:20:00 13.8 C 97 % 13.33 C
1002 23-09-2018 11:25:00 13.8 C 97 % 13.33 C
1003 23-09-2018 11:30:00 13.8 C 97 % 13.33 C
1004 23-09-2018 11:35:00 13.9 C 97 % 13.43 C
1005 23-09-2018 11:40:00 13.9 C 97 % 13.43 C
1006 23-09-2018 11:45:00 13.9 C 97 % 13.43 C
1007 23-09-2018 11:50:00 14 C 97 % 13.53 C
1008 23-09-2018 11:55:00 14.1 C 97 % 13.63 C
1009 23-09-2018 12:00:00 14 C 97 % 13.53 C
1010 23-09-2018 12:05:00 14.1 C 97 % 13.63 C
1011 23-09-2018 12:10:00 14.1 C 97 % 13.63 C
1012 23-09-2018 12:15:00 14.2 C 97 % 13.73 C
1013 23-09-2018 12:20:00 14.3 C 97 % 13.83 C
1014 23-09-2018 12:25:00 14.5 C 97 % 14.03 C
1015 23-09-2018 12:30:00 14.7 C 97 % 14.23 C
1016 23-09-2018 12:35:00 14.8 C 97 % 14.33 C
1017 23-09-2018 12:40:00 14.8 C 97 % 14.33 C
1018 23-09-2018 12:45:00 14.8 C 97 % 14.33 C
1019 23-09-2018 12:50:00 14.8 C 97 % 14.33 C
1020 23-09-2018 12:55:00 14.9 C 97 % 14.43 C
1021 23-09-2018 13:00:00 14.9 C 97 % 14.43 C
1022 23-09-2018 13:05:00 15.1 C 97 % 14.63 C
1023 23-09-2018 13:10:00 15.1 C 97 % 14.63 C
1024 23-09-2018 13:15:00 15.2 C 97 % 14.73 C
1025 23-09-2018 13:20:00 15.2 C 97 % 14.73 C
Sensor: Nr:Datum:Temp:Feuchte:Taupunkt:
Aussen-T/F 1026 23-09-2018 13:25:00 15.3 C 97 % 14.83 C
1027 23-09-2018 13:30:00 15.4 C 97 % 14.93 C
1028 23-09-2018 13:35:00 15.6 C 97 % 15.13 C
1029 23-09-2018 13:40:00 15.8 C 97 % 15.32 C
1030 23-09-2018 13:45:00 15.8 C 97 % 15.32 C
1031 23-09-2018 13:50:00 15.9 C 97 % 15.42 C
1032 23-09-2018 13:55:00 16.2 C 97 % 15.72 C
1033 23-09-2018 14:00:00 16.8 C 98 % 16.48 C
1034 23-09-2018 14:05:00 17.7 C 98 % 17.38 C
1035 23-09-2018 14:10:00 18.3 C 98 % 17.98 C
1036 23-09-2018 14:15:00 18.8 C 98 % 18.48 C
1037 23-09-2018 14:20:00 19 C 98 % 18.68 C
1038 23-09-2018 14:25:00 19.3 C 98 % 18.98 C
1039 23-09-2018 14:30:00 19.5 C 98 % 19.18 C
1040 23-09-2018 14:35:00 19.6 C 98 % 19.28 C
1041 23-09-2018 14:40:00 19.7 C 97 % 19.21 C
1042 23-09-2018 14:45:00 19.6 C 97 % 19.11 C
1043 23-09-2018 14:50:00 19.4 C 96 % 18.75 C
1044 23-09-2018 14:55:00 19.4 C 95 % 18.58 C
1045 23-09-2018 15:00:00 19.4 C 95 % 18.58 C
1046 23-09-2018 15:05:00 19.5 C 95 % 18.68 C
1047 23-09-2018 15:10:00 19.7 C 94 % 18.71 C
1048 23-09-2018 15:15:00 19.7 C 94 % 18.71 C
1049 23-09-2018 15:20:00 19.4 C 88 % 17.36 C
1050 23-09-2018 15:25:00 17.7 C 84 % 14.96 C
Sensor: Nr:Datum:Temp:Feuchte:Taupunkt:
Aussen-T/F 1051 23-09-2018 15:30:00 16.2 C 88 % 14.21 C
1052 23-09-2018 15:35:00 15.2 C 90 % 13.57 C
1053 23-09-2018 15:40:00 14.6 C 91 % 13.15 C
1054 23-09-2018 15:45:00 14.2 C 92 % 12.92 C
1055 23-09-2018 15:50:00 13.9 C 93 % 12.79 C
1056 23-09-2018 15:55:00 13.7 C 93 % 12.59 C
1057 23-09-2018 16:00:00 13.5 C 93 % 12.39 C
1058 23-09-2018 16:05:00 13.3 C 93 % 12.19 C
1059 23-09-2018 16:10:00 13.3 C 93 % 12.19 C
1060 23-09-2018 16:15:00 13.3 C 94 % 12.36 C
1061 23-09-2018 16:20:00 13.3 C 94 % 12.36 C
1062 23-09-2018 16:25:00 13.2 C 94 % 12.26 C
1063 23-09-2018 16:30:00 13.2 C 94 % 12.26 C
1064 23-09-2018 16:35:00 13.3 C 94 % 12.36 C
1065 23-09-2018 16:40:00 13.3 C 94 % 12.36 C
1066 23-09-2018 16:45:00 13.3 C 94 % 12.36 C
1067 23-09-2018 16:50:00 13.3 C 94 % 12.36 C
1068 23-09-2018 16:55:00 13.2 C 94 % 12.26 C
1069 23-09-2018 17:00:00 13.1 C 93 % 11.99 C
1070 23-09-2018 17:05:00 13 C 93 % 11.9 C
1071 23-09-2018 17:10:00 12.9 C 93 % 11.8 C
1072 23-09-2018 17:15:00 12.8 C 93 % 11.7 C
1073 23-09-2018 17:20:00 12.8 C 93 % 11.7 C
1074 23-09-2018 17:25:00 12.7 C 92 % 11.43 C
1075 23-09-2018 17:30:00 12.7 C 92 % 11.43 C
Sensor: Nr:Datum:Temp:Feuchte:Taupunkt:
Aussen-T/F 1076 23-09-2018 17:35:00 12.6 C 92 % 11.34 C
1077 23-09-2018 17:40:00 12.5 C 92 % 11.24 C
1078 23-09-2018 17:45:00 12.4 C 93 % 11.3 C
1079 23-09-2018 17:50:00 12.4 C 92 % 11.14 C
1080 23-09-2018 17:55:00 12.3 C 92 % 11.04 C
1081 23-09-2018 18:00:00 12.3 C 92 % 11.04 C
1082 23-09-2018 18:05:00 12.3 C 92 % 11.04 C
1083 23-09-2018 18:10:00 12.2 C 92 % 10.94 C
1084 23-09-2018 18:15:00 12.2 C 91 % 10.78 C
1085 23-09-2018 18:20:00 12.1 C 90 % 10.51 C
1086 23-09-2018 18:25:00 11.9 C 90 % 10.31 C
1087 23-09-2018 18:30:00 11.8 C 90 % 10.21 C
1088 23-09-2018 18:35:00 11.8 C 90 % 10.21 C
1089 23-09-2018 18:40:00 11.7 C 90 % 10.12 C
1090 23-09-2018 18:45:00 11.7 C 90 % 10.12 C
1091 23-09-2018 18:50:00 11.7 C 90 % 10.12 C
1092 23-09-2018 18:55:00 11.6 C 90 % 10.02 C
1093 23-09-2018 19:00:00 11.5 C 90 % 9.92 C
1094 23-09-2018 19:05:00 11.4 C 90 % 9.82 C
1095 23-09-2018 19:10:00 11.4 C 90 % 9.82 C
1096 23-09-2018 19:15:00 11.3 C 90 % 9.72 C
1097 23-09-2018 19:20:00 11.2 C 91 % 9.79 C
1098 23-09-2018 19:25:00 11.1 C 92 % 9.85 C
1099 23-09-2018 19:30:00 11 C 92 % 9.75 C
1100 23-09-2018 19:35:00 10.9 C 92 % 9.65 C
Sensor: Nr:Datum:Temp:Feuchte:Taupunkt:
Aussen-T/F 1101 23-09-2018 19:40:00 10.9 C 92 % 9.65 C
1102 23-09-2018 19:45:00 10.8 C 92 % 9.55 C
1103 23-09-2018 19:50:00 10.8 C 92 % 9.55 C
1104 23-09-2018 19:55:00 10.8 C 92 % 9.55 C
1105 23-09-2018 20:00:00 10.7 C 92 % 9.45 C
1106 23-09-2018 20:05:00 10.8 C 92 % 9.55 C
1107 23-09-2018 20:10:00 10.7 C 93 % 9.62 C
1108 23-09-2018 20:15:00 10.7 C 93 % 9.62 C
1109 23-09-2018 20:20:00 10.7 C 92 % 9.45 C
1110 23-09-2018 20:25:00 10.7 C 92 % 9.45 C
1111 23-09-2018 20:30:00 10.6 C 91 % 9.19 C
1112 23-09-2018 20:35:00 10.4 C 90 % 8.83 C
1113 23-09-2018 20:40:00 10.2 C 89 % 8.47 C
1114 23-09-2018 20:45:00 10.1 C 87 % 8.04 C
1115 23-09-2018 20:50:00 9.9 C 88 % 8.01 C
1116 23-09-2018 20:55:00 9.8 C 87 % 7.74 C
1117 23-09-2018 21:00:00 9.8 C 88 % 7.91 C
1118 23-09-2018 21:05:00 9.7 C 88 % 7.81 C
1119 23-09-2018 21:10:00 9.7 C 89 % 7.98 C
1120 23-09-2018 21:15:00 9.7 C 89 % 7.98 C
1121 23-09-2018 21:20:00 9.6 C 89 % 7.88 C
1122 23-09-2018 21:25:00 9.5 C 89 % 7.78 C
1123 23-09-2018 21:30:00 9.5 C 91 % 8.11 C
1124 23-09-2018 21:35:00 9.4 C 90 % 7.85 C
1125 23-09-2018 21:40:00 9.4 C 90 % 7.85 C
Sensor: Nr:Datum:Temp:Feuchte:Taupunkt:
Aussen-T/F 1126 23-09-2018 21:45:00 9.4 C 91 % 8.01 C
1127 23-09-2018 21:50:00 9.5 C 91 % 8.11 C
1128 23-09-2018 21:55:00 9.4 C 91 % 8.01 C
1129 23-09-2018 22:00:00 9.5 C 91 % 8.11 C
1130 23-09-2018 22:05:00 9.6 C 91 % 8.21 C
1131 23-09-2018 22:10:00 9.5 C 91 % 8.11 C
1132 23-09-2018 22:15:00 9.5 C 91 % 8.11 C
1133 23-09-2018 22:20:00 9.6 C 91 % 8.21 C
1134 23-09-2018 22:25:00 9.6 C 91 % 8.21 C
1135 23-09-2018 22:30:00 9.6 C 91 % 8.21 C
1136 23-09-2018 22:35:00 9.6 C 91 % 8.21 C
1137 23-09-2018 22:40:00 9.6 C 92 % 8.37 C
1138 23-09-2018 22:45:00 9.6 C 91 % 8.21 C
1139 23-09-2018 22:50:00 9.6 C 91 % 8.21 C
1140 23-09-2018 22:55:00 9.5 C 91 % 8.11 C
1141 23-09-2018 23:00:00 9.5 C 91 % 8.11 C
1142 23-09-2018 23:05:00 9.6 C 91 % 8.21 C
1143 23-09-2018 23:10:00 9.6 C 91 % 8.21 C
1144 23-09-2018 23:15:00 9.6 C 91 % 8.21 C
1145 23-09-2018 23:20:00 9.6 C 91 % 8.21 C
1146 23-09-2018 23:25:00 9.6 C 91 % 8.21 C
1147 23-09-2018 23:30:00 9.6 C 91 % 8.21 C
1148 23-09-2018 23:35:00 9.6 C 91 % 8.21 C
1149 23-09-2018 23:40:00 9.6 C 91 % 8.21 C
1150 23-09-2018 23:45:00 9.6 C 91 % 8.21 C
Sensor: Nr:Datum:Temp:Feuchte:Taupunkt:
Aussen-T/F 1151 23-09-2018 23:50:00 9.6 C 91 % 8.21 C
1152 23-09-2018 23:55:00 9.6 C 91 % 8.21 C
1153 24-09-2018 00:00:00 9.7 C 91 % 8.3 C
1154 24-09-2018 00:05:00 9.7 C 91 % 8.3 C
1155 24-09-2018 00:10:00 9.7 C 91 % 8.3 C
1156 24-09-2018 00:15:00 9.7 C 91 % 8.3 C
1157 24-09-2018 00:20:00 9.7 C 91 % 8.3 C
1158 24-09-2018 00:25:00 9.7 C 91 % 8.3 C
1159 24-09-2018 00:30:00 9.7 C 91 % 8.3 C
1160 24-09-2018 00:35:00 9.7 C 91 % 8.3 C
1161 24-09-2018 00:40:00 9.7 C 91 % 8.3 C
1162 24-09-2018 00:45:00 9.7 C 91 % 8.3 C
1163 24-09-2018 00:50:00 9.7 C 92 % 8.46 C
1164 24-09-2018 00:55:00 9.7 C 92 % 8.46 C
1165 24-09-2018 01:00:00 9.7 C 92 % 8.46 C
1166 24-09-2018 01:05:00 9.7 C 92 % 8.46 C
1167 24-09-2018 01:10:00 9.7 C 92 % 8.46 C
1168 24-09-2018 01:15:00 9.8 C 92 % 8.56 C
1169 24-09-2018 01:20:00 9.8 C 92 % 8.56 C
1170 24-09-2018 01:25:00 9.8 C 91 % 8.4 C
1171 24-09-2018 01:30:00 9.8 C 91 % 8.4 C
1172 24-09-2018 01:35:00 9.7 C 91 % 8.3 C
1173 24-09-2018 01:40:00 9.7 C 91 % 8.3 C
1174 24-09-2018 01:45:00 9.6 C 91 % 8.21 C
1175 24-09-2018 01:50:00 9.5 C 91 % 8.11 C
Sensor: Nr:Datum:Temp:Feuchte:Taupunkt:
Aussen-T/F 1176 24-09-2018 01:55:00 9.5 C 91 % 8.11 C
1177 24-09-2018 02:00:00 9.5 C 91 % 8.11 C
1178 24-09-2018 02:05:00 9.5 C 91 % 8.11 C
1179 24-09-2018 02:10:00 9.5 C 91 % 8.11 C
1180 24-09-2018 02:15:00 9.5 C 91 % 8.11 C
1181 24-09-2018 02:20:00 9.4 C 91 % 8.01 C
1182 24-09-2018 02:25:00 9.4 C 91 % 8.01 C
1183 24-09-2018 02:30:00 9.4 C 92 % 8.17 C
1184 24-09-2018 02:35:00 9.3 C 92 % 8.07 C
1185 24-09-2018 02:40:00 9.2 C 91 % 7.81 C
1186 24-09-2018 02:45:00 9.1 C 92 % 7.87 C
1187 24-09-2018 02:50:00 9 C 92 % 7.77 C
1188 24-09-2018 02:55:00 8.9 C 92 % 7.67 C
1189 24-09-2018 03:00:00 8.8 C 92 % 7.57 C
1190 24-09-2018 03:05:00 8.8 C 92 % 7.57 C
1191 24-09-2018 03:10:00 8.7 C 93 % 7.63 C
1192 24-09-2018 03:15:00 8.8 C 93 % 7.73 C
1193 24-09-2018 03:20:00 8.8 C 93 % 7.73 C
1194 24-09-2018 03:25:00 8.9 C 93 % 7.83 C
1195 24-09-2018 03:30:00 8.9 C 93 % 7.83 C
1196 24-09-2018 03:35:00 8.9 C 93 % 7.83 C
1197 24-09-2018 03:40:00 9 C 93 % 7.93 C
1198 24-09-2018 03:45:00 9 C 93 % 7.93 C
1199 24-09-2018 03:50:00 9 C 93 % 7.93 C
1200 24-09-2018 03:55:00 9 C 93 % 7.93 C
Sensor: Nr:Datum:Temp:Feuchte:Taupunkt:
Aussen-T/F 1201 24-09-2018 04:00:00 9 C 93 % 7.93 C
1202 24-09-2018 04:05:00 8.9 C 93 % 7.83 C
1203 24-09-2018 04:10:00 8.9 C 93 % 7.83 C
1204 24-09-2018 04:15:00 8.8 C 93 % 7.73 C
1205 24-09-2018 04:20:00 8.6 C 93 % 7.53 C
1206 24-09-2018 04:25:00 8.5 C 93 % 7.43 C
1207 24-09-2018 04:30:00 8.4 C 93 % 7.34 C
1208 24-09-2018 04:35:00 8.4 C 94 % 7.49 C
1209 24-09-2018 04:40:00 8.4 C 94 % 7.49 C
1210 24-09-2018 04:45:00 8.4 C 94 % 7.49 C
1211 24-09-2018 04:50:00 8.4 C 94 % 7.49 C
1212 24-09-2018 04:55:00 8.4 C 94 % 7.49 C
1213 24-09-2018 05:00:00 8.4 C 94 % 7.49 C
1214 24-09-2018 05:05:00 8.3 C 94 % 7.39 C
1215 24-09-2018 05:10:00 8.2 C 93 % 7.14 C
1216 24-09-2018 05:15:00 8.1 C 94 % 7.19 C
1217 24-09-2018 05:20:00 8.1 C 94 % 7.19 C
1218 24-09-2018 05:25:00 8 C 94 % 7.09 C
1219 24-09-2018 05:30:00 7.9 C 94 % 7 C
1220 24-09-2018 05:35:00 8.1 C 94 % 7.19 C
1221 24-09-2018 05:40:00 8.1 C 94 % 7.19 C
1222 24-09-2018 05:45:00 8.2 C 94 % 7.29 C
1223 24-09-2018 05:50:00 8.2 C 95 % 7.45 C
1224 24-09-2018 05:55:00 8.3 C 95 % 7.55 C
1225 24-09-2018 06:00:00 8.3 C 95 % 7.55 C
Sensor: Nr:Datum:Temp:Feuchte:Taupunkt:
Aussen-T/F 1226 24-09-2018 06:05:00 8.3 C 95 % 7.55 C
1227 24-09-2018 06:10:00 8.3 C 95 % 7.55 C
1228 24-09-2018 06:15:00 8.3 C 95 % 7.55 C
1229 24-09-2018 06:20:00 8.2 C 95 % 7.45 C
1230 24-09-2018 06:25:00 8.1 C 94 % 7.19 C
1231 24-09-2018 06:30:00 7.9 C 94 % 7 C
1232 24-09-2018 06:35:00 7.8 C 94 % 6.9 C
1233 24-09-2018 06:40:00 7.7 C 94 % 6.8 C
1234 24-09-2018 06:45:00 7.6 C 94 % 6.7 C
1235 24-09-2018 06:50:00 7.5 C 94 % 6.6 C
1236 24-09-2018 06:55:00 7.4 C 94 % 6.5 C
1237 24-09-2018 07:00:00 7.3 C 94 % 6.4 C
1238 24-09-2018 07:05:00 7.2 C 94 % 6.3 C
1239 24-09-2018 07:10:00 7.2 C 94 % 6.3 C
1240 24-09-2018 07:15:00 7.2 C 94 % 6.3 C
1241 24-09-2018 07:20:00 7.1 C 94 % 6.2 C
1242 24-09-2018 07:25:00 7.1 C 95 % 6.35 C
1243 24-09-2018 07:30:00 7.1 C 95 % 6.35 C
1244 24-09-2018 07:35:00 7 C 95 % 6.26 C
1245 24-09-2018 07:40:00 7 C 95 % 6.26 C
1246 24-09-2018 07:45:00 7 C 95 % 6.26 C
1247 24-09-2018 07:50:00 7 C 95 % 6.26 C
1248 24-09-2018 07:55:00 7.1 C 95 % 6.35 C
1249 24-09-2018 08:00:00 7.1 C 95 % 6.35 C
1250 24-09-2018 08:05:00 7.2 C 95 % 6.45 C
Sensor: Nr:Datum:Temp:Feuchte:Taupunkt:
Aussen-T/F 1251 24-09-2018 08:10:00 7.3 C 95 % 6.55 C
1252 24-09-2018 08:15:00 7.3 C 95 % 6.55 C
1253 24-09-2018 08:20:00 7.4 C 95 % 6.65 C
1254 24-09-2018 08:25:00 7.4 C 96 % 6.8 C
1255 24-09-2018 08:30:00 7.4 C 95 % 6.65 C
1256 24-09-2018 08:35:00 7.3 C 95 % 6.55 C
1257 24-09-2018 08:40:00 7.3 C 95 % 6.55 C
1258 24-09-2018 08:45:00 7.3 C 95 % 6.55 C
1259 24-09-2018 08:50:00 7.3 C 95 % 6.55 C
1260 24-09-2018 08:55:00 7.2 C 95 % 6.45 C
1261 24-09-2018 09:00:00 7.2 C 95 % 6.45 C
1262 24-09-2018 09:05:00 7.3 C 95 % 6.55 C
1263 24-09-2018 09:10:00 7.3 C 95 % 6.55 C
1264 24-09-2018 09:15:00 7.3 C 95 % 6.55 C
1265 24-09-2018 09:20:00 7.3 C 95 % 6.55 C
1266 24-09-2018 09:25:00 7.4 C 96 % 6.8 C
1267 24-09-2018 09:30:00 7.4 C 96 % 6.8 C
1268 24-09-2018 09:35:00 7.6 C 96 % 7 C
1269 24-09-2018 09:40:00 7.6 C 96 % 7 C
1270 24-09-2018 09:45:00 7.7 C 96 % 7.1 C
1271 24-09-2018 09:50:00 7.8 C 96 % 7.2 C
1272 24-09-2018 09:55:00 7.8 C 96 % 7.2 C
1273 24-09-2018 10:00:00 7.9 C 96 % 7.3 C
1274 24-09-2018 10:05:00 7.9 C 96 % 7.3 C
1275 24-09-2018 10:10:00 8 C 96 % 7.4 C
Sensor: Nr:Datum:Temp:Feuchte:Taupunkt:
Aussen-T/F 1276 24-09-2018 10:15:00 8.1 C 96 % 7.5 C
1277 24-09-2018 10:20:00 8.2 C 96 % 7.6 C
1278 24-09-2018 10:25:00 8.3 C 96 % 7.7 C
1279 24-09-2018 10:30:00 8.4 C 96 % 7.8 C
1280 24-09-2018 10:35:00 8.8 C 96 % 8.2 C
1281 24-09-2018 10:40:00 9.1 C 96 % 8.5 C
1282 24-09-2018 10:45:00 9.3 C 96 % 8.7 C
1283 24-09-2018 10:50:00 9.3 C 96 % 8.7 C
1284 24-09-2018 10:55:00 9.4 C 94 % 8.48 C
1285 24-09-2018 11:00:00 9.6 C 92 % 8.37 C
1286 24-09-2018 11:05:00 10 C 88 % 8.11 C
1287 24-09-2018 11:10:00 10.5 C 86 % 8.26 C
1288 24-09-2018 11:15:00 10.8 C 83 % 8.03 C
1289 24-09-2018 11:20:00 11.2 C 80 % 7.88 C
1290 24-09-2018 11:25:00 11.4 C 79 % 7.89 C
1291 24-09-2018 11:30:00 11.7 C 76 % 7.62 C
1292 24-09-2018 11:35:00 11.8 C 77 % 7.9 C
1293 24-09-2018 11:40:00 12 C 76 % 7.91 C
1294 24-09-2018 11:45:00 12.2 C 76 % 8.1 C
1295 24-09-2018 11:50:00 12.3 C 73 % 7.61 C
1296 24-09-2018 11:55:00 12.3 C 72 % 7.4 C
1297 24-09-2018 12:00:00 12.6 C 74 % 8.09 C
1298 24-09-2018 12:05:00 12.7 C 73 % 7.99 C
1299 24-09-2018 12:10:00 12.8 C 73 % 8.09 C
1300 24-09-2018 12:15:00 12.8 C 72 % 7.88 C
Sensor: Nr:Datum:Temp:Feuchte:Taupunkt:
Aussen-T/F 1301 24-09-2018 12:20:00 12.7 C 72 % 7.79 C
1302 24-09-2018 12:25:00 12.7 C 71 % 7.58 C
1303 24-09-2018 12:30:00 12.9 C 72 % 7.98 C
1304 24-09-2018 12:35:00 13.1 C 71 % 7.97 C
1305 24-09-2018 12:40:00 13.1 C 69 % 7.55 C
1306 24-09-2018 12:45:00 13.1 C 66 % 6.9 C
1307 24-09-2018 12:50:00 13.1 C 67 % 7.12 C
1308 24-09-2018 12:55:00 13.2 C 67 % 7.21 C
1309 24-09-2018 13:00:00 13.2 C 68 % 7.43 C
1310 24-09-2018 13:05:00 13.3 C 67 % 7.31 C
1311 24-09-2018 13:10:00 13.3 C 67 % 7.31 C
1312 24-09-2018 13:15:00 13.4 C 67 % 7.4 C
1313 24-09-2018 13:20:00 13.3 C 65 % 6.87 C
1314 24-09-2018 13:25:00 13.5 C 64 % 6.83 C
1315 24-09-2018 13:30:00 13.7 C 63 % 6.79 C
1316 24-09-2018 13:35:00 13.9 C 62 % 6.75 C
1317 24-09-2018 13:40:00 13.9 C 63 % 6.98 C
1318 24-09-2018 13:45:00 13.8 C 65 % 7.34 C
1319 24-09-2018 13:50:00 13.6 C 68 % 7.81 C
1320 24-09-2018 13:55:00 13.3 C 70 % 7.95 C
1321 24-09-2018 14:00:00 13.1 C 72 % 8.17 C
1322 24-09-2018 14:05:00 13.1 C 70 % 7.76 C
1323 24-09-2018 14:10:00 13.2 C 67 % 7.21 C
1324 24-09-2018 14:15:00 13.2 C 67 % 7.21 C
1325 24-09-2018 14:20:00 13.3 C 66 % 7.09 C
Sensor: Nr:Datum:Temp:Feuchte:Taupunkt:
Aussen-T/F 1326 24-09-2018 14:25:00 13.5 C 68 % 7.72 C
1327 24-09-2018 14:30:00 13.7 C 65 % 7.25 C
1328 24-09-2018 14:35:00 14.1 C 65 % 7.63 C
1329 24-09-2018 14:40:00 14.2 C 65 % 7.72 C
1330 24-09-2018 14:45:00 14.2 C 64 % 7.5 C
1331 24-09-2018 14:50:00 14.2 C 63 % 7.27 C
1332 24-09-2018 14:55:00 14.1 C 64 % 7.4 C
1333 24-09-2018 15:00:00 14.1 C 63 % 7.17 C
1334 24-09-2018 15:05:00 14.1 C 65 % 7.63 C
1335 24-09-2018 15:10:00 14.1 C 63 % 7.17 C
1336 24-09-2018 15:15:00 14 C 62 % 6.84 C
1337 24-09-2018 15:20:00 13.9 C 63 % 6.98 C
1338 24-09-2018 15:25:00 14 C 65 % 7.53 C
1339 24-09-2018 15:30:00 14.1 C 63 % 7.17 C
1340 24-09-2018 15:35:00 14.3 C 62 % 7.13 C
1341 24-09-2018 15:40:00 14.3 C 61 % 6.89 C
1342 24-09-2018 15:45:00 14.3 C 62 % 7.13 C
1343 24-09-2018 15:50:00 14.4 C 61 % 6.98 C
1344 24-09-2018 15:55:00 14.4 C 59 % 6.5 C
1345 24-09-2018 16:00:00 14.3 C 61 % 6.89 C
1346 24-09-2018 16:05:00 14.1 C 63 % 7.17 C
1347 24-09-2018 16:10:00 14 C 65 % 7.53 C
1348 24-09-2018 16:15:00 13.9 C 66 % 7.66 C
1349 24-09-2018 16:20:00 13.8 C 66 % 7.57 C
1350 24-09-2018 16:25:00 13.7 C 65 % 7.25 C
Sensor: Nr:Datum:Temp:Feuchte:Taupunkt:
Aussen-T/F 1351 24-09-2018 16:30:00 13.6 C 65 % 7.15 C
1352 24-09-2018 16:35:00 13.6 C 65 % 7.15 C
1353 24-09-2018 16:40:00 13.6 C 67 % 7.6 C
1354 24-09-2018 16:45:00 13.5 C 68 % 7.72 C
1355 24-09-2018 16:50:00 13.5 C 69 % 7.93 C
1356 24-09-2018 16:55:00 13.4 C 69 % 7.84 C
1357 24-09-2018 17:00:00 13.4 C 69 % 7.84 C
1358 24-09-2018 17:05:00 13.4 C 67 % 7.4 C
1359 24-09-2018 17:10:00 13.5 C 65 % 7.06 C
1360 24-09-2018 17:15:00 13.6 C 66 % 7.38 C
1361 24-09-2018 17:20:00 13.6 C 66 % 7.38 C
1362 24-09-2018 17:25:00 13.5 C 67 % 7.5 C
1363 24-09-2018 17:30:00 13.4 C 69 % 7.84 C
1364 24-09-2018 17:35:00 13.4 C 69 % 7.84 C
1365 24-09-2018 17:40:00 13.1 C 77 % 9.16 C
1366 24-09-2018 17:45:00 12.3 C 80 % 8.95 C
1367 24-09-2018 17:50:00 11.8 C 83 % 9.01 C
1368 24-09-2018 17:55:00 11.4 C 85 % 8.97 C
1369 24-09-2018 18:00:00 11.2 C 87 % 9.12 C
1370 24-09-2018 18:05:00 11.1 C 88 % 9.19 C
1371 24-09-2018 18:10:00 11 C 88 % 9.09 C
1372 24-09-2018 18:15:00 10.8 C 88 % 8.89 C
1373 24-09-2018 18:20:00 10.8 C 89 % 9.06 C
1374 24-09-2018 18:25:00 11 C 90 % 9.42 C
1375 24-09-2018 18:30:00 11.2 C 90 % 9.62 C
Sensor: Nr:Datum:Temp:Feuchte:Taupunkt:
Aussen-T/F 1376 24-09-2018 18:35:00 11.3 C 89 % 9.55 C
1377 24-09-2018 18:40:00 11.3 C 88 % 9.39 C
1378 24-09-2018 18:45:00 11.3 C 88 % 9.39 C
1379 24-09-2018 18:50:00 11.3 C 87 % 9.22 C
1380 24-09-2018 18:55:00 11.2 C 87 % 9.12 C
1381 24-09-2018 19:00:00 10.9 C 85 % 8.48 C
1382 24-09-2018 19:05:00 10.7 C 84 % 8.11 C
1383 24-09-2018 19:10:00 10.6 C 86 % 8.36 C
1384 24-09-2018 19:15:00 10.4 C 87 % 8.33 C
1385 24-09-2018 19:20:00 10.2 C 87 % 8.14 C
1386 24-09-2018 19:25:00 9.9 C 88 % 8.01 C
1387 24-09-2018 19:30:00 9.8 C 88 % 7.91 C
1388 24-09-2018 19:35:00 9.6 C 89 % 7.88 C
1389 24-09-2018 19:40:00 9.5 C 89 % 7.78 C
1390 24-09-2018 19:45:00 9.4 C 89 % 7.68 C
1391 24-09-2018 19:50:00 9.4 C 90 % 7.85 C
1392 24-09-2018 19:55:00 9.3 C 90 % 7.75 C
1393 24-09-2018 20:00:00 9.2 C 90 % 7.65 C
1394 24-09-2018 20:05:00 9.2 C 90 % 7.65 C
1395 24-09-2018 20:10:00 9.1 C 91 % 7.71 C
1396 24-09-2018 20:15:00 9.1 C 91 % 7.71 C
1397 24-09-2018 20:20:00 9 C 91 % 7.61 C
1398 24-09-2018 20:25:00 9 C 91 % 7.61 C
1399 24-09-2018 20:30:00 8.9 C 91 % 7.51 C
1400 24-09-2018 20:35:00 8.8 C 91 % 7.41 C
Sensor: Nr:Datum:Temp:Feuchte:Taupunkt:
Aussen-T/F 1401 24-09-2018 20:40:00 8.8 C 91 % 7.41 C
1402 24-09-2018 20:45:00 8.7 C 91 % 7.32 C
1403 24-09-2018 20:50:00 8.7 C 92 % 7.47 C
1404 24-09-2018 20:55:00 8.6 C 92 % 7.38 C
1405 24-09-2018 21:00:00 8.6 C 92 % 7.38 C
1406 24-09-2018 21:05:00 8.6 C 92 % 7.38 C
1407 24-09-2018 21:10:00 8.6 C 92 % 7.38 C
1408 24-09-2018 21:15:00 8.5 C 92 % 7.28 C
1409 24-09-2018 21:20:00 8.4 C 92 % 7.18 C
1410 24-09-2018 21:25:00 8.4 C 92 % 7.18 C
1411 24-09-2018 21:30:00 8.3 C 92 % 7.08 C
1412 24-09-2018 21:35:00 8.3 C 92 % 7.08 C
1413 24-09-2018 21:40:00 8.3 C 93 % 7.24 C
1414 24-09-2018 21:45:00 8.3 C 93 % 7.24 C
1415 24-09-2018 21:50:00 8.3 C 93 % 7.24 C
1416 24-09-2018 21:55:00 8.3 C 93 % 7.24 C
1417 24-09-2018 22:00:00 8.2 C 93 % 7.14 C
1418 24-09-2018 22:05:00 8.2 C 93 % 7.14 C
1419 24-09-2018 22:10:00 8.1 C 93 % 7.04 C
1420 24-09-2018 22:15:00 8 C 93 % 6.94 C
1421 24-09-2018 22:20:00 7.9 C 93 % 6.84 C
1422 24-09-2018 22:25:00 7.8 C 93 % 6.74 C
1423 24-09-2018 22:30:00 7.8 C 93 % 6.74 C
1424 24-09-2018 22:35:00 7.7 C 93 % 6.64 C
1425 24-09-2018 22:40:00 7.6 C 93 % 6.54 C
Sensor: Nr:Datum:Temp:Feuchte:Taupunkt:
Aussen-T/F 1426 24-09-2018 22:45:00 7.4 C 93 % 6.34 C
1427 24-09-2018 22:50:00 7.3 C 93 % 6.25 C
1428 24-09-2018 22:55:00 7.2 C 93 % 6.15 C
1429 24-09-2018 23:00:00 7.2 C 93 % 6.15 C
1430 24-09-2018 23:05:00 7.1 C 93 % 6.05 C
1431 24-09-2018 23:10:00 7 C 93 % 5.95 C
1432 24-09-2018 23:15:00 6.9 C 93 % 5.85 C
1433 24-09-2018 23:20:00 6.9 C 94 % 6 C
1434 24-09-2018 23:25:00 6.9 C 94 % 6 C
1435 24-09-2018 23:30:00 6.8 C 94 % 5.9 C
1436 24-09-2018 23:35:00 6.8 C 94 % 5.9 C
1437 24-09-2018 23:40:00 6.8 C 94 % 5.9 C
1438 24-09-2018 23:45:00 6.8 C 94 % 5.9 C
1439 24-09-2018 23:50:00 6.9 C 94 % 6 C
1440 24-09-2018 23:55:00 6.9 C 95 % 6.16 C
1441 25-09-2018 00:00:00 7.1 C 95 % 6.35 C
1442 25-09-2018 00:05:00 7.1 C 95 % 6.35 C
1443 25-09-2018 00:10:00 7.2 C 95 % 6.45 C
1444 25-09-2018 00:15:00 7.3 C 95 % 6.55 C
1445 25-09-2018 00:20:00 7.3 C 95 % 6.55 C
1446 25-09-2018 00:25:00 7.4 C 95 % 6.65 C
1447 25-09-2018 00:30:00 7.3 C 95 % 6.55 C
1448 25-09-2018 00:35:00 7.3 C 95 % 6.55 C
1449 25-09-2018 00:40:00 7.3 C 95 % 6.55 C
1450 25-09-2018 00:45:00 7.3 C 95 % 6.55 C
Sensor: Nr:Datum:Temp:Feuchte:Taupunkt:
Aussen-T/F 1451 25-09-2018 00:50:00 7.2 C 95 % 6.45 C
1452 25-09-2018 00:55:00 7.2 C 95 % 6.45 C
1453 25-09-2018 01:00:00 7.2 C 95 % 6.45 C
1454 25-09-2018 01:05:00 7.2 C 95 % 6.45 C
1455 25-09-2018 01:10:00 7.1 C 95 % 6.35 C
1456 25-09-2018 01:15:00 7 C 95 % 6.26 C
1457 25-09-2018 01:20:00 6.9 C 95 % 6.16 C
1458 25-09-2018 01:25:00 6.8 C 95 % 6.06 C
1459 25-09-2018 01:30:00 6.7 C 95 % 5.96 C
1460 25-09-2018 01:35:00 6.5 C 95 % 5.76 C
1461 25-09-2018 01:40:00 6.5 C 95 % 5.76 C
1462 25-09-2018 01:45:00 6.4 C 94 % 5.51 C
1463 25-09-2018 01:50:00 6.3 C 95 % 5.56 C
1464 25-09-2018 01:55:00 6.2 C 94 % 5.31 C
1465 25-09-2018 02:00:00 6.1 C 95 % 5.36 C
1466 25-09-2018 02:05:00 6.1 C 95 % 5.36 C
1467 25-09-2018 02:10:00 6 C 95 % 5.26 C
1468 25-09-2018 02:15:00 6 C 95 % 5.26 C
1469 25-09-2018 02:20:00 6 C 95 % 5.26 C
1470 25-09-2018 02:25:00 6 C 95 % 5.26 C
1471 25-09-2018 02:30:00 6 C 95 % 5.26 C
1472 25-09-2018 02:35:00 6 C 95 % 5.26 C
1473 25-09-2018 02:40:00 5.9 C 95 % 5.16 C
1474 25-09-2018 02:45:00 5.8 C 95 % 5.06 C
1475 25-09-2018 02:50:00 5.7 C 95 % 4.96 C
Sensor: Nr:Datum:Temp:Feuchte:Taupunkt:
Aussen-T/F 1476 25-09-2018 02:55:00 5.7 C 95 % 4.96 C
1477 25-09-2018 03:00:00 5.6 C 95 % 4.86 C
1478 25-09-2018 03:05:00 5.6 C 95 % 4.86 C
1479 25-09-2018 03:10:00 5.5 C 95 % 4.76 C
1480 25-09-2018 03:15:00 5.4 C 95 % 4.66 C
1481 25-09-2018 03:20:00 5.4 C 95 % 4.66 C
1482 25-09-2018 03:25:00 5.4 C 95 % 4.66 C
1483 25-09-2018 03:30:00 5.3 C 95 % 4.57 C
1484 25-09-2018 03:35:00 5.3 C 95 % 4.57 C
1485 25-09-2018 03:40:00 5.2 C 95 % 4.47 C
1486 25-09-2018 03:45:00 5.2 C 95 % 4.47 C
1487 25-09-2018 03:50:00 5.2 C 95 % 4.47 C
1488 25-09-2018 03:55:00 5.2 C 95 % 4.47 C
1489 25-09-2018 04:00:00 5.2 C 95 % 4.47 C
1490 25-09-2018 04:05:00 5.2 C 96 % 4.62 C
1491 25-09-2018 04:10:00 5.2 C 96 % 4.62 C
1492 25-09-2018 04:15:00 5.2 C 96 % 4.62 C
1493 25-09-2018 04:20:00 5.1 C 96 % 4.52 C
1494 25-09-2018 04:25:00 5.1 C 95 % 4.37 C
1495 25-09-2018 04:30:00 5 C 95 % 4.27 C
1496 25-09-2018 04:35:00 4.9 C 95 % 4.17 C
1497 25-09-2018 04:40:00 4.9 C 95 % 4.17 C
1498 25-09-2018 04:45:00 4.8 C 95 % 4.07 C
1499 25-09-2018 04:50:00 4.8 C 95 % 4.07 C
1500 25-09-2018 04:55:00 4.7 C 95 % 3.97 C
Sensor: Nr:Datum:Temp:Feuchte:Taupunkt:
Aussen-T/F 1501 25-09-2018 05:00:00 4.7 C 95 % 3.97 C
1502 25-09-2018 05:05:00 4.7 C 95 % 3.97 C
1503 25-09-2018 05:10:00 4.7 C 95 % 3.97 C
1504 25-09-2018 05:15:00 4.6 C 95 % 3.87 C
1505 25-09-2018 05:20:00 4.6 C 96 % 4.02 C
1506 25-09-2018 05:25:00 4.6 C 96 % 4.02 C
1507 25-09-2018 05:30:00 4.7 C 96 % 4.12 C
1508 25-09-2018 05:35:00 4.7 C 96 % 4.12 C
1509 25-09-2018 05:40:00 4.8 C 96 % 4.22 C
1510 25-09-2018 05:45:00 4.9 C 96 % 4.32 C
1511 25-09-2018 05:50:00 4.9 C 96 % 4.32 C
1512 25-09-2018 05:55:00 5 C 96 % 4.42 C
1513 25-09-2018 06:00:00 5.1 C 96 % 4.52 C
1514 25-09-2018 06:05:00 5.1 C 96 % 4.52 C
1515 25-09-2018 06:10:00 5.2 C 96 % 4.62 C
1516 25-09-2018 06:15:00 5.2 C 96 % 4.62 C
1517 25-09-2018 06:20:00 5.3 C 96 % 4.72 C
1518 25-09-2018 06:25:00 5.3 C 96 % 4.72 C
1519 25-09-2018 06:30:00 5.3 C 96 % 4.72 C
1520 25-09-2018 06:35:00 5.3 C 96 % 4.72 C
1521 25-09-2018 06:40:00 5.2 C 96 % 4.62 C
1522 25-09-2018 06:45:00 5.2 C 96 % 4.62 C
1523 25-09-2018 06:50:00 5.1 C 96 % 4.52 C
1524 25-09-2018 06:55:00 5.1 C 96 % 4.52 C
1525 25-09-2018 07:00:00 5.1 C 96 % 4.52 C
Sensor: Nr:Datum:Temp:Feuchte:Taupunkt:
Aussen-T/F 1526 25-09-2018 07:05:00 5.1 C 96 % 4.52 C
1527 25-09-2018 07:10:00 5.1 C 96 % 4.52 C
1528 25-09-2018 07:15:00 5.1 C 96 % 4.52 C
1529 25-09-2018 07:20:00 5.1 C 96 % 4.52 C
1530 25-09-2018 07:25:00 5.1 C 96 % 4.52 C
1531 25-09-2018 07:30:00 5.1 C 96 % 4.52 C
1532 25-09-2018 07:35:00 5.1 C 96 % 4.52 C
1533 25-09-2018 07:40:00 5.1 C 96 % 4.52 C
1534 25-09-2018 07:45:00 5.1 C 96 % 4.52 C
1535 25-09-2018 07:50:00 5.1 C 96 % 4.52 C
1536 25-09-2018 07:55:00 5.1 C 96 % 4.52 C
1537 25-09-2018 08:00:00 5.1 C 96 % 4.52 C
1538 25-09-2018 08:05:00 5.2 C 96 % 4.62 C
1539 25-09-2018 08:10:00 5.2 C 96 % 4.62 C
1540 25-09-2018 08:15:00 5.2 C 96 % 4.62 C
1541 25-09-2018 08:20:00 5.2 C 96 % 4.62 C
1542 25-09-2018 08:25:00 5.2 C 96 % 4.62 C
1543 25-09-2018 08:30:00 5.2 C 96 % 4.62 C
1544 25-09-2018 08:35:00 5.2 C 96 % 4.62 C
1545 25-09-2018 08:40:00 5.2 C 96 % 4.62 C
1546 25-09-2018 08:45:00 5.2 C 96 % 4.62 C
1547 25-09-2018 08:50:00 5.2 C 96 % 4.62 C
1548 25-09-2018 08:55:00 5.2 C 96 % 4.62 C
1549 25-09-2018 09:00:00 5.3 C 96 % 4.72 C
1550 25-09-2018 09:05:00 5.4 C 97 % 4.96 C
Sensor: Nr:Datum:Temp:Feuchte:Taupunkt:
Aussen-T/F 1551 25-09-2018 09:10:00 5.5 C 97 % 5.06 C
1552 25-09-2018 09:15:00 5.6 C 97 % 5.16 C
1553 25-09-2018 09:20:00 5.6 C 97 % 5.16 C
1554 25-09-2018 09:25:00 5.6 C 97 % 5.16 C
1555 25-09-2018 09:30:00 5.7 C 97 % 5.26 C
1556 25-09-2018 09:35:00 5.8 C 97 % 5.36 C
1557 25-09-2018 09:40:00 5.8 C 97 % 5.36 C
1558 25-09-2018 09:45:00 5.8 C 97 % 5.36 C
1559 25-09-2018 09:50:00 5.8 C 97 % 5.36 C
1560 25-09-2018 09:55:00 5.8 C 97 % 5.36 C
1561 25-09-2018 10:00:00 5.8 C 97 % 5.36 C
1562 25-09-2018 10:05:00 5.9 C 97 % 5.46 C
1563 25-09-2018 10:10:00 5.9 C 97 % 5.46 C
1564 25-09-2018 10:15:00 6 C 97 % 5.56 C
1565 25-09-2018 10:20:00 6.1 C 97 % 5.66 C
1566 25-09-2018 10:25:00 6.1 C 97 % 5.66 C
1567 25-09-2018 10:30:00 6.2 C 97 % 5.76 C
1568 25-09-2018 10:35:00 6.3 C 97 % 5.86 C
1569 25-09-2018 10:40:00 6.4 C 97 % 5.96 C
1570 25-09-2018 10:45:00 6.4 C 97 % 5.96 C
1571 25-09-2018 10:50:00 6.5 C 97 % 6.06 C
1572 25-09-2018 10:55:00 6.4 C 97 % 5.96 C
1573 25-09-2018 11:00:00 6.6 C 97 % 6.16 C
1574 25-09-2018 11:05:00 6.7 C 97 % 6.26 C
1575 25-09-2018 11:10:00 6.8 C 97 % 6.36 C
Sensor: Nr:Datum:Temp:Feuchte:Taupunkt:
Aussen-T/F 1576 25-09-2018 11:15:00 6.8 C 97 % 6.36 C
1577 25-09-2018 11:20:00 6.9 C 97 % 6.46 C
1578 25-09-2018 11:25:00 7.1 C 97 % 6.66 C
1579 25-09-2018 11:30:00 7.3 C 97 % 6.86 C
1580 25-09-2018 11:35:00 7.3 C 97 % 6.86 C
1581 25-09-2018 11:40:00 7.4 C 97 % 6.96 C
1582 25-09-2018 11:45:00 7.6 C 97 % 7.16 C
1583 25-09-2018 11:50:00 7.6 C 97 % 7.16 C
1584 25-09-2018 11:55:00 7.7 C 97 % 7.25 C
1585 25-09-2018 12:00:00 7.7 C 97 % 7.25 C
1586 25-09-2018 12:05:00 7.7 C 97 % 7.25 C
1587 25-09-2018 12:10:00 7.7 C 97 % 7.25 C
1588 25-09-2018 12:15:00 7.8 C 97 % 7.35 C
1589 25-09-2018 12:20:00 7.9 C 97 % 7.45 C
1590 25-09-2018 12:25:00 8 C 97 % 7.55 C
1591 25-09-2018 12:30:00 8.2 C 97 % 7.75 C
1592 25-09-2018 12:35:00 8.3 C 97 % 7.85 C
1593 25-09-2018 12:40:00 8.6 C 97 % 8.15 C
1594 25-09-2018 12:45:00 8.7 C 97 % 8.25 C
1595 25-09-2018 12:50:00 8.9 C 97 % 8.45 C
1596 25-09-2018 12:55:00 9.1 C 97 % 8.65 C
1597 25-09-2018 13:00:00 9.2 C 96 % 8.6 C
1598 25-09-2018 13:05:00 9.3 C 96 % 8.7 C
1599 25-09-2018 13:10:00 9.5 C 95 % 8.74 C
1600 25-09-2018 13:15:00 9.7 C 94 % 8.78 C
Sensor: Nr:Datum:Temp:Feuchte:Taupunkt:
Aussen-T/F 1601 25-09-2018 13:20:00 9.8 C 93 % 8.72 C
1602 25-09-2018 13:25:00 10.1 C 91 % 8.7 C
1603 25-09-2018 13:30:00 10.3 C 90 % 8.73 C
1604 25-09-2018 13:35:00 10.5 C 86 % 8.26 C
1605 25-09-2018 13:40:00 10.8 C 86 % 8.56 C
1606 25-09-2018 13:45:00 11.2 C 83 % 8.42 C
1607 25-09-2018 13:50:00 11.6 C 78 % 7.9 C
1608 25-09-2018 13:55:00 11.9 C 76 % 7.81 C
1609 25-09-2018 14:00:00 12.3 C 75 % 8 C
1610 25-09-2018 14:05:00 12.6 C 74 % 8.09 C
1611 25-09-2018 14:10:00 12.7 C 73 % 7.99 C
1612 25-09-2018 14:15:00 13 C 71 % 7.87 C
1613 25-09-2018 14:20:00 13.2 C 69 % 7.64 C
1614 25-09-2018 14:25:00 13.5 C 68 % 7.72 C
1615 25-09-2018 14:30:00 13.7 C 65 % 7.25 C
1616 25-09-2018 14:35:00 13.8 C 65 % 7.34 C
1617 25-09-2018 14:40:00 13.8 C 72 % 8.85 C
1618 25-09-2018 14:45:00 13.8 C 75 % 9.45 C
1619 25-09-2018 14:50:00 13.8 C 68 % 8 C
1620 25-09-2018 14:55:00 13.7 C 64 % 7.02 C
1621 25-09-2018 15:00:00 13.8 C 66 % 7.57 C
1622 25-09-2018 15:05:00 13.8 C 69 % 8.22 C
1623 25-09-2018 15:10:00 13.8 C 74 % 9.25 C
1624 25-09-2018 15:15:00 13.7 C 73 % 8.95 C
1625 25-09-2018 15:20:00 13.7 C 64 % 7.02 C
Sensor: Nr:Datum:Temp:Feuchte:Taupunkt:
Aussen-T/F 1626 25-09-2018 15:25:00 13.8 C 63 % 6.89 C
1627 25-09-2018 15:30:00 13.9 C 61 % 6.51 C
1628 25-09-2018 15:35:00 14 C 60 % 6.37 C
1629 25-09-2018 15:40:00 14.2 C 61 % 6.8 C
1630 25-09-2018 15:45:00 14.3 C 66 % 8.04 C
1631 25-09-2018 15:50:00 14.4 C 60 % 6.74 C
1632 25-09-2018 15:55:00 14.5 C 60 % 6.84 C
1633 25-09-2018 16:00:00 14.7 C 58 % 6.53 C
1634 25-09-2018 16:05:00 14.8 C 59 % 6.87 C
1635 25-09-2018 16:10:00 14.9 C 54 % 5.69 C
1636 25-09-2018 16:15:00 14.9 C 54 % 5.69 C
1637 25-09-2018 16:20:00 14.9 C 54 % 5.69 C
1638 25-09-2018 16:25:00 14.9 C 55 % 5.95 C
1639 25-09-2018 16:30:00 14.9 C 61 % 7.45 C
1640 25-09-2018 16:35:00 14.8 C 57 % 6.37 C
1641 25-09-2018 16:40:00 14.7 C 52 % 4.96 C
1642 25-09-2018 16:45:00 14.8 C 59 % 6.87 C
1643 25-09-2018 16:50:00 14.8 C 51 % 4.77 C
1644 25-09-2018 16:55:00 14.9 C 51 % 4.86 C
1645 25-09-2018 17:00:00 15 C 57 % 6.56 C
1646 25-09-2018 17:05:00 15.1 C 52 % 5.33 C
1647 25-09-2018 17:10:00 15.1 C 51 % 5.05 C
1648 25-09-2018 17:15:00 15.2 C 50 % 4.86 C
1649 25-09-2018 17:20:00 15.4 C 54 % 6.15 C
1650 25-09-2018 17:25:00 15.6 C 53 % 6.06 C
Sensor: Nr:Datum:Temp:Feuchte:Taupunkt:
Aussen-T/F 1651 25-09-2018 17:30:00 15.6 C 55 % 6.6 C
1652 25-09-2018 17:35:00 15.7 C 61 % 8.21 C
1653 25-09-2018 17:40:00 15.7 C 62 % 8.45 C
1654 25-09-2018 17:45:00 15.6 C 60 % 7.87 C
1655 25-09-2018 17:50:00 15.4 C 65 % 8.86 C
1656 25-09-2018 17:55:00 15.2 C 64 % 8.44 C
1657 25-09-2018 18:00:00 15 C 65 % 8.48 C
1658 25-09-2018 18:05:00 14.8 C 66 % 8.52 C
1659 25-09-2018 18:10:00 14.5 C 65 % 8.01 C
1660 25-09-2018 18:15:00 14.2 C 66 % 7.95 C
1661 25-09-2018 18:20:00 13.8 C 68 % 8 C
1662 25-09-2018 18:25:00 13.5 C 67 % 7.5 C
1663 25-09-2018 18:30:00 13.2 C 69 % 7.64 C
1664 25-09-2018 18:35:00 12.8 C 70 % 7.47 C
1665 25-09-2018 18:40:00 12.6 C 69 % 7.07 C
1666 25-09-2018 18:45:00 12.4 C 68 % 6.67 C
1667 25-09-2018 18:50:00 12.3 C 69 % 6.78 C
1668 25-09-2018 18:55:00 12.2 C 70 % 6.9 C
1669 25-09-2018 19:00:00 12.1 C 70 % 6.8 C
1670 25-09-2018 19:05:00 11.9 C 71 % 6.82 C
1671 25-09-2018 19:10:00 11.7 C 71 % 6.62 C
1672 25-09-2018 19:15:00 11.4 C 71 % 6.34 C
1673 25-09-2018 19:20:00 11.2 C 72 % 6.35 C
1674 25-09-2018 19:25:00 11 C 72 % 6.15 C
1675 25-09-2018 19:30:00 10.8 C 73 % 6.16 C
Sensor: Nr:Datum:Temp:Feuchte:Taupunkt:
Aussen-T/F 1676 25-09-2018 19:35:00 10.6 C 73 % 5.97 C
1677 25-09-2018 19:40:00 10.5 C 73 % 5.87 C
1678 25-09-2018 19:45:00 10.4 C 73 % 5.78 C
1679 25-09-2018 19:50:00 10.3 C 74 % 5.88 C
1680 25-09-2018 19:55:00 10.2 C 74 % 5.78 C
1681 25-09-2018 20:00:00 10.1 C 74 % 5.68 C
1682 25-09-2018 20:05:00 10 C 74 % 5.59 C
1683 25-09-2018 20:10:00 9.9 C 74 % 5.49 C
1684 25-09-2018 20:15:00 9.9 C 74 % 5.49 C
1685 25-09-2018 20:20:00 9.8 C 75 % 5.59 C
1686 25-09-2018 20:25:00 9.7 C 74 % 5.3 C
1687 25-09-2018 20:30:00 9.6 C 74 % 5.2 C
1688 25-09-2018 20:35:00 9.4 C 75 % 5.2 C
1689 25-09-2018 20:40:00 9.4 C 76 % 5.39 C
1690 25-09-2018 20:45:00 9.3 C 76 % 5.29 C
1691 25-09-2018 20:50:00 9.2 C 77 % 5.38 C
1692 25-09-2018 20:55:00 9.2 C 78 % 5.57 C
1693 25-09-2018 21:00:00 9 C 79 % 5.56 C
1694 25-09-2018 21:05:00 8.8 C 80 % 5.55 C
1695 25-09-2018 21:10:00 8.7 C 81 % 5.63 C
1696 25-09-2018 21:15:00 8.5 C 82 % 5.61 C
1697 25-09-2018 21:20:00 8.4 C 83 % 5.69 C
1698 25-09-2018 21:25:00 8.3 C 84 % 5.76 C
1699 25-09-2018 21:30:00 8.2 C 84 % 5.66 C
1700 25-09-2018 21:35:00 8.1 C 84 % 5.56 C
Sensor: Nr:Datum:Temp:Feuchte:Taupunkt:
Aussen-T/F 1701 25-09-2018 21:40:00 7.9 C 85 % 5.54 C
1702 25-09-2018 21:45:00 7.8 C 85 % 5.44 C
1703 25-09-2018 21:50:00 7.6 C 86 % 5.41 C
1704 25-09-2018 21:55:00 7.5 C 86 % 5.31 C
1705 25-09-2018 22:00:00 7.4 C 86 % 5.22 C
1706 25-09-2018 22:05:00 7.3 C 86 % 5.12 C
1707 25-09-2018 22:10:00 7.2 C 87 % 5.19 C
1708 25-09-2018 22:15:00 7.2 C 87 % 5.19 C
1709 25-09-2018 22:20:00 7.1 C 88 % 5.25 C
1710 25-09-2018 22:25:00 7.1 C 88 % 5.25 C
1711 25-09-2018 22:30:00 7.1 C 88 % 5.25 C
1712 25-09-2018 22:35:00 7.1 C 88 % 5.25 C
1713 25-09-2018 22:40:00 7 C 88 % 5.15 C
1714 25-09-2018 22:45:00 7 C 88 % 5.15 C
1715 25-09-2018 22:50:00 6.9 C 88 % 5.05 C
1716 25-09-2018 22:55:00 6.9 C 89 % 5.22 C
1717 25-09-2018 23:00:00 6.8 C 89 % 5.12 C
1718 25-09-2018 23:05:00 6.8 C 88 % 4.96 C
1719 25-09-2018 23:10:00 6.7 C 88 % 4.86 C
1720 25-09-2018 23:15:00 6.5 C 89 % 4.82 C
1721 25-09-2018 23:20:00 6.4 C 89 % 4.72 C
1722 25-09-2018 23:25:00 6.3 C 89 % 4.62 C
1723 25-09-2018 23:30:00 6.2 C 90 % 4.69 C
1724 25-09-2018 23:35:00 6.2 C 90 % 4.69 C
1725 25-09-2018 23:40:00 6.1 C 90 % 4.59 C
Sensor: Nr:Datum:Temp:Feuchte:Taupunkt:
Aussen-T/F 1726 25-09-2018 23:45:00 6.1 C 90 % 4.59 C
1727 25-09-2018 23:50:00 6 C 91 % 4.65 C
1728 25-09-2018 23:55:00 5.9 C 91 % 4.55 C
1729 26-09-2018 00:00:00 5.9 C 91 % 4.55 C
1730 26-09-2018 00:05:00 5.8 C 91 % 4.45 C
1731 26-09-2018 00:10:00 5.8 C 91 % 4.45 C
1732 26-09-2018 00:15:00 5.7 C 91 % 4.35 C
1733 26-09-2018 00:20:00 5.6 C 91 % 4.25 C
1734 26-09-2018 00:25:00 5.6 C 91 % 4.25 C
1735 26-09-2018 00:30:00 5.5 C 91 % 4.15 C
1736 26-09-2018 00:35:00 5.4 C 91 % 4.05 C
1737 26-09-2018 00:40:00 5.4 C 91 % 4.05 C
1738 26-09-2018 00:45:00 5.3 C 91 % 3.95 C
1739 26-09-2018 00:50:00 5.3 C 92 % 4.11 C
1740 26-09-2018 00:55:00 5.3 C 92 % 4.11 C
1741 26-09-2018 01:00:00 5.3 C 92 % 4.11 C
1742 26-09-2018 01:05:00 5.2 C 92 % 4.01 C
1743 26-09-2018 01:10:00 5.2 C 92 % 4.01 C
1744 26-09-2018 01:15:00 5.2 C 92 % 4.01 C
1745 26-09-2018 01:20:00 5.2 C 92 % 4.01 C
1746 26-09-2018 01:25:00 5.2 C 93 % 4.16 C
1747 26-09-2018 01:30:00 5.1 C 92 % 3.91 C
1748 26-09-2018 01:35:00 5 C 92 % 3.81 C
1749 26-09-2018 01:40:00 4.9 C 93 % 3.87 C
1750 26-09-2018 01:45:00 4.8 C 92 % 3.61 C
Sensor: Nr:Datum:Temp:Feuchte:Taupunkt:
Aussen-T/F 1751 26-09-2018 01:50:00 4.8 C 93 % 3.77 C
1752 26-09-2018 01:55:00 4.7 C 93 % 3.67 C
1753 26-09-2018 02:00:00 4.7 C 93 % 3.67 C
1754 26-09-2018 02:05:00 4.6 C 93 % 3.57 C
1755 26-09-2018 02:10:00 4.6 C 93 % 3.57 C
1756 26-09-2018 02:15:00 4.6 C 93 % 3.57 C
1757 26-09-2018 02:20:00 4.6 C 93 % 3.57 C
1758 26-09-2018 02:25:00 4.5 C 93 % 3.47 C
1759 26-09-2018 02:30:00 4.4 C 93 % 3.37 C
1760 26-09-2018 02:35:00 4.4 C 93 % 3.37 C
1761 26-09-2018 02:40:00 4.4 C 93 % 3.37 C
1762 26-09-2018 02:45:00 4.4 C 93 % 3.37 C
1763 26-09-2018 02:50:00 4.3 C 94 % 3.42 C
1764 26-09-2018 02:55:00 4.3 C 94 % 3.42 C
1765 26-09-2018 03:00:00 4.3 C 94 % 3.42 C
1766 26-09-2018 03:05:00 4.2 C 94 % 3.32 C
1767 26-09-2018 03:10:00 4.2 C 94 % 3.32 C
1768 26-09-2018 03:15:00 4.2 C 94 % 3.32 C
1769 26-09-2018 03:20:00 4.2 C 94 % 3.32 C
1770 26-09-2018 03:25:00 4.2 C 94 % 3.32 C
1771 26-09-2018 03:30:00 4.1 C 94 % 3.22 C
1772 26-09-2018 03:35:00 4.1 C 94 % 3.22 C
1773 26-09-2018 03:40:00 4.2 C 94 % 3.32 C
1774 26-09-2018 03:45:00 4.2 C 94 % 3.32 C
1775 26-09-2018 03:50:00 4.2 C 94 % 3.32 C
Sensor: Nr:Datum:Temp:Feuchte:Taupunkt:
Aussen-T/F 1776 26-09-2018 03:55:00 4.1 C 94 % 3.22 C
1777 26-09-2018 04:00:00 4.1 C 94 % 3.22 C
1778 26-09-2018 04:05:00 4.1 C 94 % 3.22 C
1779 26-09-2018 04:10:00 4.1 C 94 % 3.22 C
1780 26-09-2018 04:15:00 4.1 C 95 % 3.37 C
1781 26-09-2018 04:20:00 4.2 C 95 % 3.47 C
1782 26-09-2018 04:25:00 4.3 C 95 % 3.57 C
1783 26-09-2018 04:30:00 4.3 C 95 % 3.57 C
1784 26-09-2018 04:35:00 4.2 C 95 % 3.47 C
1785 26-09-2018 04:40:00 4.2 C 95 % 3.47 C
1786 26-09-2018 04:45:00 4.1 C 94 % 3.22 C
1787 26-09-2018 04:50:00 3.9 C 94 % 3.02 C
1788 26-09-2018 04:55:00 3.8 C 94 % 2.93 C
1789 26-09-2018 05:00:00 4 C 95 % 3.27 C
1790 26-09-2018 05:05:00 4.1 C 95 % 3.37 C
1791 26-09-2018 05:10:00 4.1 C 95 % 3.37 C
1792 26-09-2018 05:15:00 4.1 C 95 % 3.37 C
1793 26-09-2018 05:20:00 4.1 C 95 % 3.37 C
1794 26-09-2018 05:25:00 4.1 C 95 % 3.37 C
1795 26-09-2018 05:30:00 3.9 C 95 % 3.17 C
1796 26-09-2018 05:35:00 3.8 C 95 % 3.07 C
1797 26-09-2018 05:40:00 3.8 C 94 % 2.93 C
1798 26-09-2018 05:45:00 3.8 C 95 % 3.07 C
1799 26-09-2018 05:50:00 3.8 C 95 % 3.07 C
1800 26-09-2018 05:55:00 3.7 C 95 % 2.98 C
Sensor: Nr:Datum:Temp:Feuchte:Taupunkt:
Aussen-T/F 1801 26-09-2018 06:00:00 3.7 C 95 % 2.98 C
1802 26-09-2018 06:05:00 3.7 C 95 % 2.98 C
1803 26-09-2018 06:10:00 3.7 C 95 % 2.98 C
1804 26-09-2018 06:15:00 3.7 C 95 % 2.98 C
1805 26-09-2018 06:20:00 3.6 C 95 % 2.88 C
1806 26-09-2018 06:25:00 3.6 C 95 % 2.88 C
1807 26-09-2018 06:30:00 3.4 C 95 % 2.68 C
1808 26-09-2018 06:35:00 3.5 C 95 % 2.78 C
1809 26-09-2018 06:40:00 3.6 C 95 % 2.88 C
1810 26-09-2018 06:45:00 3.6 C 95 % 2.88 C
1811 26-09-2018 06:50:00 3.6 C 95 % 2.88 C
1812 26-09-2018 06:55:00 3.6 C 95 % 2.88 C
1813 26-09-2018 07:00:00 3.6 C 95 % 2.88 C
1814 26-09-2018 07:05:00 3.5 C 95 % 2.78 C
1815 26-09-2018 07:10:00 3.4 C 95 % 2.68 C
1816 26-09-2018 07:15:00 3.3 C 95 % 2.58 C
1817 26-09-2018 07:20:00 3.2 C 95 % 2.48 C
1818 26-09-2018 07:25:00 3.1 C 95 % 2.38 C
1819 26-09-2018 07:30:00 3.1 C 95 % 2.38 C
1820 26-09-2018 07:35:00 3 C 95 % 2.28 C
1821 26-09-2018 07:40:00 3 C 95 % 2.28 C
1822 26-09-2018 07:45:00 3.2 C 95 % 2.48 C
1823 26-09-2018 07:50:00 3.2 C 95 % 2.48 C
1824 26-09-2018 07:55:00 3.3 C 95 % 2.58 C
1825 26-09-2018 08:00:00 3.3 C 95 % 2.58 C
Sensor: Nr:Datum:Temp:Feuchte:Taupunkt:
Aussen-T/F 1826 26-09-2018 08:05:00 3.3 C 95 % 2.58 C
1827 26-09-2018 08:10:00 3.3 C 95 % 2.58 C
1828 26-09-2018 08:15:00 3.4 C 95 % 2.68 C
1829 26-09-2018 08:20:00 3.4 C 96 % 2.82 C
1830 26-09-2018 08:25:00 3.6 C 96 % 3.02 C
1831 26-09-2018 08:30:00 3.7 C 96 % 3.12 C
1832 26-09-2018 08:35:00 3.8 C 96 % 3.22 C
1833 26-09-2018 08:40:00 4 C 96 % 3.42 C
1834 26-09-2018 08:45:00 4.2 C 96 % 3.62 C
1835 26-09-2018 08:50:00 4.3 C 96 % 3.72 C
1836 26-09-2018 08:55:00 4.3 C 96 % 3.72 C
1837 26-09-2018 09:00:00 4.4 C 96 % 3.82 C
1838 26-09-2018 09:05:00 4.6 C 96 % 4.02 C
1839 26-09-2018 09:10:00 4.7 C 96 % 4.12 C
1840 26-09-2018 09:15:00 4.8 C 96 % 4.22 C
1841 26-09-2018 09:20:00 4.8 C 96 % 4.22 C
1842 26-09-2018 09:25:00 4.8 C 96 % 4.22 C
1843 26-09-2018 09:30:00 4.9 C 96 % 4.32 C
1844 26-09-2018 09:35:00 5 C 96 % 4.42 C
1845 26-09-2018 09:40:00 5.1 C 96 % 4.52 C
1846 26-09-2018 09:45:00 5.1 C 96 % 4.52 C
1847 26-09-2018 09:50:00 5.2 C 96 % 4.62 C
1848 26-09-2018 09:55:00 5.2 C 96 % 4.62 C
1849 26-09-2018 10:00:00 5.2 C 96 % 4.62 C
1850 26-09-2018 10:05:00 5.3 C 96 % 4.72 C
Sensor: Nr:Datum:Temp:Feuchte:Taupunkt:
Aussen-T/F 1851 26-09-2018 10:10:00 5.4 C 96 % 4.81 C
1852 26-09-2018 10:15:00 5.6 C 96 % 5.01 C
1853 26-09-2018 10:20:00 5.8 C 96 % 5.21 C
1854 26-09-2018 10:25:00 6 C 96 % 5.41 C
1855 26-09-2018 10:30:00 6.1 C 96 % 5.51 C
1856 26-09-2018 10:35:00 6.2 C 96 % 5.61 C
1857 26-09-2018 10:40:00 6.4 C 96 % 5.81 C
1858 26-09-2018 10:45:00 6.6 C 96 % 6.01 C
1859 26-09-2018 10:50:00 6.7 C 96 % 6.11 C
1860 26-09-2018 10:55:00 6.8 C 96 % 6.21 C
1861 26-09-2018 11:00:00 7.1 C 95 % 6.35 C
1862 26-09-2018 11:05:00 7.2 C 95 % 6.45 C
1863 26-09-2018 11:10:00 7.4 C 95 % 6.65 C
1864 26-09-2018 11:15:00 7.7 C 94 % 6.8 C
1865 26-09-2018 11:20:00 7.9 C 93 % 6.84 C
1866 26-09-2018 11:25:00 8.1 C 93 % 7.04 C
1867 26-09-2018 11:30:00 8.3 C 92 % 7.08 C
1868 26-09-2018 11:35:00 8.4 C 91 % 7.02 C
1869 26-09-2018 11:40:00 8.7 C 90 % 7.15 C
1870 26-09-2018 11:45:00 8.9 C 89 % 7.19 C
1871 26-09-2018 11:50:00 9.3 C 89 % 7.58 C
1872 26-09-2018 11:55:00 9.6 C 87 % 7.55 C
1873 26-09-2018 12:00:00 9.7 C 84 % 7.13 C
1874 26-09-2018 12:05:00 10 C 81 % 6.89 C
1875 26-09-2018 12:10:00 10.3 C 81 % 7.19 C
Sensor: Nr:Datum:Temp:Feuchte:Taupunkt:
Aussen-T/F 1876 26-09-2018 12:15:00 10.6 C 79 % 7.11 C
1877 26-09-2018 12:20:00 10.8 C 77 % 6.94 C
1878 26-09-2018 12:25:00 10.9 C 76 % 6.84 C
1879 26-09-2018 12:30:00 11.2 C 75 % 6.94 C
1880 26-09-2018 12:35:00 11.3 C 76 % 7.23 C
1881 26-09-2018 12:40:00 11.6 C 78 % 7.9 C
1882 26-09-2018 12:45:00 11.8 C 81 % 8.65 C
1883 26-09-2018 12:50:00 11.8 C 75 % 7.52 C
1884 26-09-2018 12:55:00 11.9 C 71 % 6.82 C
1885 26-09-2018 13:00:00 12.1 C 69 % 6.59 C
1886 26-09-2018 13:05:00 12.3 C 77 % 8.39 C
1887 26-09-2018 13:10:00 12.4 C 74 % 7.9 C
1888 26-09-2018 13:15:00 12.6 C 69 % 7.07 C
1889 26-09-2018 13:20:00 12.8 C 69 % 7.26 C
1890 26-09-2018 13:25:00 13.1 C 68 % 7.34 C
1891 26-09-2018 13:30:00 13.3 C 67 % 7.31 C
1892 26-09-2018 13:35:00 13.4 C 66 % 7.19 C
1893 26-09-2018 13:40:00 13.6 C 64 % 6.93 C
1894 26-09-2018 13:45:00 13.7 C 64 % 7.02 C
1895 26-09-2018 13:50:00 13.8 C 66 % 7.57 C
1896 26-09-2018 13:55:00 13.9 C 63 % 6.98 C
1897 26-09-2018 14:00:00 14.1 C 63 % 7.17 C
1898 26-09-2018 14:05:00 14.2 C 62 % 7.03 C
1899 26-09-2018 14:10:00 14.2 C 61 % 6.8 C
1900 26-09-2018 14:15:00 14.3 C 61 % 6.89 C
Sensor: Nr:Datum:Temp:Feuchte:Taupunkt:
Aussen-T/F 1901 26-09-2018 14:20:00 14.4 C 62 % 7.22 C
1902 26-09-2018 14:25:00 14.5 C 61 % 7.08 C
1903 26-09-2018 14:30:00 14.6 C 60 % 6.93 C
1904 26-09-2018 14:35:00 14.7 C 61 % 7.27 C
1905 26-09-2018 14:40:00 14.7 C 60 % 7.03 C
1906 26-09-2018 14:45:00 14.8 C 58 % 6.63 C
1907 26-09-2018 14:50:00 14.8 C 58 % 6.63 C
1908 26-09-2018 14:55:00 14.8 C 58 % 6.63 C
1909 26-09-2018 15:00:00 14.9 C 59 % 6.97 C
1910 26-09-2018 15:05:00 14.9 C 58 % 6.72 C
1911 26-09-2018 15:10:00 14.9 C 59 % 6.97 C
1912 26-09-2018 15:15:00 14.9 C 59 % 6.97 C
1913 26-09-2018 15:20:00 14.8 C 60 % 7.12 C
1914 26-09-2018 15:25:00 14.9 C 57 % 6.47 C
1915 26-09-2018 15:30:00 14.9 C 60 % 7.21 C
1916 26-09-2018 15:35:00 14.9 C 57 % 6.47 C
1917 26-09-2018 15:40:00 15 C 60 % 7.31 C
1918 26-09-2018 15:45:00 15.1 C 62 % 7.88 C
1919 26-09-2018 15:50:00 15.1 C 62 % 7.88 C
1920 26-09-2018 15:55:00 15.2 C 64 % 8.44 C
1921 26-09-2018 16:00:00 15.2 C 63 % 8.21 C
1922 26-09-2018 16:05:00 15.3 C 59 % 7.34 C
1923 26-09-2018 16:10:00 15.4 C 57 % 6.93 C
1924 26-09-2018 16:15:00 15.7 C 64 % 8.92 C
1925 26-09-2018 16:20:00 15.7 C 64 % 8.92 C
Sensor: Nr:Datum:Temp:Feuchte:Taupunkt:
Aussen-T/F 1926 26-09-2018 16:25:00 15.6 C 62 % 8.35 C
1927 26-09-2018 16:30:00 15.6 C 58 % 7.37 C
1928 26-09-2018 16:35:00 15.6 C 65 % 9.05 C
1929 26-09-2018 16:40:00 15.7 C 60 % 7.97 C
1930 26-09-2018 16:45:00 15.8 C 57 % 7.31 C
1931 26-09-2018 16:50:00 16 C 56 % 7.24 C
1932 26-09-2018 16:55:00 16.1 C 64 % 9.29 C
1933 26-09-2018 17:00:00 16.1 C 59 % 8.09 C
1934 26-09-2018 17:05:00 16.2 C 64 % 9.39 C
1935 26-09-2018 17:10:00 16.2 C 65 % 9.62 C
1936 26-09-2018 17:15:00 16.1 C 65 % 9.53 C
1937 26-09-2018 17:20:00 15.9 C 66 % 9.56 C
1938 26-09-2018 17:25:00 15.9 C 67 % 9.79 C
1939 26-09-2018 17:30:00 16 C 66 % 9.66 C
1940 26-09-2018 17:35:00 16.2 C 66 % 9.85 C
1941 26-09-2018 17:40:00 16.4 C 66 % 10.04 C
1942 26-09-2018 17:45:00 16.7 C 67 % 10.55 C
1943 26-09-2018 17:50:00 16.8 C 65 % 10.19 C
1944 26-09-2018 17:55:00 16.9 C 66 % 10.51 C
1945 26-09-2018 18:00:00 17.1 C 65 % 10.47 C
1946 26-09-2018 18:05:00 17.1 C 66 % 10.7 C
1947 26-09-2018 18:10:00 17.3 C 65 % 10.66 C
1948 26-09-2018 18:15:00 17.4 C 65 % 10.76 C
1949 26-09-2018 18:20:00 17.4 C 65 % 10.76 C
1950 26-09-2018 18:25:00 17.4 C 63 % 10.29 C
Sensor: Nr:Datum:Temp:Feuchte:Taupunkt:
Aussen-T/F 1951 26-09-2018 18:30:00 17.3 C 64 % 10.43 C
1952 26-09-2018 18:35:00 17.2 C 63 % 10.1 C
1953 26-09-2018 18:40:00 17 C 64 % 10.15 C
1954 26-09-2018 18:45:00 16.8 C 63 % 9.72 C
1955 26-09-2018 18:50:00 16.5 C 65 % 9.9 C
1956 26-09-2018 18:55:00 16.1 C 64 % 9.29 C
1957 26-09-2018 19:00:00 15.7 C 66 % 9.37 C
1958 26-09-2018 19:05:00 15.3 C 66 % 8.99 C
1959 26-09-2018 19:10:00 14.9 C 67 % 8.83 C
1960 26-09-2018 19:15:00 14.6 C 68 % 8.77 C
1961 26-09-2018 19:20:00 14.3 C 69 % 8.7 C
1962 26-09-2018 19:25:00 13.9 C 70 % 8.53 C
1963 26-09-2018 19:30:00 13.6 C 69 % 8.03 C
1964 26-09-2018 19:35:00 13.4 C 71 % 8.26 C
1965 26-09-2018 19:40:00 13.2 C 71 % 8.06 C
1966 26-09-2018 19:45:00 12.9 C 71 % 7.78 C
1967 26-09-2018 19:50:00 12.7 C 70 % 7.38 C
1968 26-09-2018 19:55:00 12.6 C 72 % 7.69 C
1969 26-09-2018 20:00:00 12.4 C 71 % 7.3 C
1970 26-09-2018 20:05:00 12.3 C 73 % 7.61 C
1971 26-09-2018 20:10:00 12.2 C 76 % 8.1 C
1972 26-09-2018 20:15:00 12.1 C 77 % 8.2 C
1973 26-09-2018 20:20:00 11.9 C 78 % 8.19 C
1974 26-09-2018 20:25:00 11.7 C 78 % 8 C
1975 26-09-2018 20:30:00 11.6 C 79 % 8.09 C
Sensor: Nr:Datum:Temp:Feuchte:Taupunkt:
Aussen-T/F 1976 26-09-2018 20:35:00 11.3 C 80 % 7.98 C
1977 26-09-2018 20:40:00 11.2 C 80 % 7.88 C
1978 26-09-2018 20:45:00 11 C 81 % 7.87 C
1979 26-09-2018 20:50:00 10.8 C 81 % 7.67 C
1980 26-09-2018 20:55:00 10.7 C 82 % 7.76 C
1981 26-09-2018 21:00:00 10.6 C 81 % 7.48 C
1982 26-09-2018 21:05:00 10.4 C 82 % 7.46 C
1983 26-09-2018 21:10:00 10.3 C 82 % 7.37 C
1984 26-09-2018 21:15:00 10.2 C 82 % 7.27 C
1985 26-09-2018 21:20:00 10 C 82 % 7.07 C
1986 26-09-2018 21:25:00 9.9 C 82 % 6.98 C
1987 26-09-2018 21:30:00 9.8 C 82 % 6.88 C
1988 26-09-2018 21:35:00 9.7 C 82 % 6.78 C
1989 26-09-2018 21:40:00 9.7 C 82 % 6.78 C
1990 26-09-2018 21:45:00 9.6 C 83 % 6.86 C
1991 26-09-2018 21:50:00 9.5 C 83 % 6.76 C
1992 26-09-2018 21:55:00 9.4 C 83 % 6.66 C
1993 26-09-2018 22:00:00 9.3 C 83 % 6.57 C
1994 26-09-2018 22:05:00 9.2 C 83 % 6.47 C
1995 26-09-2018 22:10:00 9.2 C 83 % 6.47 C
1996 26-09-2018 22:15:00 9 C 84 % 6.45 C
1997 26-09-2018 22:20:00 8.9 C 84 % 6.35 C
1998 26-09-2018 22:25:00 8.8 C 85 % 6.42 C
1999 26-09-2018 22:30:00 8.8 C 85 % 6.42 C
2000 26-09-2018 22:35:00 8.7 C 85 % 6.32 C
Sensor: Nr:Datum:Temp:Feuchte:Taupunkt:
Aussen-T/F 2001 26-09-2018 22:40:00 8.6 C 84 % 6.05 C
2002 26-09-2018 22:45:00 8.5 C 84 % 5.96 C
2003 26-09-2018 22:50:00 8.5 C 85 % 6.13 C
2004 26-09-2018 22:55:00 8.4 C 85 % 6.03 C
2005 26-09-2018 23:00:00 8.4 C 85 % 6.03 C
2006 26-09-2018 23:05:00 8.3 C 85 % 5.93 C
2007 26-09-2018 23:10:00 8.3 C 85 % 5.93 C
2008 26-09-2018 23:15:00 8.3 C 86 % 6.1 C
2009 26-09-2018 23:20:00 8.2 C 86 % 6 C
2010 26-09-2018 23:25:00 8.1 C 86 % 5.9 C
2011 26-09-2018 23:30:00 8.1 C 86 % 5.9 C
2012 26-09-2018 23:35:00 8 C 86 % 5.81 C
2013 26-09-2018 23:40:00 8 C 86 % 5.81 C
2014 26-09-2018 23:45:00 7.9 C 86 % 5.71 C
2015 26-09-2018 23:50:00 7.9 C 86 % 5.71 C
2016 26-09-2018 23:55:00 7.8 C 86 % 5.61 C
2017 27-09-2018 00:00:00 7.7 C 86 % 5.51 C
2018 27-09-2018 00:05:00 7.7 C 86 % 5.51 C
2019 27-09-2018 00:10:00 7.7 C 87 % 5.68 C
2020 27-09-2018 00:15:00 7.6 C 87 % 5.58 C
2021 27-09-2018 00:20:00 7.7 C 87 % 5.68 C
2022 27-09-2018 00:25:00 7.8 C 87 % 5.78 C
2023 27-09-2018 00:30:00 7.7 C 86 % 5.51 C
2024 27-09-2018 00:35:00 7.6 C 87 % 5.58 C
2025 27-09-2018 00:40:00 7.5 C 87 % 5.48 C
Sensor: Nr:Datum:Temp:Feuchte:Taupunkt:
Aussen-T/F 2026 27-09-2018 00:45:00 7.4 C 88 % 5.55 C
2027 27-09-2018 00:50:00 7.4 C 88 % 5.55 C
2028 27-09-2018 00:55:00 7.3 C 88 % 5.45 C
2029 27-09-2018 01:00:00 7.4 C 89 % 5.71 C
2030 27-09-2018 01:05:00 7.4 C 88 % 5.55 C
2031 27-09-2018 01:10:00 7.3 C 88 % 5.45 C
2032 27-09-2018 01:15:00 7.3 C 88 % 5.45 C
2033 27-09-2018 01:20:00 7.2 C 89 % 5.51 C
2034 27-09-2018 01:25:00 7.2 C 90 % 5.67 C
2035 27-09-2018 01:30:00 7.2 C 90 % 5.67 C
2036 27-09-2018 01:35:00 7.1 C 90 % 5.57 C
2037 27-09-2018 01:40:00 7.1 C 90 % 5.57 C
2038 27-09-2018 01:45:00 7.2 C 90 % 5.67 C
2039 27-09-2018 01:50:00 7.2 C 90 % 5.67 C
2040 27-09-2018 01:55:00 7.1 C 90 % 5.57 C
2041 27-09-2018 02:00:00 7 C 90 % 5.48 C
2042 27-09-2018 02:05:00 6.9 C 90 % 5.38 C
2043 27-09-2018 02:10:00 6.9 C 90 % 5.38 C
2044 27-09-2018 02:15:00 7 C 91 % 5.63 C
2045 27-09-2018 02:20:00 7 C 91 % 5.63 C
2046 27-09-2018 02:25:00 6.9 C 91 % 5.54 C
2047 27-09-2018 02:30:00 6.9 C 91 % 5.54 C
2048 27-09-2018 02:35:00 6.9 C 91 % 5.54 C
2049 27-09-2018 02:40:00 6.8 C 91 % 5.44 C
2050 27-09-2018 02:45:00 6.8 C 91 % 5.44 C
Sensor: Nr:Datum:Temp:Feuchte:Taupunkt:
Aussen-T/F 2051 27-09-2018 02:50:00 7 C 92 % 5.79 C
2052 27-09-2018 02:55:00 7.1 C 92 % 5.89 C
2053 27-09-2018 03:00:00 7.1 C 91 % 5.73 C
2054 27-09-2018 03:05:00 6.9 C 91 % 5.54 C
2055 27-09-2018 03:10:00 7 C 92 % 5.79 C
2056 27-09-2018 03:15:00 7.1 C 92 % 5.89 C
2057 27-09-2018 03:20:00 7.1 C 92 % 5.89 C
2058 27-09-2018 03:25:00 6.9 C 91 % 5.54 C
2059 27-09-2018 03:30:00 6.8 C 91 % 5.44 C
2060 27-09-2018 03:35:00 6.8 C 91 % 5.44 C
2061 27-09-2018 03:40:00 6.8 C 92 % 5.59 C
2062 27-09-2018 03:45:00 6.9 C 92 % 5.69 C
2063 27-09-2018 03:50:00 6.8 C 92 % 5.59 C
2064 27-09-2018 03:55:00 6.7 C 92 % 5.49 C
2065 27-09-2018 04:00:00 6.7 C 92 % 5.49 C
2066 27-09-2018 04:05:00 6.5 C 92 % 5.3 C
2067 27-09-2018 04:10:00 6.4 C 92 % 5.2 C
2068 27-09-2018 04:15:00 6.3 C 92 % 5.1 C
2069 27-09-2018 04:20:00 6.3 C 92 % 5.1 C
2070 27-09-2018 04:25:00 6.2 C 92 % 5 C
2071 27-09-2018 04:30:00 6.2 C 93 % 5.15 C
2072 27-09-2018 04:35:00 6.2 C 93 % 5.15 C
2073 27-09-2018 04:40:00 6.2 C 93 % 5.15 C
2074 27-09-2018 04:45:00 6.1 C 93 % 5.06 C
2075 27-09-2018 04:50:00 6 C 93 % 4.96 C
Sensor: Nr:Datum:Temp:Feuchte:Taupunkt:
Aussen-T/F 2076 27-09-2018 04:55:00 5.9 C 92 % 4.7 C
2077 27-09-2018 05:00:00 5.9 C 93 % 4.86 C
2078 27-09-2018 05:05:00 6 C 94 % 5.11 C
2079 27-09-2018 05:10:00 6.1 C 94 % 5.21 C
2080 27-09-2018 05:15:00 6.1 C 94 % 5.21 C
2081 27-09-2018 05:20:00 6.1 C 94 % 5.21 C
2082 27-09-2018 05:25:00 5.9 C 93 % 4.86 C
2083 27-09-2018 05:30:00 5.8 C 93 % 4.76 C
2084 27-09-2018 05:35:00 5.8 C 93 % 4.76 C
2085 27-09-2018 05:40:00 5.8 C 94 % 4.91 C
2086 27-09-2018 05:45:00 5.7 C 94 % 4.81 C
2087 27-09-2018 05:50:00 5.7 C 94 % 4.81 C
2088 27-09-2018 05:55:00 5.7 C 94 % 4.81 C
2089 27-09-2018 06:00:00 5.7 C 94 % 4.81 C
2090 27-09-2018 06:05:00 5.7 C 94 % 4.81 C
2091 27-09-2018 06:10:00 5.6 C 94 % 4.71 C
2092 27-09-2018 06:15:00 5.4 C 94 % 4.51 C
2093 27-09-2018 06:20:00 5.4 C 94 % 4.51 C
2094 27-09-2018 06:25:00 5.4 C 94 % 4.51 C
2095 27-09-2018 06:30:00 5.4 C 94 % 4.51 C
2096 27-09-2018 06:35:00 5.4 C 94 % 4.51 C
2097 27-09-2018 06:40:00 5.4 C 94 % 4.51 C
2098 27-09-2018 06:45:00 5.4 C 94 % 4.51 C
2099 27-09-2018 06:50:00 5.4 C 94 % 4.51 C
2100 27-09-2018 06:55:00 5.4 C 94 % 4.51 C
Sensor: Nr:Datum:Temp:Feuchte:Taupunkt:
Aussen-T/F 2101 27-09-2018 07:00:00 5.4 C 94 % 4.51 C
2102 27-09-2018 07:05:00 5.3 C 94 % 4.41 C
2103 27-09-2018 07:10:00 5.3 C 94 % 4.41 C
2104 27-09-2018 07:15:00 5.2 C 94 % 4.32 C
2105 27-09-2018 07:20:00 5.1 C 94 % 4.22 C
2106 27-09-2018 07:25:00 5.1 C 94 % 4.22 C
2107 27-09-2018 07:30:00 5.1 C 94 % 4.22 C
2108 27-09-2018 07:35:00 5 C 94 % 4.12 C
2109 27-09-2018 07:40:00 5 C 94 % 4.12 C
2110 27-09-2018 07:45:00 5 C 95 % 4.27 C
2111 27-09-2018 07:50:00 5 C 95 % 4.27 C
2112 27-09-2018 07:55:00 5 C 95 % 4.27 C
2113 27-09-2018 08:00:00 5 C 95 % 4.27 C
2114 27-09-2018 08:05:00 5 C 95 % 4.27 C
2115 27-09-2018 08:10:00 5.1 C 95 % 4.37 C
2116 27-09-2018 08:15:00 5.2 C 95 % 4.47 C
2117 27-09-2018 08:20:00 5.3 C 95 % 4.57 C
2118 27-09-2018 08:25:00 5.3 C 95 % 4.57 C
2119 27-09-2018 08:30:00 5.3 C 95 % 4.57 C
2120 27-09-2018 08:35:00 5.3 C 95 % 4.57 C
2121 27-09-2018 08:40:00 5.3 C 95 % 4.57 C
2122 27-09-2018 08:45:00 5.4 C 95 % 4.66 C
2123 27-09-2018 08:50:00 5.4 C 95 % 4.66 C
2124 27-09-2018 08:55:00 5.4 C 95 % 4.66 C
2125 27-09-2018 09:00:00 5.4 C 95 % 4.66 C
Sensor: Nr:Datum:Temp:Feuchte:Taupunkt:
Aussen-T/F 2126 27-09-2018 09:05:00 5.6 C 95 % 4.86 C
2127 27-09-2018 09:10:00 5.7 C 95 % 4.96 C
2128 27-09-2018 09:15:00 5.7 C 96 % 5.11 C
2129 27-09-2018 09:20:00 5.8 C 96 % 5.21 C
2130 27-09-2018 09:25:00 5.8 C 95 % 5.06 C
2131 27-09-2018 09:30:00 5.8 C 95 % 5.06 C
2132 27-09-2018 09:35:00 5.8 C 96 % 5.21 C
2133 27-09-2018 09:40:00 5.9 C 96 % 5.31 C
2134 27-09-2018 09:45:00 5.9 C 96 % 5.31 C
2135 27-09-2018 09:50:00 6.1 C 96 % 5.51 C
2136 27-09-2018 09:55:00 6.1 C 96 % 5.51 C
2137 27-09-2018 10:00:00 6.2 C 96 % 5.61 C
2138 27-09-2018 10:05:00 6.3 C 96 % 5.71 C
2139 27-09-2018 10:10:00 6.4 C 96 % 5.81 C
2140 27-09-2018 10:15:00 6.6 C 96 % 6.01 C
2141 27-09-2018 10:20:00 6.7 C 96 % 6.11 C
2142 27-09-2018 10:25:00 6.9 C 96 % 6.31 C
2143 27-09-2018 10:30:00 7 C 96 % 6.41 C
2144 27-09-2018 10:35:00 7.2 C 96 % 6.61 C
2145 27-09-2018 10:40:00 7.3 C 96 % 6.71 C
2146 27-09-2018 10:45:00 7.4 C 96 % 6.8 C
2147 27-09-2018 10:50:00 7.7 C 96 % 7.1 C
2148 27-09-2018 10:55:00 7.8 C 96 % 7.2 C
2149 27-09-2018 11:00:00 8.1 C 96 % 7.5 C
2150 27-09-2018 11:05:00 8.2 C 96 % 7.6 C
Sensor: Nr:Datum:Temp:Feuchte:Taupunkt:
Aussen-T/F 2151 27-09-2018 11:10:00 8.3 C 96 % 7.7 C
2152 27-09-2018 11:15:00 8.5 C 96 % 7.9 C
2153 27-09-2018 11:20:00 8.7 C 96 % 8.1 C
2154 27-09-2018 11:25:00 8.9 C 96 % 8.3 C
2155 27-09-2018 11:30:00 9.1 C 96 % 8.5 C
2156 27-09-2018 11:35:00 9.3 C 96 % 8.7 C
2157 27-09-2018 11:40:00 9.5 C 96 % 8.89 C
2158 27-09-2018 11:45:00 9.7 C 96 % 9.09 C
2159 27-09-2018 11:50:00 9.9 C 96 % 9.29 C
2160 27-09-2018 11:55:00 10.2 C 95 % 9.44 C
2161 27-09-2018 12:00:00 10.3 C 95 % 9.54 C
2162 27-09-2018 12:05:00 10.5 C 95 % 9.73 C
2163 27-09-2018 12:10:00 10.7 C 95 % 9.93 C
2164 27-09-2018 12:15:00 10.9 C 94 % 9.97 C
2165 27-09-2018 12:20:00 11.2 C 93 % 10.11 C
2166 27-09-2018 12:25:00 11.4 C 93 % 10.31 C
2167 27-09-2018 12:30:00 11.7 C 92 % 10.44 C
2168 27-09-2018 12:35:00 11.9 C 92 % 10.64 C
2169 27-09-2018 12:40:00 12.1 C 91 % 10.68 C
2170 27-09-2018 12:45:00 12.4 C 90 % 10.81 C
2171 27-09-2018 12:50:00 12.6 C 90 % 11 C
2172 27-09-2018 12:55:00 12.8 C 90 % 11.2 C
2173 27-09-2018 13:00:00 13.1 C 89 % 11.33 C
2174 27-09-2018 13:05:00 13.3 C 88 % 11.36 C
2175 27-09-2018 13:10:00 13.6 C 88 % 11.65 C
Sensor: Nr:Datum:Temp:Feuchte:Taupunkt:
Aussen-T/F 2176 27-09-2018 13:15:00 13.8 C 87 % 11.68 C
2177 27-09-2018 13:20:00 14.1 C 88 % 12.14 C
2178 27-09-2018 13:25:00 14.3 C 86 % 11.99 C
2179 27-09-2018 13:30:00 14.6 C 86 % 12.29 C
2180 27-09-2018 13:35:00 14.8 C 85 % 12.3 C
2181 27-09-2018 13:40:00 14.9 C 84 % 12.22 C
2182 27-09-2018 13:45:00 15.2 C 84 % 12.52 C
2183 27-09-2018 13:50:00 15.3 C 82 % 12.25 C
2184 27-09-2018 13:55:00 15.6 C 82 % 12.54 C
2185 27-09-2018 14:00:00 15.8 C 81 % 12.55 C
2186 27-09-2018 14:05:00 16.2 C 80 % 12.75 C
2187 27-09-2018 14:10:00 16.8 C 78 % 12.94 C
2188 27-09-2018 14:15:00 17.3 C 75 % 12.83 C
2189 27-09-2018 14:20:00 17.8 C 74 % 13.11 C
2190 27-09-2018 14:25:00 18.4 C 71 % 13.05 C
2191 27-09-2018 14:30:00 19 C 69 % 13.19 C
2192 27-09-2018 14:35:00 19.7 C 67 % 13.4 C
2193 27-09-2018 14:40:00 20.2 C 64 % 13.18 C
2194 27-09-2018 14:45:00 20.5 C 62 % 12.97 C
2195 27-09-2018 14:50:00 20.7 C 62 % 13.16 C
2196 27-09-2018 14:55:00 20.7 C 62 % 13.16 C
2197 27-09-2018 15:00:00 20.6 C 62 % 13.07 C
2198 27-09-2018 15:05:00 20.3 C 63 % 13.03 C
2199 27-09-2018 15:10:00 19.9 C 62 % 12.41 C
2200 27-09-2018 15:15:00 19.7 C 63 % 12.46 C
Sensor: Nr:Datum:Temp:Feuchte:Taupunkt:
Aussen-T/F 2201 27-09-2018 15:20:00 19.6 C 64 % 12.61 C
2202 27-09-2018 15:25:00 19.4 C 66 % 12.89 C
2203 27-09-2018 15:30:00 19.3 C 66 % 12.79 C
2204 27-09-2018 15:35:00 19.2 C 65 % 12.47 C
2205 27-09-2018 15:40:00 19.1 C 66 % 12.6 C
2206 27-09-2018 15:45:00 19.1 C 67 % 12.83 C
2207 27-09-2018 15:50:00 18.9 C 67 % 12.64 C
2208 27-09-2018 15:55:00 18.9 C 67 % 12.64 C
2209 27-09-2018 16:00:00 18.9 C 69 % 13.09 C
2210 27-09-2018 16:05:00 18.8 C 67 % 12.55 C
2211 27-09-2018 16:10:00 18.8 C 67 % 12.55 C
2212 27-09-2018 16:15:00 18.8 C 67 % 12.55 C
2213 27-09-2018 16:20:00 18.9 C 67 % 12.64 C
2214 27-09-2018 16:25:00 18.9 C 64 % 11.95 C
2215 27-09-2018 16:30:00 18.9 C 64 % 11.95 C
2216 27-09-2018 16:35:00 18.9 C 65 % 12.18 C
2217 27-09-2018 16:40:00 18.9 C 64 % 11.95 C
2218 27-09-2018 16:45:00 18.8 C 65 % 12.09 C
2219 27-09-2018 16:50:00 18.8 C 64 % 11.85 C
2220 27-09-2018 16:55:00 18.7 C 64 % 11.76 C
2221 27-09-2018 17:00:00 18.7 C 64 % 11.76 C
2222 27-09-2018 17:05:00 18.7 C 65 % 11.99 C
2223 27-09-2018 17:10:00 18.7 C 64 % 11.76 C
2224 27-09-2018 17:15:00 18.7 C 65 % 11.99 C
2225 27-09-2018 17:20:00 18.7 C 63 % 11.52 C
Sensor: Nr:Datum:Temp:Feuchte:Taupunkt:
Aussen-T/F 2226 27-09-2018 17:25:00 18.9 C 64 % 11.95 C
2227 27-09-2018 17:30:00 19.2 C 64 % 12.23 C
2228 27-09-2018 17:35:00 19.6 C 62 % 12.13 C
2229 27-09-2018 17:40:00 19.9 C 62 % 12.41 C
2230 27-09-2018 17:45:00 20.2 C 62 % 12.69 C
2231 27-09-2018 17:50:00 20.4 C 61 % 12.63 C
2232 27-09-2018 17:55:00 20.6 C 61 % 12.82 C
2233 27-09-2018 18:00:00 20.7 C 60 % 12.66 C
2234 27-09-2018 18:05:00 20.7 C 61 % 12.91 C
2235 27-09-2018 18:10:00 20.7 C 60 % 12.66 C
2236 27-09-2018 18:15:00 20.6 C 61 % 12.82 C
2237 27-09-2018 18:20:00 20.5 C 61 % 12.73 C
2238 27-09-2018 18:25:00 20.3 C 62 % 12.79 C
2239 27-09-2018 18:30:00 20.2 C 63 % 12.94 C
2240 27-09-2018 18:35:00 20.1 C 62 % 12.6 C
2241 27-09-2018 18:40:00 19.9 C 63 % 12.65 C
2242 27-09-2018 18:45:00 19.8 C 63 % 12.56 C
2243 27-09-2018 18:50:00 19.7 C 63 % 12.46 C
2244 27-09-2018 18:55:00 19.5 C 64 % 12.51 C
2245 27-09-2018 19:00:00 19.4 C 64 % 12.42 C
2246 27-09-2018 19:05:00 19.1 C 63 % 11.9 C
2247 27-09-2018 19:10:00 18.8 C 64 % 11.85 C
2248 27-09-2018 19:15:00 18.3 C 66 % 11.84 C
2249 27-09-2018 19:20:00 17.9 C 67 % 11.69 C
2250 27-09-2018 19:25:00 17.6 C 68 % 11.63 C
Sensor: Nr:Datum:Temp:Feuchte:Taupunkt:
Aussen-T/F 2251 27-09-2018 19:30:00 17.3 C 69 % 11.56 C
2252 27-09-2018 19:35:00 17.1 C 70 % 11.59 C
2253 27-09-2018 19:40:00 16.8 C 71 % 11.52 C
2254 27-09-2018 19:45:00 16.6 C 72 % 11.54 C
2255 27-09-2018 19:50:00 16.4 C 73 % 11.55 C
2256 27-09-2018 19:55:00 16.2 C 73 % 11.36 C
2257 27-09-2018 20:00:00 16 C 74 % 11.37 C
2258 27-09-2018 20:05:00 15.8 C 74 % 11.18 C
2259 27-09-2018 20:10:00 15.6 C 74 % 10.99 C
2260 27-09-2018 20:15:00 15.5 C 75 % 11.09 C
2261 27-09-2018 20:20:00 15.4 C 75 % 11 C
2262 27-09-2018 20:25:00 15.3 C 76 % 11.1 C
2263 27-09-2018 20:30:00 15.2 C 76 % 11 C
2264 27-09-2018 20:35:00 15.1 C 76 % 10.9 C
2265 27-09-2018 20:40:00 14.9 C 77 % 10.91 C
2266 27-09-2018 20:45:00 14.9 C 77 % 10.91 C
2267 27-09-2018 20:50:00 14.8 C 77 % 10.81 C
2268 27-09-2018 20:55:00 14.8 C 78 % 11 C
2269 27-09-2018 21:00:00 14.7 C 78 % 10.91 C
2270 27-09-2018 21:05:00 14.7 C 78 % 10.91 C
2271 27-09-2018 21:10:00 14.7 C 79 % 11.1 C
2272 27-09-2018 21:15:00 14.6 C 79 % 11 C
2273 27-09-2018 21:20:00 14.4 C 78 % 10.62 C
2274 27-09-2018 21:25:00 14.3 C 79 % 10.71 C
2275 27-09-2018 21:30:00 14.1 C 80 % 10.71 C
Sensor: Nr:Datum:Temp:Feuchte:Taupunkt:
Aussen-T/F 2276 27-09-2018 21:35:00 13.8 C 81 % 10.6 C
2277 27-09-2018 21:40:00 13.7 C 81 % 10.5 C
2278 27-09-2018 21:45:00 13.6 C 82 % 10.59 C
2279 27-09-2018 21:50:00 13.4 C 82 % 10.39 C
2280 27-09-2018 21:55:00 13.3 C 82 % 10.3 C
2281 27-09-2018 22:00:00 13.3 C 82 % 10.3 C
2282 27-09-2018 22:05:00 13.1 C 83 % 10.28 C
2283 27-09-2018 22:10:00 13.1 C 82 % 10.1 C
2284 27-09-2018 22:15:00 13.2 C 82 % 10.2 C
2285 27-09-2018 22:20:00 13.3 C 82 % 10.3 C
2286 27-09-2018 22:25:00 13.2 C 81 % 10.01 C
2287 27-09-2018 22:30:00 12.9 C 82 % 9.9 C
2288 27-09-2018 22:35:00 12.6 C 82 % 9.61 C
2289 27-09-2018 22:40:00 12.3 C 83 % 9.5 C
2290 27-09-2018 22:45:00 12 C 84 % 9.38 C
2291 27-09-2018 22:50:00 11.8 C 85 % 9.36 C
2292 27-09-2018 22:55:00 11.6 C 85 % 9.17 C
2293 27-09-2018 23:00:00 11.4 C 86 % 9.14 C
2294 27-09-2018 23:05:00 11.3 C 87 % 9.22 C
2295 27-09-2018 23:10:00 11.2 C 87 % 9.12 C
2296 27-09-2018 23:15:00 11.1 C 88 % 9.19 C
2297 27-09-2018 23:20:00 11.1 C 88 % 9.19 C
2298 27-09-2018 23:25:00 11.1 C 88 % 9.19 C
2299 27-09-2018 23:30:00 11.2 C 88 % 9.29 C
2300 27-09-2018 23:35:00 11.2 C 88 % 9.29 C
Sensor: Nr:Datum:Temp:Feuchte:Taupunkt:
Aussen-T/F 2301 27-09-2018 23:40:00 11.3 C 88 % 9.39 C
2302 27-09-2018 23:45:00 11.4 C 88 % 9.49 C
2303 27-09-2018 23:50:00 11.5 C 88 % 9.58 C
2304 27-09-2018 23:55:00 11.5 C 88 % 9.58 C
2305 28-09-2018 00:00:00 11.6 C 88 % 9.68 C
2306 28-09-2018 00:05:00 11.6 C 88 % 9.68 C
2307 28-09-2018 00:10:00 11.7 C 88 % 9.78 C
2308 28-09-2018 00:15:00 11.7 C 88 % 9.78 C
2309 28-09-2018 00:20:00 11.7 C 87 % 9.61 C
2310 28-09-2018 00:25:00 11.6 C 87 % 9.51 C
2311 28-09-2018 00:30:00 11.5 C 87 % 9.41 C
2312 28-09-2018 00:35:00 11.4 C 87 % 9.32 C
2313 28-09-2018 00:40:00 11.3 C 87 % 9.22 C
2314 28-09-2018 00:45:00 11.2 C 88 % 9.29 C
2315 28-09-2018 00:50:00 11.1 C 88 % 9.19 C
2316 28-09-2018 00:55:00 10.9 C 88 % 8.99 C
2317 28-09-2018 01:00:00 10.8 C 88 % 8.89 C
2318 28-09-2018 01:05:00 10.7 C 89 % 8.96 C
2319 28-09-2018 01:10:00 10.7 C 89 % 8.96 C
2320 28-09-2018 01:15:00 10.4 C 89 % 8.67 C
2321 28-09-2018 01:20:00 10.3 C 89 % 8.57 C
2322 28-09-2018 01:25:00 10.2 C 89 % 8.47 C
2323 28-09-2018 01:30:00 10.1 C 90 % 8.54 C
2324 28-09-2018 01:35:00 10.1 C 90 % 8.54 C
2325 28-09-2018 01:40:00 10.1 C 91 % 8.7 C
Sensor: Nr:Datum:Temp:Feuchte:Taupunkt:
Aussen-T/F 2326 28-09-2018 01:45:00 10.2 C 91 % 8.8 C
2327 28-09-2018 01:50:00 10.2 C 91 % 8.8 C
2328 28-09-2018 01:55:00 10.1 C 90 % 8.54 C
2329 28-09-2018 02:00:00 9.9 C 90 % 8.34 C
2330 28-09-2018 02:05:00 9.8 C 91 % 8.4 C
2331 28-09-2018 02:10:00 9.8 C 91 % 8.4 C
2332 28-09-2018 02:15:00 9.8 C 91 % 8.4 C
2333 28-09-2018 02:20:00 9.7 C 91 % 8.3 C
2334 28-09-2018 02:25:00 9.7 C 91 % 8.3 C
2335 28-09-2018 02:30:00 9.6 C 91 % 8.21 C
2336 28-09-2018 02:35:00 9.5 C 92 % 8.27 C
2337 28-09-2018 02:40:00 9.4 C 92 % 8.17 C
2338 28-09-2018 02:45:00 9.3 C 92 % 8.07 C
2339 28-09-2018 02:50:00 9.2 C 92 % 7.97 C
2340 28-09-2018 02:55:00 9.2 C 92 % 7.97 C
2341 28-09-2018 03:00:00 9.1 C 92 % 7.87 C
2342 28-09-2018 03:05:00 9 C 92 % 7.77 C
2343 28-09-2018 03:10:00 9 C 92 % 7.77 C
2344 28-09-2018 03:15:00 9.1 C 93 % 8.03 C
2345 28-09-2018 03:20:00 8.9 C 92 % 7.67 C
2346 28-09-2018 03:25:00 8.8 C 92 % 7.57 C
2347 28-09-2018 03:30:00 8.7 C 93 % 7.63 C
2348 28-09-2018 03:35:00 8.7 C 93 % 7.63 C
2349 28-09-2018 03:40:00 8.7 C 93 % 7.63 C
2350 28-09-2018 03:45:00 8.6 C 93 % 7.53 C
Sensor: Nr:Datum:Temp:Feuchte:Taupunkt:
Aussen-T/F 2351 28-09-2018 03:50:00 8.4 C 93 % 7.34 C
2352 28-09-2018 03:55:00 8.4 C 93 % 7.34 C
2353 28-09-2018 04:00:00 8.4 C 93 % 7.34 C
2354 28-09-2018 04:05:00 8.3 C 93 % 7.24 C
2355 28-09-2018 04:10:00 8.4 C 94 % 7.49 C
2356 28-09-2018 04:15:00 8.5 C 94 % 7.59 C
2357 28-09-2018 04:20:00 8.4 C 94 % 7.49 C
2358 28-09-2018 04:25:00 8.2 C 93 % 7.14 C
2359 28-09-2018 04:30:00 8.1 C 93 % 7.04 C
2360 28-09-2018 04:35:00 8.1 C 94 % 7.19 C
2361 28-09-2018 04:40:00 8.2 C 94 % 7.29 C
2362 28-09-2018 04:45:00 8.2 C 94 % 7.29 C
2363 28-09-2018 04:50:00 8.2 C 94 % 7.29 C
2364 28-09-2018 04:55:00 8.2 C 94 % 7.29 C
2365 28-09-2018 05:00:00 8.2 C 94 % 7.29 C
2366 28-09-2018 05:05:00 8 C 94 % 7.09 C
2367 28-09-2018 05:10:00 7.9 C 94 % 7 C
2368 28-09-2018 05:15:00 7.7 C 94 % 6.8 C
2369 28-09-2018 05:20:00 7.7 C 94 % 6.8 C
2370 28-09-2018 05:25:00 7.7 C 94 % 6.8 C
2371 28-09-2018 05:30:00 7.7 C 94 % 6.8 C
2372 28-09-2018 05:35:00 7.7 C 94 % 6.8 C
2373 28-09-2018 05:40:00 7.6 C 94 % 6.7 C
2374 28-09-2018 05:45:00 7.6 C 94 % 6.7 C
2375 28-09-2018 05:50:00 7.4 C 94 % 6.5 C
Sensor: Nr:Datum:Temp:Feuchte:Taupunkt:
Aussen-T/F 2376 28-09-2018 05:55:00 7.3 C 94 % 6.4 C
2377 28-09-2018 06:00:00 7.3 C 94 % 6.4 C
2378 28-09-2018 06:05:00 7.3 C 94 % 6.4 C
2379 28-09-2018 06:10:00 7.3 C 95 % 6.55 C
2380 28-09-2018 06:15:00 7.6 C 95 % 6.85 C
2381 28-09-2018 06:20:00 7.7 C 95 % 6.95 C
2382 28-09-2018 06:25:00 7.7 C 95 % 6.95 C
2383 28-09-2018 06:30:00 7.7 C 95 % 6.95 C
2384 28-09-2018 06:35:00 7.7 C 95 % 6.95 C
2385 28-09-2018 06:40:00 7.4 C 95 % 6.65 C
2386 28-09-2018 06:45:00 7.3 C 94 % 6.4 C
2387 28-09-2018 06:50:00 7.2 C 94 % 6.3 C
2388 28-09-2018 06:55:00 7.1 C 94 % 6.2 C
2389 28-09-2018 07:00:00 7.1 C 95 % 6.35 C
2390 28-09-2018 07:05:00 7.2 C 95 % 6.45 C
2391 28-09-2018 07:10:00 7.3 C 95 % 6.55 C
2392 28-09-2018 07:15:00 7.3 C 95 % 6.55 C
2393 28-09-2018 07:20:00 7.1 C 95 % 6.35 C
2394 28-09-2018 07:25:00 6.9 C 95 % 6.16 C
2395 28-09-2018 07:30:00 6.8 C 95 % 6.06 C
2396 28-09-2018 07:35:00 6.7 C 94 % 5.8 C
2397 28-09-2018 07:40:00 6.7 C 95 % 5.96 C
2398 28-09-2018 07:45:00 6.7 C 95 % 5.96 C
2399 28-09-2018 07:50:00 6.7 C 95 % 5.96 C
2400 28-09-2018 07:55:00 6.7 C 95 % 5.96 C
Sensor: Nr:Datum:Temp:Feuchte:Taupunkt:
Aussen-T/F 2401 28-09-2018 08:00:00 6.8 C 95 % 6.06 C
2402 28-09-2018 08:05:00 6.9 C 95 % 6.16 C
2403 28-09-2018 08:10:00 7.1 C 96 % 6.51 C
2404 28-09-2018 08:15:00 7.3 C 96 % 6.71 C
2405 28-09-2018 08:20:00 7.3 C 96 % 6.71 C
2406 28-09-2018 08:25:00 7.3 C 96 % 6.71 C
2407 28-09-2018 08:30:00 7.2 C 95 % 6.45 C
2408 28-09-2018 08:35:00 7.2 C 96 % 6.61 C
2409 28-09-2018 08:40:00 7.2 C 96 % 6.61 C
2410 28-09-2018 08:45:00 7.2 C 96 % 6.61 C
2411 28-09-2018 08:50:00 7.3 C 96 % 6.71 C
2412 28-09-2018 08:55:00 7.3 C 96 % 6.71 C
2413 28-09-2018 09:00:00 7.3 C 96 % 6.71 C
2414 28-09-2018 09:05:00 7.3 C 96 % 6.71 C
2415 28-09-2018 09:10:00 7.3 C 96 % 6.71 C
2416 28-09-2018 09:15:00 7.3 C 96 % 6.71 C
2417 28-09-2018 09:20:00 7.3 C 96 % 6.71 C
2418 28-09-2018 09:25:00 7.3 C 96 % 6.71 C
2419 28-09-2018 09:30:00 7.4 C 96 % 6.8 C
2420 28-09-2018 09:35:00 7.5 C 96 % 6.9 C
2421 28-09-2018 09:40:00 7.6 C 96 % 7 C
2422 28-09-2018 09:45:00 7.7 C 96 % 7.1 C
2423 28-09-2018 09:50:00 7.8 C 96 % 7.2 C
2424 28-09-2018 09:55:00 7.9 C 96 % 7.3 C
2425 28-09-2018 10:00:00 8.1 C 96 % 7.5 C
Sensor: Nr:Datum:Temp:Feuchte:Taupunkt:
Aussen-T/F 2426 28-09-2018 10:05:00 8.2 C 96 % 7.6 C
2427 28-09-2018 10:10:00 8.3 C 96 % 7.7 C
2428 28-09-2018 10:15:00 8.4 C 96 % 7.8 C
2429 28-09-2018 10:20:00 8.6 C 96 % 8 C
2430 28-09-2018 10:25:00 8.7 C 96 % 8.1 C
2431 28-09-2018 10:30:00 8.9 C 96 % 8.3 C
2432 28-09-2018 10:35:00 9.1 C 97 % 8.65 C
2433 28-09-2018 10:40:00 9.2 C 96 % 8.6 C
2434 28-09-2018 10:45:00 9.4 C 97 % 8.95 C
2435 28-09-2018 10:50:00 9.7 C 97 % 9.25 C
2436 28-09-2018 10:55:00 10 C 97 % 9.55 C
2437 28-09-2018 11:00:00 10.3 C 97 % 9.85 C
2438 28-09-2018 11:05:00 10.7 C 97 % 10.24 C
2439 28-09-2018 11:10:00 11.1 C 97 % 10.64 C
2440 28-09-2018 11:15:00 11.3 C 97 % 10.84 C
2441 28-09-2018 11:20:00 11.5 C 97 % 11.04 C
2442 28-09-2018 11:25:00 11.7 C 97 % 11.24 C
2443 28-09-2018 11:30:00 11.8 C 96 % 11.18 C
2444 28-09-2018 11:35:00 12 C 95 % 11.22 C
2445 28-09-2018 11:40:00 12.2 C 95 % 11.42 C
2446 28-09-2018 11:45:00 12.4 C 94 % 11.46 C
2447 28-09-2018 11:50:00 12.7 C 91 % 11.27 C
2448 28-09-2018 11:55:00 13.1 C 90 % 11.5 C
2449 28-09-2018 12:00:00 13.4 C 87 % 11.28 C
2450 28-09-2018 12:05:00 13.8 C 84 % 11.15 C
Sensor: Nr:Datum:Temp:Feuchte:Taupunkt:
Aussen-T/F 2451 28-09-2018 12:10:00 14.1 C 83 % 11.26 C
2452 28-09-2018 12:15:00 14.3 C 81 % 11.09 C
2453 28-09-2018 12:20:00 14.6 C 80 % 11.19 C
2454 28-09-2018 12:25:00 14.7 C 79 % 11.1 C
2455 28-09-2018 12:30:00 14.8 C 79 % 11.2 C
2456 28-09-2018 12:35:00 15 C 79 % 11.39 C
2457 28-09-2018 12:40:00 15.1 C 78 % 11.3 C
2458 28-09-2018 12:45:00 15.2 C 78 % 11.39 C
2459 28-09-2018 12:50:00 15.2 C 78 % 11.39 C
2460 28-09-2018 12:55:00 15.3 C 77 % 11.3 C
2461 28-09-2018 13:00:00 15.3 C 78 % 11.49 C
2462 28-09-2018 13:05:00 15.4 C 77 % 11.39 C
2463 28-09-2018 13:10:00 15.4 C 77 % 11.39 C
2464 28-09-2018 13:15:00 15.3 C 77 % 11.3 C
2465 28-09-2018 13:20:00 15.2 C 77 % 11.2 C
2466 28-09-2018 13:25:00 15.2 C 78 % 11.39 C
2467 28-09-2018 13:30:00 15.2 C 78 % 11.39 C
2468 28-09-2018 13:35:00 15.2 C 78 % 11.39 C
2469 28-09-2018 13:40:00 15 C 79 % 11.39 C
2470 28-09-2018 13:45:00 14.7 C 80 % 11.29 C
2471 28-09-2018 13:50:00 14.4 C 82 % 11.37 C
2472 28-09-2018 13:55:00 14.1 C 83 % 11.26 C
2473 28-09-2018 14:00:00 13.8 C 84 % 11.15 C
2474 28-09-2018 14:05:00 13.6 C 85 % 11.13 C
2475 28-09-2018 14:10:00 13.4 C 86 % 11.11 C
Sensor: Nr:Datum:Temp:Feuchte:Taupunkt:
Aussen-T/F 2476 28-09-2018 14:15:00 13.3 C 86 % 11.01 C
2477 28-09-2018 14:20:00 13.2 C 87 % 11.09 C
2478 28-09-2018 14:25:00 13.1 C 87 % 10.99 C
2479 28-09-2018 14:30:00 13 C 87 % 10.89 C
2480 28-09-2018 14:35:00 12.9 C 88 % 10.96 C
2481 28-09-2018 14:40:00 12.9 C 89 % 11.13 C
2482 28-09-2018 14:45:00 12.8 C 89 % 11.03 C
2483 28-09-2018 14:50:00 12.8 C 90 % 11.2 C
2484 28-09-2018 14:55:00 12.7 C 90 % 11.1 C
2485 28-09-2018 15:00:00 12.7 C 90 % 11.1 C
2486 28-09-2018 15:05:00 12.7 C 90 % 11.1 C
2487 28-09-2018 15:10:00 12.7 C 91 % 11.27 C
2488 28-09-2018 15:15:00 12.7 C 91 % 11.27 C
2489 28-09-2018 15:25:00 12.7 C 91 % 11.27 C
2490 28-09-2018 15:30:00 12.7 C 91 % 11.27 C
2491 28-09-2018 15:35:00 12.7 C 91 % 11.27 C
2492 28-09-2018 15:50:00 12.6 C 91 % 11.17 C
2493 28-09-2018 15:55:00 12.6 C 92 % 11.34 C
2494 28-09-2018 16:00:00 12.6 C 91 % 11.17 C
2495 28-09-2018 16:05:00 12.6 C 91 % 11.17 C
2496 28-09-2018 16:10:00 12.6 C 91 % 11.17 C
2497 28-09-2018 16:15:00 12.6 C 91 % 11.17 C
2498 28-09-2018 16:20:00 12.6 C 91 % 11.17 C
2499 28-09-2018 16:25:00 12.5 C 91 % 11.07 C
2500 28-09-2018 16:30:00 12.5 C 92 % 11.24 C
Sensor: Nr:Datum:Temp:Feuchte:Taupunkt:
Aussen-T/F 2501 28-09-2018 16:35:00 12.4 C 92 % 11.14 C
2502 28-09-2018 16:40:00 12.4 C 92 % 11.14 C
2503 28-09-2018 16:45:00 12.4 C 92 % 11.14 C
2504 28-09-2018 16:50:00 12.4 C 92 % 11.14 C
2505 28-09-2018 16:55:00 12.4 C 92 % 11.14 C
2506 28-09-2018 17:00:00 12.5 C 93 % 11.4 C
2507 28-09-2018 17:05:00 12.5 C 92 % 11.24 C
2508 28-09-2018 17:10:00 12.5 C 92 % 11.24 C
2509 28-09-2018 17:15:00 12.5 C 92 % 11.24 C
2510 28-09-2018 17:20:00 12.5 C 92 % 11.24 C
2511 28-09-2018 17:25:00 12.6 C 92 % 11.34 C
2512 28-09-2018 17:30:00 12.6 C 91 % 11.17 C
2513 28-09-2018 17:35:00 12.6 C 90 % 11 C
2514 28-09-2018 17:40:00 12.6 C 90 % 11 C
2515 28-09-2018 17:45:00 12.6 C 89 % 10.84 C
2516 28-09-2018 17:50:00 12.6 C 89 % 10.84 C
2517 28-09-2018 17:55:00 12.7 C 89 % 10.94 C
2518 28-09-2018 18:00:00 12.7 C 89 % 10.94 C
2519 28-09-2018 18:05:00 12.7 C 88 % 10.77 C
2520 28-09-2018 18:10:00 12.6 C 88 % 10.67 C
2521 28-09-2018 18:15:00 12.7 C 88 % 10.77 C
2522 28-09-2018 18:20:00 12.7 C 87 % 10.59 C
2523 28-09-2018 18:25:00 12.6 C 88 % 10.67 C
2524 28-09-2018 18:30:00 12.6 C 88 % 10.67 C
2525 28-09-2018 18:35:00 12.6 C 87 % 10.5 C
Sensor: Nr:Datum:Temp:Feuchte:Taupunkt:
Aussen-T/F 2526 28-09-2018 18:40:00 12.6 C 87 % 10.5 C
2527 28-09-2018 18:45:00 12.6 C 87 % 10.5 C
2528 28-09-2018 18:50:00 12.6 C 87 % 10.5 C
2529 28-09-2018 18:55:00 12.6 C 88 % 10.67 C
2530 28-09-2018 19:00:00 12.5 C 88 % 10.57 C
2531 28-09-2018 19:05:00 12.5 C 88 % 10.57 C
2532 28-09-2018 19:10:00 12.4 C 88 % 10.47 C
2533 28-09-2018 19:15:00 12.3 C 88 % 10.37 C
2534 28-09-2018 19:20:00 12.1 C 87 % 10 C
2535 28-09-2018 19:25:00 11.8 C 87 % 9.71 C
2536 28-09-2018 19:30:00 11.7 C 87 % 9.61 C
2537 28-09-2018 19:35:00 11.4 C 87 % 9.32 C
2538 28-09-2018 19:40:00 11.2 C 88 % 9.29 C
2539 28-09-2018 19:45:00 11 C 88 % 9.09 C
2540 28-09-2018 19:50:00 10.8 C 88 % 8.89 C
2541 28-09-2018 19:55:00 10.7 C 89 % 8.96 C
2542 28-09-2018 20:00:00 10.6 C 89 % 8.86 C
2543 28-09-2018 20:05:00 10.4 C 90 % 8.83 C
2544 28-09-2018 20:10:00 10.3 C 90 % 8.73 C
2545 28-09-2018 20:15:00 10.2 C 90 % 8.64 C
2546 28-09-2018 20:20:00 10.1 C 90 % 8.54 C
2547 28-09-2018 20:25:00 10 C 90 % 8.44 C
2548 28-09-2018 20:30:00 9.8 C 91 % 8.4 C
2549 28-09-2018 20:35:00 9.8 C 91 % 8.4 C
2550 28-09-2018 20:40:00 9.8 C 91 % 8.4 C
Sensor: Nr:Datum:Temp:Feuchte:Taupunkt:
Aussen-T/F 2551 28-09-2018 20:45:00 9.7 C 92 % 8.46 C
2552 28-09-2018 20:50:00 9.7 C 92 % 8.46 C
2553 28-09-2018 20:55:00 9.6 C 92 % 8.37 C
2554 28-09-2018 21:00:00 9.6 C 92 % 8.37 C
2555 28-09-2018 21:05:00 9.5 C 92 % 8.27 C
2556 28-09-2018 21:10:00 9.4 C 92 % 8.17 C
2557 28-09-2018 21:15:00 9.3 C 92 % 8.07 C
2558 28-09-2018 21:20:00 9.3 C 92 % 8.07 C
2559 28-09-2018 21:25:00 9.2 C 92 % 7.97 C
2560 28-09-2018 21:30:00 9.1 C 92 % 7.87 C
2561 28-09-2018 21:35:00 9.1 C 92 % 7.87 C
2562 28-09-2018 21:40:00 9 C 92 % 7.77 C
2563 28-09-2018 21:45:00 8.9 C 93 % 7.83 C
2564 28-09-2018 21:50:00 8.8 C 93 % 7.73 C
2565 28-09-2018 21:55:00 8.8 C 93 % 7.73 C
2566 28-09-2018 22:00:00 8.7 C 93 % 7.63 C
2567 28-09-2018 22:05:00 8.6 C 93 % 7.53 C
2568 28-09-2018 22:10:00 8.5 C 93 % 7.43 C
2569 28-09-2018 22:15:00 8.3 C 93 % 7.24 C
2570 28-09-2018 22:20:00 8.3 C 93 % 7.24 C
2571 28-09-2018 22:25:00 8.2 C 93 % 7.14 C
2572 28-09-2018 22:30:00 8.1 C 93 % 7.04 C
2573 28-09-2018 22:35:00 8.1 C 93 % 7.04 C
2574 28-09-2018 22:40:00 7.9 C 93 % 6.84 C
2575 28-09-2018 22:45:00 7.8 C 93 % 6.74 C
Sensor: Nr:Datum:Temp:Feuchte:Taupunkt:
Aussen-T/F 2576 28-09-2018 22:50:00 7.8 C 93 % 6.74 C
2577 28-09-2018 22:55:00 7.7 C 93 % 6.64 C
2578 28-09-2018 23:00:00 7.6 C 93 % 6.54 C
2579 28-09-2018 23:05:00 7.5 C 93 % 6.44 C
2580 28-09-2018 23:10:00 7.4 C 93 % 6.34 C
2581 28-09-2018 23:15:00 7.3 C 94 % 6.4 C
2582 28-09-2018 23:20:00 7.2 C 94 % 6.3 C
2583 28-09-2018 23:25:00 7.2 C 94 % 6.3 C
2584 28-09-2018 23:30:00 7.2 C 94 % 6.3 C
2585 28-09-2018 23:35:00 7.1 C 94 % 6.2 C
2586 28-09-2018 23:40:00 6.9 C 94 % 6 C
2587 28-09-2018 23:45:00 6.8 C 94 % 5.9 C
2588 28-09-2018 23:50:00 6.7 C 94 % 5.8 C
2589 28-09-2018 23:55:00 6.7 C 94 % 5.8 C
2590 29-09-2018 00:00:00 6.7 C 94 % 5.8 C
2591 29-09-2018 00:05:00 6.6 C 94 % 5.71 C
2592 29-09-2018 00:10:00 6.6 C 94 % 5.71 C
2593 29-09-2018 00:15:00 6.6 C 94 % 5.71 C
2594 29-09-2018 00:20:00 6.6 C 94 % 5.71 C
2595 29-09-2018 00:25:00 6.5 C 94 % 5.61 C
2596 29-09-2018 00:30:00 6.4 C 94 % 5.51 C
2597 29-09-2018 00:35:00 6.4 C 94 % 5.51 C
2598 29-09-2018 00:40:00 6.4 C 94 % 5.51 C
2599 29-09-2018 00:45:00 6.3 C 94 % 5.41 C
2600 29-09-2018 00:50:00 6.3 C 94 % 5.41 C
Sensor: Nr:Datum:Temp:Feuchte:Taupunkt:
Aussen-T/F 2601 29-09-2018 00:55:00 6.3 C 95 % 5.56 C
2602 29-09-2018 01:00:00 6.4 C 95 % 5.66 C
2603 29-09-2018 01:05:00 6.4 C 95 % 5.66 C
2604 29-09-2018 01:10:00 6.3 C 95 % 5.56 C
2605 29-09-2018 01:15:00 6.2 C 95 % 5.46 C
2606 29-09-2018 01:20:00 6.2 C 95 % 5.46 C
2607 29-09-2018 01:25:00 6.1 C 94 % 5.21 C
2608 29-09-2018 01:30:00 6 C 94 % 5.11 C
2609 29-09-2018 01:35:00 5.9 C 95 % 5.16 C
2610 29-09-2018 01:40:00 5.9 C 95 % 5.16 C
2611 29-09-2018 01:45:00 5.8 C 95 % 5.06 C
2612 29-09-2018 01:50:00 5.8 C 95 % 5.06 C
2613 29-09-2018 01:55:00 5.7 C 94 % 4.81 C
2614 29-09-2018 02:00:00 5.6 C 94 % 4.71 C
2615 29-09-2018 02:05:00 5.6 C 95 % 4.86 C
2616 29-09-2018 02:10:00 5.6 C 95 % 4.86 C
2617 29-09-2018 02:15:00 5.6 C 95 % 4.86 C
2618 29-09-2018 02:20:00 5.6 C 95 % 4.86 C
2619 29-09-2018 02:25:00 5.5 C 95 % 4.76 C
2620 29-09-2018 02:30:00 5.4 C 94 % 4.51 C
2621 29-09-2018 02:35:00 5.3 C 95 % 4.57 C
2622 29-09-2018 02:40:00 5.2 C 95 % 4.47 C
2623 29-09-2018 02:45:00 5.2 C 94 % 4.32 C
2624 29-09-2018 02:50:00 5.1 C 94 % 4.22 C
2625 29-09-2018 02:55:00 5 C 95 % 4.27 C
Sensor: Nr:Datum:Temp:Feuchte:Taupunkt:
Aussen-T/F 2626 29-09-2018 03:00:00 4.9 C 95 % 4.17 C
2627 29-09-2018 03:05:00 4.9 C 95 % 4.17 C
2628 29-09-2018 03:10:00 5 C 95 % 4.27 C
2629 29-09-2018 03:15:00 4.9 C 95 % 4.17 C
2630 29-09-2018 03:20:00 4.9 C 95 % 4.17 C
2631 29-09-2018 03:25:00 4.8 C 95 % 4.07 C
2632 29-09-2018 03:30:00 4.8 C 95 % 4.07 C
2633 29-09-2018 03:35:00 4.8 C 95 % 4.07 C
2634 29-09-2018 03:40:00 4.7 C 95 % 3.97 C
2635 29-09-2018 03:45:00 4.7 C 95 % 3.97 C
2636 29-09-2018 03:50:00 4.6 C 95 % 3.87 C
2637 29-09-2018 03:55:00 4.6 C 95 % 3.87 C
2638 29-09-2018 04:00:00 4.6 C 95 % 3.87 C
2639 29-09-2018 04:05:00 4.6 C 95 % 3.87 C
2640 29-09-2018 04:10:00 4.6 C 95 % 3.87 C
2641 29-09-2018 04:15:00 4.5 C 95 % 3.77 C
2642 29-09-2018 04:20:00 4.5 C 95 % 3.77 C
2643 29-09-2018 04:25:00 4.4 C 95 % 3.67 C
2644 29-09-2018 04:30:00 4.3 C 95 % 3.57 C
2645 29-09-2018 04:35:00 4.2 C 95 % 3.47 C
2646 29-09-2018 04:40:00 4.1 C 95 % 3.37 C
2647 29-09-2018 04:45:00 4 C 95 % 3.27 C
2648 29-09-2018 04:50:00 4 C 95 % 3.27 C
2649 29-09-2018 04:55:00 4 C 95 % 3.27 C
2650 29-09-2018 05:00:00 4.1 C 95 % 3.37 C
Sensor: Nr:Datum:Temp:Feuchte:Taupunkt:
Aussen-T/F 2651 29-09-2018 05:05:00 4.2 C 96 % 3.62 C
2652 29-09-2018 05:10:00 4.3 C 96 % 3.72 C
2653 29-09-2018 05:15:00 4.3 C 95 % 3.57 C
2654 29-09-2018 05:20:00 4.3 C 95 % 3.57 C
2655 29-09-2018 05:25:00 4.2 C 95 % 3.47 C
2656 29-09-2018 05:30:00 4.1 C 95 % 3.37 C
2657 29-09-2018 05:35:00 4.1 C 95 % 3.37 C
2658 29-09-2018 05:40:00 4 C 95 % 3.27 C
2659 29-09-2018 05:45:00 3.9 C 95 % 3.17 C
2660 29-09-2018 05:50:00 3.9 C 95 % 3.17 C
2661 29-09-2018 05:55:00 3.9 C 95 % 3.17 C
2662 29-09-2018 06:00:00 3.9 C 95 % 3.17 C
2663 29-09-2018 06:05:00 3.9 C 95 % 3.17 C
2664 29-09-2018 06:10:00 3.9 C 96 % 3.32 C
2665 29-09-2018 06:15:00 3.8 C 96 % 3.22 C
2666 29-09-2018 06:20:00 3.8 C 96 % 3.22 C
2667 29-09-2018 06:25:00 3.8 C 96 % 3.22 C
2668 29-09-2018 06:30:00 3.9 C 96 % 3.32 C
2669 29-09-2018 06:35:00 3.9 C 96 % 3.32 C
2670 29-09-2018 06:40:00 3.8 C 96 % 3.22 C
2671 29-09-2018 06:45:00 3.7 C 95 % 2.98 C
2672 29-09-2018 06:50:00 3.7 C 95 % 2.98 C
2673 29-09-2018 06:55:00 3.7 C 95 % 2.98 C
2674 29-09-2018 07:00:00 3.6 C 95 % 2.88 C
2675 29-09-2018 07:05:00 3.5 C 95 % 2.78 C
Sensor: Nr:Datum:Temp:Feuchte:Taupunkt:
Aussen-T/F 2676 29-09-2018 07:10:00 3.4 C 95 % 2.68 C
2677 29-09-2018 07:15:00 3.3 C 95 % 2.58 C
2678 29-09-2018 07:20:00 3.3 C 95 % 2.58 C
2679 29-09-2018 07:25:00 3.3 C 95 % 2.58 C
2680 29-09-2018 07:30:00 3.3 C 96 % 2.72 C
2681 29-09-2018 07:35:00 3.3 C 96 % 2.72 C
2682 29-09-2018 07:40:00 3.3 C 96 % 2.72 C
2683 29-09-2018 07:45:00 3.3 C 96 % 2.72 C
2684 29-09-2018 07:50:00 3.2 C 96 % 2.63 C
2685 29-09-2018 07:55:00 3.2 C 96 % 2.63 C
2686 29-09-2018 08:00:00 3.3 C 96 % 2.72 C
2687 29-09-2018 08:05:00 3.4 C 96 % 2.82 C
2688 29-09-2018 08:10:00 3.4 C 96 % 2.82 C
2689 29-09-2018 08:15:00 3.4 C 96 % 2.82 C
2690 29-09-2018 08:20:00 3.4 C 96 % 2.82 C
2691 29-09-2018 08:25:00 3.5 C 96 % 2.92 C
2692 29-09-2018 08:30:00 3.6 C 96 % 3.02 C
2693 29-09-2018 08:35:00 3.6 C 96 % 3.02 C
2694 29-09-2018 08:40:00 3.6 C 96 % 3.02 C
2695 29-09-2018 08:45:00 3.6 C 96 % 3.02 C
2696 29-09-2018 08:50:00 3.5 C 96 % 2.92 C
2697 29-09-2018 08:55:00 3.6 C 96 % 3.02 C
2698 29-09-2018 09:00:00 3.6 C 96 % 3.02 C
2699 29-09-2018 09:05:00 3.6 C 96 % 3.02 C
2700 29-09-2018 09:10:00 3.7 C 96 % 3.12 C
Sensor: Nr:Datum:Temp:Feuchte:Taupunkt:
Aussen-T/F 2701 29-09-2018 09:15:00 3.7 C 96 % 3.12 C
2702 29-09-2018 09:20:00 3.9 C 96 % 3.32 C
2703 29-09-2018 09:25:00 4.1 C 96 % 3.52 C
2704 29-09-2018 09:30:00 4.2 C 96 % 3.62 C
2705 29-09-2018 09:35:00 4.4 C 96 % 3.82 C
2706 29-09-2018 09:40:00 4.5 C 97 % 4.07 C
2707 29-09-2018 09:45:00 4.7 C 96 % 4.12 C
2708 29-09-2018 09:50:00 4.8 C 97 % 4.37 C
2709 29-09-2018 09:55:00 4.9 C 97 % 4.46 C
2710 29-09-2018 10:00:00 4.9 C 97 % 4.46 C
2711 29-09-2018 10:05:00 5.1 C 97 % 4.66 C
2712 29-09-2018 10:10:00 5.2 C 97 % 4.76 C
2713 29-09-2018 10:15:00 5.3 C 97 % 4.86 C
2714 29-09-2018 10:20:00 5.4 C 97 % 4.96 C
2715 29-09-2018 10:25:00 5.6 C 97 % 5.16 C
2716 29-09-2018 10:30:00 5.7 C 97 % 5.26 C
2717 29-09-2018 10:35:00 5.8 C 97 % 5.36 C
2718 29-09-2018 10:40:00 6.1 C 97 % 5.66 C
2719 29-09-2018 10:45:00 6.2 C 97 % 5.76 C
2720 29-09-2018 10:50:00 6.4 C 97 % 5.96 C
2721 29-09-2018 10:55:00 6.6 C 97 % 6.16 C
2722 29-09-2018 11:00:00 6.8 C 97 % 6.36 C
2723 29-09-2018 11:05:00 6.9 C 97 % 6.46 C
2724 29-09-2018 11:10:00 7.1 C 97 % 6.66 C
2725 29-09-2018 11:15:00 7.2 C 97 % 6.76 C
Sensor: Nr:Datum:Temp:Feuchte:Taupunkt:
Aussen-T/F 2726 29-09-2018 11:20:00 7.4 C 97 % 6.96 C
2727 29-09-2018 11:25:00 7.6 C 97 % 7.16 C
2728 29-09-2018 11:30:00 7.7 C 97 % 7.25 C
2729 29-09-2018 11:35:00 7.8 C 97 % 7.35 C
2730 29-09-2018 11:40:00 7.9 C 97 % 7.45 C
2731 29-09-2018 11:45:00 8.1 C 97 % 7.65 C
2732 29-09-2018 11:50:00 8.2 C 97 % 7.75 C
2733 29-09-2018 11:55:00 8.4 C 97 % 7.95 C
2734 29-09-2018 12:00:00 8.5 C 96 % 7.9 C
2735 29-09-2018 12:05:00 8.6 C 96 % 8 C
2736 29-09-2018 12:10:00 8.7 C 95 % 7.94 C
2737 29-09-2018 12:15:00 8.8 C 93 % 7.73 C
2738 29-09-2018 12:20:00 9.2 C 90 % 7.65 C
2739 29-09-2018 12:25:00 9.4 C 89 % 7.68 C
2740 29-09-2018 12:30:00 9.8 C 86 % 7.57 C
2741 29-09-2018 12:35:00 10.2 C 82 % 7.27 C
2742 29-09-2018 12:40:00 10.4 C 80 % 7.1 C
2743 29-09-2018 12:45:00 10.7 C 78 % 7.03 C
2744 29-09-2018 12:50:00 11 C 77 % 7.13 C
2745 29-09-2018 12:55:00 11.3 C 75 % 7.04 C
2746 29-09-2018 13:00:00 11.6 C 72 % 6.73 C
2747 29-09-2018 13:05:00 11.9 C 71 % 6.82 C
2748 29-09-2018 13:10:00 12 C 69 % 6.5 C
2749 29-09-2018 13:15:00 12.2 C 69 % 6.69 C
2750 29-09-2018 13:20:00 12.4 C 67 % 6.45 C
Sensor: Nr:Datum:Temp:Feuchte:Taupunkt:
Aussen-T/F 2751 29-09-2018 13:25:00 12.6 C 66 % 6.42 C
2752 29-09-2018 13:30:00 12.8 C 65 % 6.39 C
2753 29-09-2018 13:35:00 12.9 C 64 % 6.26 C
2754 29-09-2018 13:40:00 12.9 C 62 % 5.8 C
2755 29-09-2018 13:45:00 13.1 C 62 % 5.99 C
2756 29-09-2018 13:50:00 13.3 C 61 % 5.95 C
2757 29-09-2018 13:55:00 13.4 C 61 % 6.04 C
2758 29-09-2018 14:00:00 13.6 C 60 % 5.99 C
2759 29-09-2018 14:05:00 13.8 C 59 % 5.94 C
2760 29-09-2018 14:10:00 13.9 C 61 % 6.51 C
2761 29-09-2018 14:15:00 14.2 C 60 % 6.56 C
2762 29-09-2018 14:20:00 14.5 C 59 % 6.59 C
2763 29-09-2018 14:25:00 14.9 C 58 % 6.72 C
2764 29-09-2018 14:30:00 15.1 C 56 % 6.4 C
2765 29-09-2018 14:35:00 15.2 C 52 % 5.42 C
2766 29-09-2018 14:40:00 15.3 C 53 % 5.79 C
2767 29-09-2018 14:45:00 15.4 C 54 % 6.15 C
2768 29-09-2018 14:50:00 15.4 C 53 % 5.88 C
2769 29-09-2018 14:55:00 15.3 C 53 % 5.79 C
2770 29-09-2018 15:00:00 15.2 C 53 % 5.69 C
2771 29-09-2018 15:05:00 15.1 C 58 % 6.91 C
2772 29-09-2018 15:10:00 15.1 C 55 % 6.14 C
2773 29-09-2018 15:15:00 15 C 53 % 5.51 C
2774 29-09-2018 15:20:00 14.9 C 54 % 5.69 C
2775 29-09-2018 15:25:00 14.9 C 52 % 5.14 C
Sensor: Nr:Datum:Temp:Feuchte:Taupunkt:
Aussen-T/F 2776 29-09-2018 15:30:00 14.8 C 54 % 5.59 C
2777 29-09-2018 15:35:00 14.8 C 52 % 5.05 C
2778 29-09-2018 15:40:00 14.9 C 54 % 5.69 C
2779 29-09-2018 15:45:00 14.9 C 50 % 4.58 C
2780 29-09-2018 15:50:00 15 C 51 % 4.96 C
2781 29-09-2018 15:55:00 14.9 C 51 % 4.86 C
2782 29-09-2018 16:00:00 15 C 51 % 4.96 C
2783 29-09-2018 16:05:00 15.1 C 51 % 5.05 C
2784 29-09-2018 16:10:00 15.2 C 49 % 4.57 C
2785 29-09-2018 16:15:00 15.2 C 51 % 5.14 C
2786 29-09-2018 16:20:00 15.4 C 51 % 5.33 C
2787 29-09-2018 16:25:00 15.5 C 50 % 5.13 C
2788 29-09-2018 16:30:00 15.6 C 50 % 5.23 C
2789 29-09-2018 16:35:00 15.6 C 51 % 5.51 C
2790 29-09-2018 16:40:00 15.6 C 51 % 5.51 C
2791 29-09-2018 16:45:00 15.6 C 50 % 5.23 C
2792 29-09-2018 16:50:00 15.5 C 52 % 5.7 C
2793 29-09-2018 16:55:00 15.6 C 53 % 6.06 C
2794 29-09-2018 17:00:00 15.6 C 51 % 5.51 C
2795 29-09-2018 17:05:00 15.6 C 52 % 5.79 C
2796 29-09-2018 17:10:00 15.7 C 51 % 5.6 C
2797 29-09-2018 17:15:00 15.8 C 52 % 5.97 C
2798 29-09-2018 17:20:00 16.1 C 52 % 6.25 C
2799 29-09-2018 17:25:00 16.3 C 55 % 7.25 C
2800 29-09-2018 17:30:00 16.4 C 47 % 5.07 C
Sensor: Nr:Datum:Temp:Feuchte:Taupunkt:
Aussen-T/F 2801 29-09-2018 17:35:00 16.7 C 53 % 7.08 C
2802 29-09-2018 17:40:00 16.8 C 55 % 7.72 C
2803 29-09-2018 17:45:00 16.6 C 55 % 7.53 C
2804 29-09-2018 17:50:00 16.6 C 55 % 7.53 C
2805 29-09-2018 17:55:00 16.5 C 57 % 7.96 C
2806 29-09-2018 18:00:00 16.3 C 57 % 7.77 C
2807 29-09-2018 18:05:00 16.1 C 59 % 8.09 C
2808 29-09-2018 18:10:00 15.9 C 60 % 8.15 C
2809 29-09-2018 18:15:00 15.7 C 61 % 8.21 C
2810 29-09-2018 18:20:00 15.4 C 61 % 7.93 C
2811 29-09-2018 18:25:00 15.2 C 61 % 7.74 C
2812 29-09-2018 18:30:00 14.8 C 62 % 7.6 C
2813 29-09-2018 18:35:00 14.4 C 64 % 7.68 C
2814 29-09-2018 18:40:00 14.1 C 64 % 7.4 C
2815 29-09-2018 18:45:00 13.7 C 64 % 7.02 C
2816 29-09-2018 18:50:00 13.4 C 66 % 7.19 C
2817 29-09-2018 18:55:00 13.1 C 66 % 6.9 C
2818 29-09-2018 19:00:00 12.7 C 66 % 6.52 C
2819 29-09-2018 19:05:00 12.4 C 68 % 6.67 C
2820 29-09-2018 19:10:00 12.1 C 68 % 6.38 C
2821 29-09-2018 19:15:00 11.8 C 68 % 6.09 C
2822 29-09-2018 19:20:00 11.6 C 69 % 6.11 C
2823 29-09-2018 19:25:00 11.4 C 69 % 5.92 C
2824 29-09-2018 19:30:00 11.3 C 70 % 6.03 C
2825 29-09-2018 19:35:00 11.1 C 69 % 5.64 C
Sensor: Nr:Datum:Temp:Feuchte:Taupunkt:
Aussen-T/F 2826 29-09-2018 19:40:00 10.9 C 70 % 5.65 C
2827 29-09-2018 19:45:00 10.8 C 70 % 5.56 C
2828 29-09-2018 19:50:00 10.7 C 69 % 5.25 C
2829 29-09-2018 19:55:00 10.6 C 69 % 5.16 C
2830 29-09-2018 20:00:00 10.4 C 70 % 5.17 C
2831 29-09-2018 20:05:00 10.3 C 69 % 4.87 C
2832 29-09-2018 20:10:00 10.2 C 69 % 4.78 C
2833 29-09-2018 20:15:00 10.1 C 70 % 4.89 C
2834 29-09-2018 20:20:00 10 C 71 % 4.99 C
2835 29-09-2018 20:25:00 9.9 C 72 % 5.1 C
2836 29-09-2018 20:30:00 9.8 C 73 % 5.2 C
2837 29-09-2018 20:35:00 9.6 C 74 % 5.2 C
2838 29-09-2018 20:40:00 9.4 C 74 % 5.01 C
2839 29-09-2018 20:45:00 9.2 C 75 % 5.01 C
2840 29-09-2018 20:50:00 8.9 C 75 % 4.72 C
2841 29-09-2018 20:55:00 8.7 C 76 % 4.71 C
2842 29-09-2018 21:00:00 8.5 C 77 % 4.71 C
2843 29-09-2018 21:05:00 8.3 C 77 % 4.51 C
2844 29-09-2018 21:10:00 8.2 C 78 % 4.6 C
2845 29-09-2018 21:15:00 8.2 C 79 % 4.78 C
2846 29-09-2018 21:20:00 8.1 C 78 % 4.5 C
2847 29-09-2018 21:25:00 7.9 C 79 % 4.49 C
2848 29-09-2018 21:30:00 7.8 C 79 % 4.39 C
2849 29-09-2018 21:35:00 7.6 C 79 % 4.2 C
2850 29-09-2018 21:40:00 7.4 C 80 % 4.18 C
Sensor: Nr:Datum:Temp:Feuchte:Taupunkt:
Aussen-T/F 2851 29-09-2018 21:45:00 7.3 C 81 % 4.26 C
2852 29-09-2018 21:50:00 7.2 C 81 % 4.16 C
2853 29-09-2018 21:55:00 7.1 C 82 % 4.24 C
2854 29-09-2018 22:00:00 6.9 C 82 % 4.05 C
2855 29-09-2018 22:05:00 6.9 C 82 % 4.05 C
2856 29-09-2018 22:10:00 6.8 C 83 % 4.12 C
2857 29-09-2018 22:15:00 6.7 C 84 % 4.19 C
2858 29-09-2018 22:20:00 6.6 C 83 % 3.92 C
2859 29-09-2018 22:25:00 6.6 C 84 % 4.1 C
2860 29-09-2018 22:30:00 6.4 C 84 % 3.9 C
2861 29-09-2018 22:35:00 6.4 C 84 % 3.9 C
2862 29-09-2018 22:40:00 6.3 C 85 % 3.97 C
2863 29-09-2018 22:45:00 6.3 C 85 % 3.97 C
2864 29-09-2018 22:50:00 6.2 C 85 % 3.87 C
2865 29-09-2018 22:55:00 6.1 C 85 % 3.77 C
2866 29-09-2018 23:00:00 6.1 C 85 % 3.77 C
2867 29-09-2018 23:05:00 6.1 C 85 % 3.77 C
2868 29-09-2018 23:10:00 6.1 C 85 % 3.77 C
2869 29-09-2018 23:15:00 6.1 C 86 % 3.94 C
2870 29-09-2018 23:20:00 6.1 C 86 % 3.94 C
2871 29-09-2018 23:25:00 6.1 C 86 % 3.94 C
2872 29-09-2018 23:30:00 5.9 C 85 % 3.58 C
2873 29-09-2018 23:35:00 5.8 C 85 % 3.48 C
2874 29-09-2018 23:40:00 5.7 C 86 % 3.55 C
2875 29-09-2018 23:45:00 5.6 C 86 % 3.45 C
Sensor: Nr:Datum:Temp:Feuchte:Taupunkt:
Aussen-T/F 2876 29-09-2018 23:50:00 5.5 C 86 % 3.35 C
2877 29-09-2018 23:55:00 5.4 C 87 % 3.41 C
2878 30-09-2018 00:00:00 5.3 C 87 % 3.32 C
2879 30-09-2018 00:05:00 5.3 C 87 % 3.32 C
2880 30-09-2018 00:10:00 5.3 C 88 % 3.48 C
2881 30-09-2018 00:15:00 5.2 C 88 % 3.38 C
2882 30-09-2018 00:20:00 5.1 C 88 % 3.28 C
2883 30-09-2018 00:25:00 5 C 88 % 3.18 C
2884 30-09-2018 00:30:00 4.9 C 88 % 3.08 C
2885 30-09-2018 00:35:00 4.8 C 88 % 2.99 C
2886 30-09-2018 00:40:00 4.7 C 89 % 3.05 C
2887 30-09-2018 00:45:00 4.6 C 89 % 2.95 C
2888 30-09-2018 00:50:00 4.6 C 89 % 2.95 C
2889 30-09-2018 00:55:00 4.5 C 89 % 2.85 C
2890 30-09-2018 01:00:00 4.5 C 89 % 2.85 C
2891 30-09-2018 01:05:00 4.5 C 90 % 3.01 C
2892 30-09-2018 01:10:00 4.4 C 90 % 2.91 C
2893 30-09-2018 01:15:00 4.3 C 90 % 2.81 C
2894 30-09-2018 01:20:00 4.3 C 90 % 2.81 C
2895 30-09-2018 01:25:00 4.3 C 90 % 2.81 C
2896 30-09-2018 01:30:00 4.2 C 90 % 2.71 C
2897 30-09-2018 01:35:00 4.2 C 91 % 2.87 C
2898 30-09-2018 01:40:00 4.2 C 91 % 2.87 C
2899 30-09-2018 01:45:00 4.2 C 91 % 2.87 C
2900 30-09-2018 01:50:00 4.1 C 91 % 2.77 C
Sensor: Nr:Datum:Temp:Feuchte:Taupunkt:
Aussen-T/F 2901 30-09-2018 01:55:00 4.1 C 91 % 2.77 C
2902 30-09-2018 02:00:00 3.9 C 91 % 2.57 C
2903 30-09-2018 02:05:00 3.9 C 91 % 2.57 C
2904 30-09-2018 02:10:00 3.9 C 91 % 2.57 C
2905 30-09-2018 02:15:00 3.9 C 91 % 2.57 C
2906 30-09-2018 02:20:00 3.9 C 92 % 2.72 C
2907 30-09-2018 02:25:00 3.9 C 92 % 2.72 C
2908 30-09-2018 02:30:00 3.9 C 92 % 2.72 C
2909 30-09-2018 02:35:00 4 C 92 % 2.82 C
2910 30-09-2018 02:40:00 4.1 C 92 % 2.92 C
2911 30-09-2018 02:45:00 4.1 C 92 % 2.92 C
2912 30-09-2018 02:50:00 4 C 92 % 2.82 C
2913 30-09-2018 02:55:00 3.8 C 92 % 2.62 C
2914 30-09-2018 03:00:00 3.7 C 92 % 2.52 C
2915 30-09-2018 03:05:00 3.7 C 92 % 2.52 C
2916 30-09-2018 03:10:00 3.6 C 92 % 2.42 C
2917 30-09-2018 03:15:00 3.6 C 92 % 2.42 C
2918 30-09-2018 03:20:00 3.5 C 92 % 2.33 C
2919 30-09-2018 03:25:00 3.6 C 92 % 2.42 C
2920 30-09-2018 03:30:00 3.6 C 93 % 2.58 C
2921 30-09-2018 03:35:00 3.4 C 92 % 2.23 C
2922 30-09-2018 03:40:00 3.4 C 92 % 2.23 C
2923 30-09-2018 03:45:00 3.3 C 92 % 2.13 C
2924 30-09-2018 03:50:00 3.2 C 92 % 2.03 C
2925 30-09-2018 03:55:00 3.2 C 93 % 2.18 C
Sensor: Nr:Datum:Temp:Feuchte:Taupunkt:
Aussen-T/F 2926 30-09-2018 04:00:00 3.2 C 93 % 2.18 C
2927 30-09-2018 04:05:00 3.2 C 93 % 2.18 C
2928 30-09-2018 04:10:00 3.1 C 93 % 2.08 C
2929 30-09-2018 04:15:00 3.1 C 93 % 2.08 C
2930 30-09-2018 04:20:00 3.1 C 93 % 2.08 C
2931 30-09-2018 04:25:00 3.2 C 94 % 2.33 C
2932 30-09-2018 04:30:00 3.3 C 94 % 2.43 C
2933 30-09-2018 04:35:00 3.3 C 94 % 2.43 C
2934 30-09-2018 04:40:00 3.3 C 94 % 2.43 C
2935 30-09-2018 04:45:00 3.2 C 94 % 2.33 C
2936 30-09-2018 04:50:00 3.2 C 94 % 2.33 C
2937 30-09-2018 04:55:00 3.2 C 94 % 2.33 C
2938 30-09-2018 05:00:00 3.2 C 94 % 2.33 C
2939 30-09-2018 05:05:00 3 C 93 % 1.98 C
2940 30-09-2018 05:10:00 2.8 C 93 % 1.78 C
2941 30-09-2018 05:15:00 2.8 C 93 % 1.78 C
2942 30-09-2018 05:20:00 2.7 C 93 % 1.68 C
2943 30-09-2018 05:25:00 2.7 C 94 % 1.83 C
2944 30-09-2018 05:30:00 2.7 C 94 % 1.83 C
2945 30-09-2018 05:35:00 2.7 C 94 % 1.83 C
2946 30-09-2018 05:40:00 2.6 C 94 % 1.73 C
2947 30-09-2018 05:45:00 2.6 C 94 % 1.73 C
2948 30-09-2018 05:50:00 2.5 C 94 % 1.63 C
2949 30-09-2018 05:55:00 2.4 C 94 % 1.54 C
2950 30-09-2018 06:00:00 2.4 C 94 % 1.54 C
Sensor: Nr:Datum:Temp:Feuchte:Taupunkt:
Aussen-T/F 2951 30-09-2018 06:05:00 2.4 C 94 % 1.54 C
2952 30-09-2018 06:10:00 2.3 C 94 % 1.44 C
2953 30-09-2018 06:15:00 2.4 C 94 % 1.54 C
2954 30-09-2018 06:20:00 2.4 C 94 % 1.54 C
2955 30-09-2018 06:25:00 2.3 C 94 % 1.44 C
2956 30-09-2018 06:30:00 2.2 C 94 % 1.34 C
2957 30-09-2018 06:35:00 2.1 C 94 % 1.24 C
2958 30-09-2018 06:40:00 2 C 94 % 1.14 C
2959 30-09-2018 06:45:00 1.9 C 94 % 1.04 C
2960 30-09-2018 06:50:00 1.8 C 94 % 0.94 C
2961 30-09-2018 06:55:00 1.8 C 94 % 0.94 C
2962 30-09-2018 07:00:00 1.8 C 94 % 0.94 C
2963 30-09-2018 07:05:00 1.7 C 94 % 0.84 C
2964 30-09-2018 07:10:00 1.7 C 94 % 0.84 C
2965 30-09-2018 07:15:00 1.7 C 94 % 0.84 C
2966 30-09-2018 07:20:00 1.7 C 94 % 0.84 C
2967 30-09-2018 07:25:00 1.8 C 94 % 0.94 C
2968 30-09-2018 07:30:00 1.9 C 95 % 1.19 C
2969 30-09-2018 07:35:00 1.9 C 95 % 1.19 C
2970 30-09-2018 07:40:00 2.1 C 95 % 1.38 C
2971 30-09-2018 07:45:00 2.2 C 95 % 1.48 C
2972 30-09-2018 07:50:00 2.2 C 95 % 1.48 C
2973 30-09-2018 07:55:00 2.3 C 95 % 1.58 C
2974 30-09-2018 08:00:00 2.3 C 95 % 1.58 C
2975 30-09-2018 08:05:00 2.3 C 95 % 1.58 C
Sensor: Nr:Datum:Temp:Feuchte:Taupunkt:
Aussen-T/F 2976 30-09-2018 08:10:00 2.4 C 95 % 1.68 C
2977 30-09-2018 08:15:00 2.5 C 95 % 1.78 C
2978 30-09-2018 08:20:00 2.5 C 95 % 1.78 C
2979 30-09-2018 08:25:00 2.5 C 95 % 1.78 C
2980 30-09-2018 08:30:00 2.5 C 95 % 1.78 C
2981 30-09-2018 08:35:00 2.5 C 95 % 1.78 C
2982 30-09-2018 08:40:00 2.6 C 95 % 1.88 C
2983 30-09-2018 08:45:00 2.6 C 95 % 1.88 C
2984 30-09-2018 08:50:00 2.7 C 95 % 1.98 C
2985 30-09-2018 08:55:00 2.8 C 95 % 2.08 C
2986 30-09-2018 09:00:00 2.9 C 96 % 2.33 C
2987 30-09-2018 09:05:00 2.9 C 95 % 2.18 C
2988 30-09-2018 09:10:00 2.9 C 95 % 2.18 C
2989 30-09-2018 09:15:00 3 C 95 % 2.28 C
2990 30-09-2018 09:20:00 3 C 95 % 2.28 C
2991 30-09-2018 09:25:00 3.1 C 96 % 2.53 C
2992 30-09-2018 09:30:00 3.2 C 96 % 2.63 C
2993 30-09-2018 09:35:00 3.3 C 96 % 2.72 C
2994 30-09-2018 09:40:00 3.3 C 95 % 2.58 C
2995 30-09-2018 09:45:00 3.3 C 95 % 2.58 C
2996 30-09-2018 09:50:00 3.4 C 95 % 2.68 C
2997 30-09-2018 09:55:00 3.3 C 95 % 2.58 C
2998 30-09-2018 10:00:00 3.3 C 95 % 2.58 C
2999 30-09-2018 10:05:00 3.3 C 95 % 2.58 C
3000 30-09-2018 10:10:00 3.2 C 95 % 2.48 C
Sensor: Nr:Datum:Temp:Feuchte:Taupunkt:
Aussen-T/F 3001 30-09-2018 10:15:00 3.3 C 95 % 2.58 C
3002 30-09-2018 10:20:00 3.4 C 95 % 2.68 C
3003 30-09-2018 10:25:00 3.6 C 96 % 3.02 C
3004 30-09-2018 10:30:00 3.7 C 96 % 3.12 C
3005 30-09-2018 10:35:00 3.9 C 96 % 3.32 C
3006 30-09-2018 10:40:00 4.1 C 96 % 3.52 C
3007 30-09-2018 10:45:00 4.3 C 96 % 3.72 C
3008 30-09-2018 10:50:00 4.4 C 96 % 3.82 C
3009 30-09-2018 10:55:00 4.6 C 96 % 4.02 C
3010 30-09-2018 11:00:00 4.7 C 96 % 4.12 C
3011 30-09-2018 11:05:00 4.9 C 96 % 4.32 C
3012 30-09-2018 11:10:00 5.1 C 96 % 4.52 C
3013 30-09-2018 11:50:00 5.7 C 96 % 5.11 C
3014 30-09-2018 11:55:00 5.8 C 96 % 5.21 C
3015 30-09-2018 12:00:00 6.1 C 96 % 5.51 C
3016 30-09-2018 12:05:00 7 C 96 % 6.41 C
3017 30-09-2018 12:10:00 7.3 C 96 % 6.71 C
3018 30-09-2018 12:15:00 7.6 C 96 % 7 C
3019 30-09-2018 12:20:00 7.8 C 96 % 7.2 C
3020 30-09-2018 12:25:00 8.1 C 95 % 7.35 C
3021 30-09-2018 12:30:00 8.3 C 94 % 7.39 C
3022 30-09-2018 12:35:00 8.6 C 94 % 7.69 C
3023 30-09-2018 12:40:00 8.8 C 93 % 7.73 C
3024 30-09-2018 12:45:00 9.1 C 93 % 8.03 C
3025 30-09-2018 12:50:00 9.2 C 91 % 7.81 C
Sensor: Nr:Datum:Temp:Feuchte:Taupunkt:
Aussen-T/F 3026 30-09-2018 12:55:00 9.4 C 91 % 8.01 C
3027 30-09-2018 13:00:00 9.6 C 90 % 8.04 C
3028 30-09-2018 13:05:00 9.8 C 90 % 8.24 C
3029 30-09-2018 13:10:00 9.9 C 90 % 8.34 C
3030 30-09-2018 13:15:00 10.2 C 89 % 8.47 C
3031 30-09-2018 13:20:00 10.4 C 89 % 8.67 C
3032 30-09-2018 13:25:00 10.7 C 88 % 8.8 C
3033 30-09-2018 13:30:00 10.9 C 86 % 8.65 C
3034 30-09-2018 13:35:00 11.2 C 85 % 8.77 C
3035 30-09-2018 13:40:00 11.5 C 80 % 8.17 C
3036 30-09-2018 13:45:00 11.9 C 82 % 8.93 C
3037 30-09-2018 13:50:00 12.3 C 81 % 9.14 C
3038 30-09-2018 13:55:00 12.5 C 74 % 8 C
3039 30-09-2018 14:00:00 12.9 C 75 % 8.58 C
3040 30-09-2018 14:05:00 13.3 C 73 % 8.57 C
3041 30-09-2018 14:10:00 13.6 C 69 % 8.03 C
3042 30-09-2018 14:15:00 14.2 C 67 % 8.17 C
3043 30-09-2018 14:20:00 14.7 C 63 % 7.74 C
3044 30-09-2018 14:25:00 15.1 C 60 % 7.4 C
3045 30-09-2018 14:30:00 15.6 C 56 % 6.86 C
3046 30-09-2018 14:35:00 15.9 C 54 % 6.61 C
3047 30-09-2018 14:40:00 16.2 C 57 % 7.68 C
3048 30-09-2018 14:45:00 16.4 C 52 % 6.53 C
3049 30-09-2018 14:50:00 16.6 C 56 % 7.8 C
3050 30-09-2018 14:55:00 16.6 C 51 % 6.43 C
Sensor: Nr:Datum:Temp:Feuchte:Taupunkt:
Aussen-T/F 3051 30-09-2018 15:00:00 16.3 C 50 % 5.87 C
3052 30-09-2018 15:05:00 16.2 C 57 % 7.68 C
3053 30-09-2018 15:10:00 16 C 53 % 6.44 C
3054 30-09-2018 15:15:00 15.9 C 54 % 6.61 C
3055 30-09-2018 15:20:00 15.8 C 55 % 6.79 C
3056 30-09-2018 15:25:00 15.7 C 60 % 7.97 C
3057 30-09-2018 15:30:00 15.6 C 57 % 7.12 C
3058 30-09-2018 15:35:00 15.4 C 52 % 5.61 C
3059 30-09-2018 15:40:00 15.4 C 56 % 6.68 C
3060 30-09-2018 15:45:00 15.5 C 58 % 7.28 C
3061 30-09-2018 15:50:00 15.4 C 58 % 7.19 C
3062 30-09-2018 15:55:00 15.3 C 60 % 7.59 C
3063 30-09-2018 16:00:00 15.3 C 62 % 8.07 C
3064 30-09-2018 16:05:00 15.1 C 62 % 7.88 C
3065 30-09-2018 16:10:00 14.9 C 63 % 7.93 C
3066 30-09-2018 16:15:00 14.8 C 61 % 7.36 C
3067 30-09-2018 16:20:00 14.8 C 62 % 7.6 C
3068 30-09-2018 16:25:00 14.9 C 65 % 8.39 C
3069 30-09-2018 16:30:00 14.9 C 64 % 8.16 C
3070 30-09-2018 16:35:00 14.8 C 63 % 7.83 C
3071 30-09-2018 16:40:00 14.7 C 64 % 7.97 C
3072 30-09-2018 16:45:00 14.7 C 61 % 7.27 C
3073 30-09-2018 16:50:00 14.7 C 63 % 7.74 C
3074 30-09-2018 16:55:00 14.7 C 62 % 7.5 C
3075 30-09-2018 17:00:00 14.7 C 64 % 7.97 C
Sensor: Nr:Datum:Temp:Feuchte:Taupunkt:
Aussen-T/F 3076 30-09-2018 17:05:00 14.7 C 63 % 7.74 C
3077 30-09-2018 17:10:00 14.7 C 64 % 7.97 C
3078 30-09-2018 17:15:00 14.7 C 66 % 8.42 C
3079 30-09-2018 17:20:00 14.8 C 66 % 8.52 C
3080 30-09-2018 17:25:00 14.9 C 67 % 8.83 C
3081 30-09-2018 17:30:00 15.2 C 66 % 8.9 C
3082 30-09-2018 17:35:00 15.6 C 64 % 8.82 C
3083 30-09-2018 17:40:00 15.8 C 64 % 9.01 C
3084 30-09-2018 17:45:00 15.9 C 64 % 9.11 C
3085 30-09-2018 17:50:00 15.9 C 62 % 8.64 C
3086 30-09-2018 17:55:00 15.9 C 63 % 8.87 C
3087 30-09-2018 18:00:00 15.8 C 62 % 8.54 C
3088 30-09-2018 18:05:00 15.7 C 65 % 9.15 C
3089 30-09-2018 18:10:00 15.5 C 65 % 8.96 C
3090 30-09-2018 18:15:00 15.4 C 65 % 8.86 C
3091 30-09-2018 18:20:00 15.3 C 65 % 8.77 C
3092 30-09-2018 18:25:00 15.2 C 64 % 8.44 C
3093 30-09-2018 18:30:00 15 C 65 % 8.48 C
3094 30-09-2018 18:35:00 14.9 C 64 % 8.16 C
3095 30-09-2018 18:40:00 14.7 C 66 % 8.42 C
3096 30-09-2018 18:45:00 14.5 C 67 % 8.45 C
3097 30-09-2018 18:50:00 14.3 C 66 % 8.04 C
3098 30-09-2018 18:55:00 14.2 C 66 % 7.95 C
3099 30-09-2018 19:00:00 13.9 C 65 % 7.44 C
3100 30-09-2018 19:05:00 13.7 C 66 % 7.47 C
Sensor: Nr:Datum:Temp:Feuchte:Taupunkt:
Aussen-T/F 3101 30-09-2018 19:10:00 13.4 C 66 % 7.19 C
3102 30-09-2018 19:15:00 13.2 C 67 % 7.21 C
3103 30-09-2018 19:20:00 12.9 C 68 % 7.14 C
3104 30-09-2018 19:25:00 12.7 C 69 % 7.17 C
3105 30-09-2018 19:30:00 12.5 C 69 % 6.97 C
3106 30-09-2018 19:35:00 12.3 C 70 % 6.99 C
3107 30-09-2018 19:40:00 12.2 C 71 % 7.1 C
3108 30-09-2018 19:45:00 12.1 C 72 % 7.21 C
3109 30-09-2018 19:50:00 11.9 C 71 % 6.82 C
3110 30-09-2018 19:55:00 11.8 C 72 % 6.92 C
3111 30-09-2018 20:00:00 11.8 C 72 % 6.92 C
3112 30-09-2018 20:05:00 11.7 C 72 % 6.83 C
3113 30-09-2018 20:10:00 11.6 C 73 % 6.93 C
3114 30-09-2018 20:15:00 11.6 C 73 % 6.93 C
3115 30-09-2018 20:20:00 11.4 C 73 % 6.74 C
3116 30-09-2018 20:25:00 11.3 C 73 % 6.64 C
3117 30-09-2018 20:30:00 11.2 C 74 % 6.74 C
3118 30-09-2018 20:35:00 11.2 C 73 % 6.55 C
3119 30-09-2018 20:40:00 11.1 C 74 % 6.65 C
3120 30-09-2018 20:45:00 11 C 75 % 6.75 C
3121 30-09-2018 20:50:00 10.9 C 75 % 6.65 C
3122 30-09-2018 20:55:00 10.8 C 75 % 6.55 C
3123 30-09-2018 21:00:00 10.8 C 76 % 6.75 C
3124 30-09-2018 21:05:00 10.8 C 76 % 6.75 C
3125 30-09-2018 21:10:00 10.7 C 77 % 6.84 C
Sensor: Nr:Datum:Temp:Feuchte:Taupunkt:
Aussen-T/F 3126 30-09-2018 21:15:00 10.6 C 78 % 6.93 C
3127 30-09-2018 21:20:00 10.5 C 77 % 6.64 C
3128 30-09-2018 21:25:00 10.4 C 78 % 6.74 C
3129 30-09-2018 21:30:00 10.3 C 78 % 6.64 C
3130 30-09-2018 21:35:00 10.2 C 78 % 6.54 C
3131 30-09-2018 21:40:00 10.1 C 78 % 6.44 C
3132 30-09-2018 21:45:00 9.9 C 78 % 6.25 C
3133 30-09-2018 21:50:00 9.9 C 79 % 6.43 C
3134 30-09-2018 21:55:00 9.8 C 79 % 6.34 C
3135 30-09-2018 22:00:00 9.7 C 80 % 6.42 C
3136 30-09-2018 22:05:00 9.7 C 80 % 6.42 C
3137 30-09-2018 22:10:00 9.7 C 80 % 6.42 C
3138 30-09-2018 22:15:00 9.7 C 80 % 6.42 C
3139 30-09-2018 22:20:00 9.7 C 81 % 6.6 C
3140 30-09-2018 22:25:00 9.7 C 82 % 6.78 C
3141 30-09-2018 22:30:00 9.7 C 82 % 6.78 C
3142 30-09-2018 22:35:00 9.7 C 81 % 6.6 C
3143 30-09-2018 22:40:00 9.6 C 81 % 6.5 C
3144 30-09-2018 22:45:00 9.6 C 81 % 6.5 C
3145 30-09-2018 22:50:00 9.5 C 82 % 6.59 C
3146 30-09-2018 22:55:00 9.4 C 81 % 6.31 C
3147 30-09-2018 23:00:00 9.3 C 82 % 6.39 C
3148 30-09-2018 23:05:00 9.2 C 82 % 6.29 C
3149 30-09-2018 23:10:00 9.1 C 82 % 6.19 C
3150 30-09-2018 23:15:00 8.9 C 82 % 6 C
Sensor: Nr:Datum:Temp:Feuchte:Taupunkt:
Aussen-T/F 3151 30-09-2018 23:20:00 8.8 C 82 % 5.9 C
3152 30-09-2018 23:25:00 8.8 C 82 % 5.9 C
3153 30-09-2018 23:30:00 8.7 C 82 % 5.8 C
3154 30-09-2018 23:35:00 8.7 C 83 % 5.98 C
3155 30-09-2018 23:40:00 8.7 C 83 % 5.98 C
3156 30-09-2018 23:45:00 8.6 C 83 % 5.88 C
3157 30-09-2018 23:50:00 8.5 C 83 % 5.78 C
3158 30-09-2018 23:55:00 8.4 C 83 % 5.69 C
3159 01-10-2018 00:00:00 8.3 C 84 % 5.76 C
3160 01-10-2018 00:05:00 8.2 C 84 % 5.66 C
3161 01-10-2018 00:10:00 8.1 C 85 % 5.73 C
3162 01-10-2018 00:15:00 8.1 C 85 % 5.73 C
3163 01-10-2018 00:20:00 8 C 85 % 5.64 C
3164 01-10-2018 00:25:00 7.9 C 86 % 5.71 C
3165 01-10-2018 00:30:00 7.9 C 86 % 5.71 C
3166 01-10-2018 00:35:00 7.8 C 86 % 5.61 C
3167 01-10-2018 00:40:00 7.8 C 86 % 5.61 C
3168 01-10-2018 00:45:00 7.8 C 86 % 5.61 C
3169 01-10-2018 00:50:00 7.8 C 87 % 5.78 C
3170 01-10-2018 00:55:00 7.8 C 87 % 5.78 C
3171 01-10-2018 01:00:00 7.8 C 87 % 5.78 C
3172 01-10-2018 01:05:00 7.8 C 87 % 5.78 C
3173 01-10-2018 01:10:00 7.7 C 87 % 5.68 C
3174 01-10-2018 01:15:00 7.7 C 87 % 5.68 C
3175 01-10-2018 01:20:00 7.7 C 87 % 5.68 C
Sensor: Nr:Datum:Temp:Feuchte:Taupunkt:
Aussen-T/F 3176 01-10-2018 01:25:00 7.6 C 87 % 5.58 C
3177 01-10-2018 01:30:00 7.6 C 88 % 5.74 C
3178 01-10-2018 01:35:00 7.6 C 88 % 5.74 C
3179 01-10-2018 01:40:00 7.4 C 88 % 5.55 C
3180 01-10-2018 01:45:00 7.4 C 88 % 5.55 C
3181 01-10-2018 01:50:00 7.3 C 88 % 5.45 C
3182 01-10-2018 01:55:00 7.3 C 89 % 5.61 C
3183 01-10-2018 02:00:00 7.3 C 89 % 5.61 C
3184 01-10-2018 02:05:00 7.3 C 89 % 5.61 C
3185 01-10-2018 02:10:00 7.3 C 89 % 5.61 C
3186 01-10-2018 02:15:00 7.3 C 89 % 5.61 C
3187 01-10-2018 02:20:00 7.3 C 89 % 5.61 C
3188 01-10-2018 02:25:00 7.3 C 89 % 5.61 C
3189 01-10-2018 02:30:00 7.3 C 90 % 5.77 C
3190 01-10-2018 02:35:00 7.3 C 90 % 5.77 C
3191 01-10-2018 02:40:00 7.2 C 90 % 5.67 C
3192 01-10-2018 02:45:00 7.2 C 90 % 5.67 C
3193 01-10-2018 02:50:00 7.3 C 90 % 5.77 C
3194 01-10-2018 02:55:00 7.3 C 90 % 5.77 C
3195 01-10-2018 03:00:00 7.3 C 90 % 5.77 C
3196 01-10-2018 03:05:00 7.3 C 91 % 5.93 C
3197 01-10-2018 03:10:00 7.3 C 91 % 5.93 C
3198 01-10-2018 03:15:00 7.4 C 91 % 6.03 C
3199 01-10-2018 03:20:00 7.4 C 91 % 6.03 C
3200 01-10-2018 03:25:00 7.4 C 91 % 6.03 C
Sensor: Nr:Datum:Temp:Feuchte:Taupunkt:
Aussen-T/F 3201 01-10-2018 03:30:00 7.4 C 91 % 6.03 C
3202 01-10-2018 03:35:00 7.4 C 91 % 6.03 C
3203 01-10-2018 03:40:00 7.4 C 91 % 6.03 C
3204 01-10-2018 03:45:00 7.4 C 91 % 6.03 C
3205 01-10-2018 03:50:00 7.3 C 91 % 5.93 C
3206 01-10-2018 03:55:00 7.3 C 90 % 5.77 C
3207 01-10-2018 04:00:00 7.3 C 91 % 5.93 C
3208 01-10-2018 04:05:00 7.2 C 91 % 5.83 C
3209 01-10-2018 04:10:00 7.2 C 91 % 5.83 C
3210 01-10-2018 04:15:00 7.3 C 91 % 5.93 C
3211 01-10-2018 04:20:00 7.3 C 91 % 5.93 C
3212 01-10-2018 04:25:00 7.3 C 91 % 5.93 C
3213 01-10-2018 04:30:00 7.3 C 91 % 5.93 C
3214 01-10-2018 04:35:00 7.3 C 91 % 5.93 C
3215 01-10-2018 04:40:00 7.3 C 92 % 6.09 C
3216 01-10-2018 04:45:00 7.3 C 92 % 6.09 C
3217 01-10-2018 04:50:00 7.4 C 92 % 6.19 C
3218 01-10-2018 04:55:00 7.4 C 92 % 6.19 C
3219 01-10-2018 05:00:00 7.5 C 92 % 6.29 C
3220 01-10-2018 05:05:00 7.6 C 92 % 6.39 C
3221 01-10-2018 05:10:00 7.7 C 92 % 6.48 C
3222 01-10-2018 05:15:00 7.8 C 92 % 6.58 C
3223 01-10-2018 05:20:00 7.8 C 92 % 6.58 C
3224 01-10-2018 05:25:00 7.9 C 92 % 6.68 C
3225 01-10-2018 05:30:00 7.9 C 92 % 6.68 C
Sensor: Nr:Datum:Temp:Feuchte:Taupunkt:
Aussen-T/F 3226 01-10-2018 05:35:00 7.9 C 92 % 6.68 C
3227 01-10-2018 05:40:00 7.9 C 92 % 6.68 C
3228 01-10-2018 05:45:00 8 C 92 % 6.78 C
3229 01-10-2018 05:50:00 8 C 92 % 6.78 C
3230 01-10-2018 05:55:00 8 C 92 % 6.78 C
3231 01-10-2018 06:00:00 8.1 C 92 % 6.88 C
3232 01-10-2018 06:05:00 8.1 C 92 % 6.88 C
3233 01-10-2018 06:10:00 8.2 C 92 % 6.98 C
3234 01-10-2018 06:15:00 8.2 C 92 % 6.98 C
3235 01-10-2018 06:20:00 8.2 C 92 % 6.98 C
3236 01-10-2018 06:25:00 8.2 C 92 % 6.98 C
3237 01-10-2018 06:30:00 8.3 C 92 % 7.08 C
3238 01-10-2018 06:35:00 8.3 C 92 % 7.08 C
3239 01-10-2018 06:40:00 8.3 C 92 % 7.08 C
3240 01-10-2018 06:45:00 8.3 C 92 % 7.08 C
3241 01-10-2018 06:50:00 8.3 C 92 % 7.08 C
3242 01-10-2018 06:55:00 8.3 C 92 % 7.08 C
3243 01-10-2018 07:00:00 8.4 C 92 % 7.18 C
3244 01-10-2018 07:05:00 8.5 C 92 % 7.28 C
3245 01-10-2018 07:10:00 8.5 C 92 % 7.28 C
3246 01-10-2018 07:15:00 8.6 C 92 % 7.38 C
3247 01-10-2018 07:20:00 8.6 C 92 % 7.38 C
3248 01-10-2018 07:25:00 8.6 C 92 % 7.38 C
3249 01-10-2018 07:30:00 8.6 C 92 % 7.38 C
3250 01-10-2018 07:35:00 8.5 C 91 % 7.12 C
Sensor: Nr:Datum:Temp:Feuchte:Taupunkt:
Aussen-T/F 3251 01-10-2018 07:40:00 8.4 C 91 % 7.02 C
3252 01-10-2018 07:45:00 8.4 C 91 % 7.02 C
3253 01-10-2018 07:50:00 8.4 C 92 % 7.18 C
3254 01-10-2018 07:55:00 8.4 C 92 % 7.18 C
3255 01-10-2018 08:00:00 8.4 C 92 % 7.18 C
3256 01-10-2018 08:05:00 8.4 C 92 % 7.18 C
3257 01-10-2018 08:10:00 8.4 C 92 % 7.18 C
3258 01-10-2018 08:15:00 8.5 C 92 % 7.28 C
3259 01-10-2018 08:20:00 8.5 C 92 % 7.28 C
3260 01-10-2018 08:25:00 8.5 C 92 % 7.28 C
3261 01-10-2018 08:30:00 8.5 C 92 % 7.28 C
3262 01-10-2018 08:35:00 8.7 C 92 % 7.47 C
3263 01-10-2018 08:40:00 8.8 C 92 % 7.57 C
3264 01-10-2018 08:45:00 8.9 C 92 % 7.67 C
3265 01-10-2018 08:50:00 9 C 92 % 7.77 C
3266 01-10-2018 08:55:00 9.1 C 92 % 7.87 C
3267 01-10-2018 09:00:00 9.2 C 92 % 7.97 C
3268 01-10-2018 09:05:00 9.3 C 92 % 8.07 C
3269 01-10-2018 09:10:00 9.4 C 92 % 8.17 C
3270 01-10-2018 09:15:00 9.5 C 92 % 8.27 C
3271 01-10-2018 09:20:00 9.6 C 91 % 8.21 C
3272 01-10-2018 09:25:00 9.7 C 91 % 8.3 C
3273 01-10-2018 09:30:00 9.8 C 91 % 8.4 C
3274 01-10-2018 09:35:00 9.8 C 91 % 8.4 C
3275 01-10-2018 09:40:00 9.9 C 90 % 8.34 C
Sensor: Nr:Datum:Temp:Feuchte:Taupunkt:
Aussen-T/F 3276 01-10-2018 09:45:00 10.1 C 89 % 8.37 C
3277 01-10-2018 09:50:00 10.2 C 89 % 8.47 C
3278 01-10-2018 09:55:00 10.3 C 89 % 8.57 C
3279 01-10-2018 10:00:00 10.4 C 88 % 8.5 C
3280 01-10-2018 10:05:00 10.6 C 87 % 8.53 C
3281 01-10-2018 10:10:00 10.7 C 86 % 8.46 C
3282 01-10-2018 10:15:00 10.8 C 85 % 8.38 C
3283 01-10-2018 10:20:00 10.8 C 85 % 8.38 C
3284 01-10-2018 10:25:00 10.9 C 85 % 8.48 C
3285 01-10-2018 10:30:00 11.1 C 85 % 8.68 C
3286 01-10-2018 10:35:00 11.2 C 84 % 8.6 C
3287 01-10-2018 10:40:00 11.3 C 82 % 8.34 C
3288 01-10-2018 10:45:00 11.3 C 82 % 8.34 C
3289 01-10-2018 10:50:00 11.4 C 82 % 8.44 C
3290 01-10-2018 10:55:00 11.4 C 81 % 8.26 C
3291 01-10-2018 11:00:00 11.5 C 80 % 8.17 C
3292 01-10-2018 11:05:00 11.6 C 80 % 8.27 C
3293 01-10-2018 11:10:00 11.7 C 79 % 8.18 C
3294 01-10-2018 11:15:00 11.8 C 79 % 8.28 C
3295 01-10-2018 11:20:00 11.9 C 79 % 8.38 C
3296 01-10-2018 11:25:00 12 C 79 % 8.48 C
3297 01-10-2018 11:30:00 12.1 C 77 % 8.2 C
3298 01-10-2018 11:35:00 12.1 C 75 % 7.81 C
3299 01-10-2018 11:40:00 12.1 C 74 % 7.61 C
3300 01-10-2018 11:45:00 12 C 75 % 7.71 C
Sensor: Nr:Datum:Temp:Feuchte:Taupunkt:
Aussen-T/F 3301 01-10-2018 11:50:00 12 C 75 % 7.71 C
3302 01-10-2018 11:55:00 12.2 C 76 % 8.1 C
3303 01-10-2018 12:00:00 12.4 C 74 % 7.9 C
3304 01-10-2018 12:05:00 12.7 C 70 % 7.38 C
3305 01-10-2018 12:10:00 12.8 C 70 % 7.47 C
3306 01-10-2018 12:15:00 12.8 C 68 % 7.05 C
3307 01-10-2018 12:20:00 12.9 C 69 % 7.36 C
3308 01-10-2018 12:25:00 13 C 69 % 7.45 C
3309 01-10-2018 12:30:00 12.9 C 69 % 7.36 C
3310 01-10-2018 12:35:00 12.8 C 70 % 7.47 C
3311 01-10-2018 12:40:00 12.8 C 72 % 7.88 C
3312 01-10-2018 12:45:00 12.7 C 72 % 7.79 C
3313 01-10-2018 12:50:00 12.7 C 72 % 7.79 C
3314 01-10-2018 12:55:00 12.6 C 72 % 7.69 C
3315 01-10-2018 13:00:00 12.8 C 72 % 7.88 C
3316 01-10-2018 13:05:00 12.9 C 70 % 7.57 C
3317 01-10-2018 13:10:00 12.8 C 69 % 7.26 C
3318 01-10-2018 13:15:00 12.7 C 71 % 7.58 C
3319 01-10-2018 13:20:00 12.7 C 71 % 7.58 C
3320 01-10-2018 13:25:00 12.7 C 70 % 7.38 C
3321 01-10-2018 13:30:00 12.7 C 69 % 7.17 C
3322 01-10-2018 13:35:00 12.8 C 70 % 7.47 C
3323 01-10-2018 13:40:00 12.9 C 70 % 7.57 C
3324 01-10-2018 13:45:00 13 C 66 % 6.8 C
3325 01-10-2018 13:50:00 13.2 C 66 % 7 C
Sensor: Nr:Datum:Temp:Feuchte:Taupunkt:
Aussen-T/F 3326 01-10-2018 13:55:00 13.4 C 65 % 6.96 C
3327 01-10-2018 14:00:00 13.7 C 62 % 6.56 C
3328 01-10-2018 14:05:00 13.8 C 60 % 6.18 C
3329 01-10-2018 14:10:00 13.8 C 61 % 6.42 C
3330 01-10-2018 14:15:00 14 C 60 % 6.37 C
3331 01-10-2018 14:20:00 14.1 C 60 % 6.46 C
3332 01-10-2018 14:25:00 14 C 62 % 6.84 C
3333 01-10-2018 14:30:00 13.3 C 70 % 7.95 C
3334 01-10-2018 14:35:00 12.6 C 75 % 8.29 C
3335 01-10-2018 14:40:00 11.9 C 77 % 8 C
3336 01-10-2018 14:45:00 11.6 C 77 % 7.71 C
3337 01-10-2018 14:50:00 11.6 C 78 % 7.9 C
3338 01-10-2018 14:55:00 11.8 C 79 % 8.28 C
3339 01-10-2018 15:00:00 12 C 75 % 7.71 C
3340 01-10-2018 15:05:00 12.3 C 72 % 7.4 C
3341 01-10-2018 15:10:00 12.6 C 72 % 7.69 C
3342 01-10-2018 15:15:00 12.7 C 71 % 7.58 C
3343 01-10-2018 15:20:00 12.8 C 70 % 7.47 C
3344 01-10-2018 15:25:00 12.7 C 69 % 7.17 C
3345 01-10-2018 15:30:00 12.7 C 69 % 7.17 C
3346 01-10-2018 15:35:00 12.8 C 69 % 7.26 C
3347 01-10-2018 15:40:00 12.8 C 71 % 7.68 C
3348 01-10-2018 15:45:00 12.6 C 70 % 7.28 C
3349 01-10-2018 15:50:00 12.4 C 72 % 7.5 C
3350 01-10-2018 15:55:00 12.2 C 72 % 7.31 C
Sensor: Nr:Datum:Temp:Feuchte:Taupunkt:
Aussen-T/F 3351 01-10-2018 16:00:00 11.9 C 72 % 7.02 C
3352 01-10-2018 16:05:00 11.7 C 73 % 7.03 C
3353 01-10-2018 16:10:00 11.6 C 73 % 6.93 C
3354 01-10-2018 16:15:00 11.5 C 74 % 7.03 C
3355 01-10-2018 16:20:00 11.5 C 73 % 6.84 C
3356 01-10-2018 16:25:00 11.4 C 72 % 6.54 C
3357 01-10-2018 16:30:00 11.4 C 72 % 6.54 C
3358 01-10-2018 16:35:00 11.4 C 73 % 6.74 C
3359 01-10-2018 16:40:00 11.6 C 72 % 6.73 C
3360 01-10-2018 16:45:00 11.6 C 71 % 6.53 C
3361 01-10-2018 16:50:00 11.7 C 72 % 6.83 C
3362 01-10-2018 16:55:00 11.6 C 72 % 6.73 C
3363 01-10-2018 17:00:00 11.6 C 72 % 6.73 C
3364 01-10-2018 17:05:00 11.6 C 73 % 6.93 C
3365 01-10-2018 17:10:00 11.4 C 70 % 6.13 C
3366 01-10-2018 17:15:00 11.4 C 71 % 6.34 C
3367 01-10-2018 17:20:00 11.3 C 71 % 6.24 C
3368 01-10-2018 17:25:00 11.3 C 70 % 6.03 C
3369 01-10-2018 17:30:00 11.2 C 70 % 5.94 C
3370 01-10-2018 17:35:00 11.1 C 71 % 6.05 C
3371 01-10-2018 17:40:00 11 C 71 % 5.95 C
3372 01-10-2018 17:45:00 10.9 C 71 % 5.86 C
3373 01-10-2018 17:50:00 10.8 C 72 % 5.96 C
3374 01-10-2018 17:55:00 10.7 C 72 % 5.87 C
3375 01-10-2018 18:00:00 10.6 C 73 % 5.97 C
Sensor: Nr:Datum:Temp:Feuchte:Taupunkt:
Aussen-T/F 3376 01-10-2018 18:05:00 10.6 C 69 % 5.16 C
3377 01-10-2018 18:10:00 10.6 C 69 % 5.16 C
3378 01-10-2018 18:15:00 10.9 C 72 % 6.06 C
3379 01-10-2018 18:20:00 11.2 C 70 % 5.94 C
3380 01-10-2018 18:25:00 11.3 C 68 % 5.62 C
3381 01-10-2018 18:30:00 11.4 C 70 % 6.13 C
3382 01-10-2018 18:35:00 11.4 C 71 % 6.34 C
3383 01-10-2018 18:40:00 11.3 C 72 % 6.44 C
3384 01-10-2018 18:45:00 11.1 C 73 % 6.45 C
3385 01-10-2018 18:50:00 10.9 C 74 % 6.45 C
3386 01-10-2018 18:55:00 10.7 C 75 % 6.46 C
3387 01-10-2018 19:00:00 10.5 C 76 % 6.45 C
3388 01-10-2018 19:05:00 10.3 C 77 % 6.45 C
3389 01-10-2018 19:10:00 10.1 C 78 % 6.44 C
3390 01-10-2018 19:15:00 9.9 C 78 % 6.25 C
3391 01-10-2018 19:20:00 9.8 C 79 % 6.34 C
3392 01-10-2018 19:25:00 9.8 C 77 % 5.97 C
3393 01-10-2018 19:30:00 9.8 C 76 % 5.78 C
3394 01-10-2018 19:35:00 9.9 C 77 % 6.06 C
3395 01-10-2018 19:40:00 9.8 C 77 % 5.97 C
3396 01-10-2018 19:45:00 9.8 C 77 % 5.97 C
3397 01-10-2018 19:50:00 9.8 C 76 % 5.78 C
3398 01-10-2018 19:55:00 9.8 C 76 % 5.78 C
3399 01-10-2018 20:00:00 9.8 C 75 % 5.59 C
3400 01-10-2018 20:05:00 9.9 C 74 % 5.49 C
Sensor: Nr:Datum:Temp:Feuchte:Taupunkt:
Aussen-T/F 3401 01-10-2018 20:10:00 9.9 C 73 % 5.29 C
3402 01-10-2018 20:15:00 9.9 C 73 % 5.29 C
3403 01-10-2018 20:20:00 9.9 C 73 % 5.29 C
3404 01-10-2018 20:25:00 9.8 C 73 % 5.2 C
3405 01-10-2018 20:30:00 9.8 C 73 % 5.2 C
3406 01-10-2018 20:35:00 9.8 C 74 % 5.39 C
3407 01-10-2018 20:40:00 9.8 C 74 % 5.39 C
3408 01-10-2018 20:45:00 9.8 C 74 % 5.39 C
3409 01-10-2018 20:50:00 9.8 C 74 % 5.39 C
3410 01-10-2018 20:55:00 9.8 C 75 % 5.59 C
3411 01-10-2018 21:00:00 9.8 C 75 % 5.59 C
3412 01-10-2018 21:05:00 9.8 C 76 % 5.78 C
3413 01-10-2018 21:10:00 9.7 C 76 % 5.68 C
3414 01-10-2018 21:15:00 9.7 C 76 % 5.68 C
3415 01-10-2018 21:20:00 9.6 C 76 % 5.58 C
3416 01-10-2018 21:25:00 9.6 C 76 % 5.58 C
3417 01-10-2018 21:30:00 9.4 C 76 % 5.39 C
3418 01-10-2018 21:35:00 9.4 C 76 % 5.39 C
3419 01-10-2018 21:40:00 9.3 C 76 % 5.29 C
3420 01-10-2018 21:45:00 9.2 C 76 % 5.2 C
3421 01-10-2018 21:50:00 9.1 C 77 % 5.29 C
3422 01-10-2018 21:55:00 8.9 C 77 % 5.09 C
3423 01-10-2018 22:00:00 8.8 C 78 % 5.18 C
3424 01-10-2018 22:05:00 8.8 C 78 % 5.18 C
3425 01-10-2018 22:10:00 8.8 C 79 % 5.36 C
Sensor: Nr:Datum:Temp:Feuchte:Taupunkt:
Aussen-T/F 3426 01-10-2018 22:15:00 8.7 C 79 % 5.27 C
3427 01-10-2018 22:20:00 8.7 C 80 % 5.45 C
3428 01-10-2018 22:25:00 8.6 C 80 % 5.35 C
3429 01-10-2018 22:30:00 8.5 C 80 % 5.25 C
3430 01-10-2018 22:35:00 8.3 C 80 % 5.06 C
3431 01-10-2018 22:40:00 8.2 C 81 % 5.14 C
3432 01-10-2018 22:45:00 8.1 C 82 % 5.22 C
3433 01-10-2018 22:50:00 8 C 82 % 5.12 C
3434 01-10-2018 22:55:00 7.9 C 82 % 5.02 C
3435 01-10-2018 23:00:00 7.8 C 83 % 5.1 C
3436 01-10-2018 23:05:00 7.8 C 83 % 5.1 C
3437 01-10-2018 23:10:00 7.7 C 83 % 5 C
3438 01-10-2018 23:15:00 7.5 C 83 % 4.81 C
3439 01-10-2018 23:20:00 7.3 C 84 % 4.78 C
3440 01-10-2018 23:25:00 7.2 C 84 % 4.68 C
3441 01-10-2018 23:30:00 7.1 C 85 % 4.75 C
3442 01-10-2018 23:35:00 7 C 86 % 4.82 C
3443 01-10-2018 23:40:00 6.9 C 86 % 4.72 C
3444 01-10-2018 23:45:00 6.9 C 86 % 4.72 C
3445 01-10-2018 23:50:00 6.8 C 87 % 4.79 C
3446 01-10-2018 23:55:00 6.8 C 87 % 4.79 C
3447 02-10-2018 00:00:00 6.8 C 87 % 4.79 C
3448 02-10-2018 00:05:00 6.8 C 87 % 4.79 C
3449 02-10-2018 00:10:00 6.8 C 87 % 4.79 C
3450 02-10-2018 00:15:00 6.8 C 87 % 4.79 C
Sensor: Nr:Datum:Temp:Feuchte:Taupunkt:
Aussen-T/F 3451 02-10-2018 00:20:00 6.8 C 87 % 4.79 C
3452 02-10-2018 00:25:00 6.9 C 88 % 5.05 C
3453 02-10-2018 00:30:00 7 C 87 % 4.99 C
3454 02-10-2018 00:35:00 7.1 C 87 % 5.09 C
3455 02-10-2018 00:40:00 7.1 C 87 % 5.09 C
3456 02-10-2018 00:45:00 7.2 C 87 % 5.19 C
3457 02-10-2018 00:50:00 7.2 C 87 % 5.19 C
3458 02-10-2018 00:55:00 7.2 C 87 % 5.19 C
3459 02-10-2018 01:00:00 7.2 C 87 % 5.19 C
3460 02-10-2018 01:05:00 7.2 C 87 % 5.19 C
3461 02-10-2018 01:10:00 7.2 C 87 % 5.19 C
3462 02-10-2018 01:15:00 7.2 C 87 % 5.19 C
3463 02-10-2018 01:20:00 7.2 C 87 % 5.19 C
3464 02-10-2018 01:25:00 7.3 C 87 % 5.28 C
3465 02-10-2018 01:30:00 7.3 C 87 % 5.28 C
3466 02-10-2018 01:35:00 7.3 C 87 % 5.28 C
3467 02-10-2018 01:40:00 7.3 C 87 % 5.28 C
3468 02-10-2018 01:45:00 7.3 C 87 % 5.28 C
3469 02-10-2018 01:50:00 7.3 C 87 % 5.28 C
3470 02-10-2018 01:55:00 7.3 C 86 % 5.12 C
3471 02-10-2018 02:00:00 7.4 C 86 % 5.22 C
3472 02-10-2018 02:05:00 7.5 C 86 % 5.31 C
3473 02-10-2018 02:10:00 7.6 C 86 % 5.41 C
3474 02-10-2018 02:15:00 7.6 C 86 % 5.41 C
3475 02-10-2018 02:20:00 7.7 C 87 % 5.68 C
Sensor: Nr:Datum:Temp:Feuchte:Taupunkt:
Aussen-T/F 3476 02-10-2018 02:25:00 7.7 C 87 % 5.68 C
3477 02-10-2018 02:30:00 7.7 C 87 % 5.68 C
3478 02-10-2018 02:35:00 7.7 C 87 % 5.68 C
3479 02-10-2018 02:40:00 7.7 C 87 % 5.68 C
3480 02-10-2018 02:45:00 7.7 C 87 % 5.68 C
3481 02-10-2018 02:50:00 7.7 C 88 % 5.84 C
3482 02-10-2018 02:55:00 7.7 C 88 % 5.84 C
3483 02-10-2018 03:00:00 7.7 C 87 % 5.68 C
3484 02-10-2018 03:05:00 7.6 C 87 % 5.58 C
3485 02-10-2018 03:10:00 7.6 C 87 % 5.58 C
3486 02-10-2018 03:15:00 7.6 C 87 % 5.58 C
3487 02-10-2018 03:20:00 7.6 C 87 % 5.58 C
3488 02-10-2018 03:25:00 7.6 C 87 % 5.58 C
3489 02-10-2018 03:30:00 7.6 C 87 % 5.58 C
3490 02-10-2018 03:35:00 7.6 C 87 % 5.58 C
3491 02-10-2018 03:40:00 7.6 C 87 % 5.58 C
3492 02-10-2018 03:45:00 7.6 C 86 % 5.41 C
3493 02-10-2018 03:50:00 7.7 C 86 % 5.51 C
3494 02-10-2018 03:55:00 7.7 C 86 % 5.51 C
3495 02-10-2018 04:00:00 7.7 C 86 % 5.51 C
3496 02-10-2018 04:05:00 7.7 C 85 % 5.34 C
3497 02-10-2018 04:10:00 7.8 C 85 % 5.44 C
3498 02-10-2018 04:15:00 7.7 C 85 % 5.34 C
3499 02-10-2018 04:20:00 7.8 C 85 % 5.44 C
3500 02-10-2018 04:25:00 7.7 C 85 % 5.34 C
Sensor: Nr:Datum:Temp:Feuchte:Taupunkt:
Aussen-T/F 3501 02-10-2018 04:30:00 7.7 C 85 % 5.34 C
3502 02-10-2018 04:35:00 7.7 C 85 % 5.34 C
3503 02-10-2018 04:40:00 7.8 C 85 % 5.44 C
3504 02-10-2018 04:45:00 7.8 C 85 % 5.44 C
3505 02-10-2018 04:50:00 7.8 C 85 % 5.44 C
3506 02-10-2018 04:55:00 7.8 C 85 % 5.44 C
3507 02-10-2018 05:00:00 7.8 C 85 % 5.44 C
3508 02-10-2018 05:05:00 7.8 C 85 % 5.44 C
3509 02-10-2018 05:10:00 7.7 C 85 % 5.34 C
3510 02-10-2018 05:15:00 7.7 C 85 % 5.34 C
3511 02-10-2018 05:20:00 7.7 C 85 % 5.34 C
3512 02-10-2018 05:25:00 7.7 C 85 % 5.34 C
3513 02-10-2018 05:30:00 7.7 C 85 % 5.34 C
3514 02-10-2018 05:35:00 7.7 C 85 % 5.34 C
3515 02-10-2018 05:40:00 7.7 C 85 % 5.34 C
3516 02-10-2018 05:45:00 7.7 C 85 % 5.34 C
3517 02-10-2018 05:50:00 7.7 C 85 % 5.34 C
3518 02-10-2018 05:55:00 7.7 C 85 % 5.34 C
3519 02-10-2018 06:00:00 7.7 C 85 % 5.34 C
3520 02-10-2018 06:05:00 7.7 C 85 % 5.34 C
3521 02-10-2018 06:10:00 7.7 C 85 % 5.34 C
3522 02-10-2018 06:15:00 7.7 C 85 % 5.34 C
3523 02-10-2018 06:20:00 7.7 C 85 % 5.34 C
3524 02-10-2018 06:25:00 7.8 C 85 % 5.44 C
3525 02-10-2018 06:30:00 7.8 C 85 % 5.44 C
Sensor: Nr:Datum:Temp:Feuchte:Taupunkt:
Aussen-T/F 3526 02-10-2018 06:35:00 7.8 C 85 % 5.44 C
3527 02-10-2018 06:40:00 7.8 C 85 % 5.44 C
3528 02-10-2018 06:45:00 7.8 C 85 % 5.44 C
3529 02-10-2018 06:50:00 7.8 C 85 % 5.44 C
3530 02-10-2018 06:55:00 7.8 C 85 % 5.44 C
3531 02-10-2018 07:00:00 7.8 C 85 % 5.44 C
3532 02-10-2018 07:05:00 7.8 C 85 % 5.44 C
3533 02-10-2018 07:10:00 7.8 C 85 % 5.44 C
3534 02-10-2018 07:15:00 7.8 C 85 % 5.44 C
3535 02-10-2018 07:20:00 7.8 C 85 % 5.44 C
3536 02-10-2018 07:25:00 7.8 C 85 % 5.44 C
3537 02-10-2018 07:30:00 7.8 C 85 % 5.44 C
3538 02-10-2018 07:35:00 7.9 C 85 % 5.54 C
3539 02-10-2018 07:40:00 7.9 C 85 % 5.54 C
3540 02-10-2018 07:45:00 7.9 C 85 % 5.54 C
3541 02-10-2018 07:50:00 8 C 85 % 5.64 C
3542 02-10-2018 07:55:00 8.1 C 85 % 5.73 C
3543 02-10-2018 08:00:00 8.1 C 84 % 5.56 C
3544 02-10-2018 08:05:00 8.2 C 84 % 5.66 C
3545 02-10-2018 08:10:00 8.2 C 84 % 5.66 C
3546 02-10-2018 08:15:00 8.2 C 84 % 5.66 C
3547 02-10-2018 08:20:00 8.2 C 83 % 5.49 C
3548 02-10-2018 08:25:00 8.3 C 83 % 5.59 C
3549 02-10-2018 08:30:00 8.3 C 83 % 5.59 C
3550 02-10-2018 08:35:00 8.4 C 83 % 5.69 C
Sensor: Nr:Datum:Temp:Feuchte:Taupunkt:
Aussen-T/F 3551 02-10-2018 08:40:00 8.4 C 83 % 5.69 C
3552 02-10-2018 08:45:00 8.4 C 83 % 5.69 C
3553 02-10-2018 08:50:00 8.5 C 83 % 5.78 C
3554 02-10-2018 08:55:00 8.6 C 82 % 5.71 C
3555 02-10-2018 09:00:00 8.7 C 82 % 5.8 C
3556 02-10-2018 09:05:00 8.7 C 82 % 5.8 C
3557 02-10-2018 09:10:00 8.7 C 82 % 5.8 C
3558 02-10-2018 09:15:00 8.7 C 81 % 5.63 C
3559 02-10-2018 09:20:00 8.8 C 80 % 5.55 C
3560 02-10-2018 09:25:00 8.8 C 80 % 5.55 C
3561 02-10-2018 09:30:00 8.8 C 80 % 5.55 C
3562 02-10-2018 09:35:00 8.8 C 80 % 5.55 C
3563 02-10-2018 09:40:00 8.8 C 81 % 5.72 C
3564 02-10-2018 09:45:00 8.9 C 81 % 5.82 C
3565 02-10-2018 09:50:00 8.9 C 81 % 5.82 C
3566 02-10-2018 09:55:00 8.9 C 82 % 6 C
3567 02-10-2018 10:00:00 8.8 C 83 % 6.08 C
3568 02-10-2018 10:05:00 8.7 C 83 % 5.98 C
3569 02-10-2018 10:10:00 8.7 C 83 % 5.98 C
3570 02-10-2018 10:15:00 8.7 C 83 % 5.98 C
3571 02-10-2018 10:20:00 8.8 C 84 % 6.25 C
3572 02-10-2018 10:25:00 8.8 C 85 % 6.42 C
3573 02-10-2018 10:30:00 8.8 C 86 % 6.59 C
3574 02-10-2018 10:35:00 8.7 C 87 % 6.66 C
3575 02-10-2018 10:40:00 8.7 C 87 % 6.66 C
Sensor: Nr:Datum:Temp:Feuchte:Taupunkt:
Aussen-T/F 3576 02-10-2018 10:45:00 8.6 C 88 % 6.73 C
3577 02-10-2018 10:50:00 8.6 C 88 % 6.73 C
3578 02-10-2018 10:55:00 8.5 C 88 % 6.63 C
3579 02-10-2018 11:00:00 8.4 C 88 % 6.53 C
3580 02-10-2018 11:05:00 8.4 C 87 % 6.37 C
3581 02-10-2018 11:10:00 8.4 C 88 % 6.53 C
3582 02-10-2018 11:15:00 8.4 C 88 % 6.53 C
3583 02-10-2018 11:20:00 8.5 C 89 % 6.79 C
3584 02-10-2018 11:25:00 8.6 C 89 % 6.89 C
3585 02-10-2018 11:30:00 8.6 C 88 % 6.73 C
3586 02-10-2018 11:35:00 8.6 C 88 % 6.73 C
3587 02-10-2018 11:40:00 8.6 C 88 % 6.73 C
3588 02-10-2018 11:45:00 8.6 C 88 % 6.73 C
3589 02-10-2018 11:50:00 8.6 C 88 % 6.73 C
3590 02-10-2018 11:55:00 8.7 C 88 % 6.83 C
3591 02-10-2018 12:00:00 8.7 C 88 % 6.83 C
3592 02-10-2018 12:05:00 8.7 C 87 % 6.66 C
3593 02-10-2018 12:10:00 8.7 C 87 % 6.66 C
3594 02-10-2018 12:15:00 8.7 C 88 % 6.83 C
3595 02-10-2018 12:20:00 8.7 C 88 % 6.83 C
3596 02-10-2018 12:25:00 8.7 C 88 % 6.83 C
3597 02-10-2018 12:30:00 8.8 C 87 % 6.76 C
3598 02-10-2018 12:35:00 8.8 C 88 % 6.93 C
3599 02-10-2018 12:40:00 8.8 C 89 % 7.09 C
3600 02-10-2018 12:45:00 8.8 C 89 % 7.09 C
Sensor: Nr:Datum:Temp:Feuchte:Taupunkt:
Aussen-T/F 3601 02-10-2018 12:50:00 8.8 C 90 % 7.25 C
3602 02-10-2018 12:55:00 8.8 C 90 % 7.25 C
3603 02-10-2018 13:00:00 8.8 C 91 % 7.41 C
3604 02-10-2018 13:05:00 8.8 C 91 % 7.41 C
3605 02-10-2018 13:10:00 8.7 C 90 % 7.15 C
3606 02-10-2018 13:15:00 8.7 C 91 % 7.32 C
3607 02-10-2018 13:20:00 8.7 C 91 % 7.32 C
3608 02-10-2018 13:25:00 8.7 C 91 % 7.32 C
3609 02-10-2018 13:30:00 8.7 C 91 % 7.32 C
3610 02-10-2018 13:35:00 8.7 C 91 % 7.32 C
3611 02-10-2018 13:40:00 8.7 C 91 % 7.32 C
3612 02-10-2018 13:45:00 8.8 C 91 % 7.41 C
3613 02-10-2018 13:50:00 8.9 C 91 % 7.51 C
3614 02-10-2018 13:55:00 8.9 C 91 % 7.51 C
3615 02-10-2018 14:00:00 8.9 C 91 % 7.51 C
3616 02-10-2018 14:05:00 9 C 91 % 7.61 C
3617 02-10-2018 14:10:00 9.1 C 91 % 7.71 C
3618 02-10-2018 14:15:00 9.2 C 91 % 7.81 C
3619 02-10-2018 14:20:00 9.2 C 91 % 7.81 C
3620 02-10-2018 14:25:00 9.2 C 90 % 7.65 C
3621 02-10-2018 14:30:00 9.3 C 90 % 7.75 C
3622 02-10-2018 14:35:00 9.3 C 90 % 7.75 C
3623 02-10-2018 14:40:00 9.3 C 90 % 7.75 C
3624 02-10-2018 14:45:00 9.4 C 90 % 7.85 C
3625 02-10-2018 14:50:00 9.4 C 90 % 7.85 C
Sensor: Nr:Datum:Temp:Feuchte:Taupunkt:
Aussen-T/F 3626 02-10-2018 14:55:00 9.6 C 90 % 8.04 C
3627 02-10-2018 15:00:00 9.6 C 90 % 8.04 C
3628 02-10-2018 15:05:00 9.6 C 90 % 8.04 C
3629 02-10-2018 15:10:00 9.7 C 90 % 8.14 C
3630 02-10-2018 15:15:00 9.7 C 90 % 8.14 C
3631 02-10-2018 15:20:00 9.7 C 90 % 8.14 C
3632 02-10-2018 15:25:00 9.7 C 90 % 8.14 C
3633 02-10-2018 15:30:00 9.7 C 90 % 8.14 C
3634 02-10-2018 15:35:00 9.8 C 89 % 8.08 C
3635 02-10-2018 15:40:00 9.8 C 89 % 8.08 C
3636 02-10-2018 15:45:00 9.9 C 89 % 8.17 C
3637 02-10-2018 15:50:00 9.9 C 89 % 8.17 C
3638 02-10-2018 15:55:00 9.9 C 89 % 8.17 C
3639 02-10-2018 16:00:00 9.9 C 89 % 8.17 C
3640 02-10-2018 16:05:00 10 C 89 % 8.27 C
3641 02-10-2018 16:10:00 10.1 C 89 % 8.37 C
3642 02-10-2018 16:15:00 10.1 C 88 % 8.21 C
3643 02-10-2018 16:20:00 10.2 C 89 % 8.47 C
3644 02-10-2018 16:25:00 10.2 C 88 % 8.3 C
3645 02-10-2018 16:30:00 10.3 C 88 % 8.4 C
3646 02-10-2018 16:35:00 10.3 C 88 % 8.4 C
3647 02-10-2018 16:40:00 10.4 C 88 % 8.5 C
3648 02-10-2018 16:45:00 10.4 C 88 % 8.5 C
3649 02-10-2018 16:50:00 10.5 C 88 % 8.6 C
3650 02-10-2018 16:55:00 10.5 C 89 % 8.77 C
Sensor: Nr:Datum:Temp:Feuchte:Taupunkt:
Aussen-T/F 3651 02-10-2018 17:00:00 10.5 C 88 % 8.6 C
3652 02-10-2018 17:05:00 10.5 C 89 % 8.77 C
3653 02-10-2018 17:10:00 10.6 C 89 % 8.86 C
3654 02-10-2018 17:15:00 10.6 C 89 % 8.86 C
3655 02-10-2018 17:20:00 10.7 C 89 % 8.96 C
3656 02-10-2018 17:25:00 10.8 C 88 % 8.89 C
3657 02-10-2018 17:30:00 10.8 C 88 % 8.89 C
3658 02-10-2018 17:35:00 10.9 C 88 % 8.99 C
3659 02-10-2018 17:40:00 10.9 C 88 % 8.99 C
3660 02-10-2018 17:45:00 10.9 C 88 % 8.99 C
3661 02-10-2018 17:50:00 10.9 C 88 % 8.99 C
3662 02-10-2018 17:55:00 10.9 C 88 % 8.99 C
3663 02-10-2018 18:00:00 10.9 C 88 % 8.99 C
3664 02-10-2018 18:05:00 10.9 C 88 % 8.99 C
3665 02-10-2018 18:10:00 11 C 88 % 9.09 C
3666 02-10-2018 18:15:00 10.9 C 88 % 8.99 C
3667 02-10-2018 18:20:00 11 C 89 % 9.26 C
3668 02-10-2018 18:25:00 11 C 89 % 9.26 C
3669 02-10-2018 18:30:00 11 C 89 % 9.26 C
3670 02-10-2018 18:35:00 11 C 89 % 9.26 C
3671 02-10-2018 18:40:00 11 C 89 % 9.26 C
3672 02-10-2018 18:45:00 11 C 89 % 9.26 C
3673 02-10-2018 18:50:00 11 C 89 % 9.26 C
3674 02-10-2018 18:55:00 11 C 89 % 9.26 C
3675 02-10-2018 19:00:00 11 C 89 % 9.26 C
Sensor: Nr:Datum:Temp:Feuchte:Taupunkt:
Aussen-T/F 3676 02-10-2018 19:05:00 10.9 C 89 % 9.16 C
3677 02-10-2018 19:10:00 10.9 C 90 % 9.33 C
3678 02-10-2018 19:15:00 10.9 C 90 % 9.33 C
3679 02-10-2018 19:20:00 11 C 90 % 9.42 C
3680 02-10-2018 19:25:00 11.1 C 90 % 9.52 C
3681 02-10-2018 19:30:00 11 C 90 % 9.42 C
3682 02-10-2018 19:35:00 11.1 C 90 % 9.52 C
3683 02-10-2018 19:40:00 11.1 C 90 % 9.52 C
3684 02-10-2018 19:45:00 11.1 C 90 % 9.52 C
3685 02-10-2018 19:50:00 11.1 C 90 % 9.52 C
3686 02-10-2018 19:55:00 11.1 C 90 % 9.52 C
3687 02-10-2018 20:00:00 11.1 C 90 % 9.52 C
3688 02-10-2018 20:05:00 11.2 C 90 % 9.62 C
3689 02-10-2018 20:10:00 11.2 C 90 % 9.62 C
3690 02-10-2018 20:15:00 11.2 C 90 % 9.62 C
3691 02-10-2018 20:20:00 11.2 C 90 % 9.62 C
3692 02-10-2018 20:25:00 11.2 C 90 % 9.62 C
3693 02-10-2018 20:30:00 11.3 C 90 % 9.72 C
3694 02-10-2018 20:35:00 11.3 C 90 % 9.72 C
3695 02-10-2018 20:40:00 11.3 C 90 % 9.72 C
3696 02-10-2018 20:45:00 11.4 C 90 % 9.82 C
3697 02-10-2018 20:50:00 11.4 C 90 % 9.82 C
3698 02-10-2018 20:55:00 11.5 C 90 % 9.92 C
3699 02-10-2018 21:00:00 11.5 C 90 % 9.92 C
3700 02-10-2018 21:05:00 11.6 C 90 % 10.02 C
Sensor: Nr:Datum:Temp:Feuchte:Taupunkt:
Aussen-T/F 3701 02-10-2018 21:10:00 11.5 C 89 % 9.75 C
3702 02-10-2018 21:15:00 11.4 C 89 % 9.65 C
3703 02-10-2018 21:20:00 11.3 C 90 % 9.72 C
3704 02-10-2018 21:25:00 11.3 C 90 % 9.72 C
3705 02-10-2018 21:30:00 11.3 C 90 % 9.72 C
3706 02-10-2018 21:35:00 11.2 C 90 % 9.62 C
3707 02-10-2018 21:40:00 11.2 C 91 % 9.79 C
3708 02-10-2018 21:45:00 11.2 C 91 % 9.79 C
3709 02-10-2018 21:50:00 11.2 C 91 % 9.79 C
3710 02-10-2018 21:55:00 11.2 C 91 % 9.79 C
3711 02-10-2018 22:00:00 11.2 C 91 % 9.79 C
3712 02-10-2018 22:05:00 11.2 C 91 % 9.79 C
3713 02-10-2018 22:10:00 11.3 C 91 % 9.89 C
3714 02-10-2018 22:15:00 11.4 C 91 % 9.98 C
3715 02-10-2018 22:20:00 11.4 C 91 % 9.98 C
3716 02-10-2018 22:25:00 11.5 C 91 % 10.08 C
3717 02-10-2018 22:30:00 11.5 C 91 % 10.08 C
3718 02-10-2018 22:35:00 11.5 C 91 % 10.08 C
3719 02-10-2018 22:40:00 11.6 C 91 % 10.18 C
3720 02-10-2018 22:45:00 11.6 C 91 % 10.18 C
3721 02-10-2018 22:50:00 11.7 C 91 % 10.28 C
3722 02-10-2018 22:55:00 11.8 C 91 % 10.38 C
3723 02-10-2018 23:00:00 11.8 C 90 % 10.21 C
3724 02-10-2018 23:05:00 11.8 C 90 % 10.21 C
3725 02-10-2018 23:10:00 11.8 C 90 % 10.21 C
Sensor: Nr:Datum:Temp:Feuchte:Taupunkt:
Aussen-T/F 3726 02-10-2018 23:15:00 11.7 C 90 % 10.12 C
3727 02-10-2018 23:20:00 11.7 C 90 % 10.12 C
3728 02-10-2018 23:25:00 11.7 C 90 % 10.12 C
3729 02-10-2018 23:30:00 11.7 C 91 % 10.28 C
3730 02-10-2018 23:35:00 11.7 C 91 % 10.28 C
3731 02-10-2018 23:40:00 11.7 C 91 % 10.28 C
3732 02-10-2018 23:45:00 11.7 C 91 % 10.28 C
3733 02-10-2018 23:50:00 11.7 C 91 % 10.28 C
3734 02-10-2018 23:55:00 11.7 C 91 % 10.28 C
3735 03-10-2018 00:00:00 11.8 C 91 % 10.38 C
3736 03-10-2018 00:05:00 11.8 C 91 % 10.38 C
3737 03-10-2018 00:10:00 11.8 C 91 % 10.38 C
3738 03-10-2018 00:15:00 11.8 C 91 % 10.38 C
3739 03-10-2018 00:20:00 11.8 C 91 % 10.38 C
3740 03-10-2018 00:25:00 11.8 C 91 % 10.38 C
3741 03-10-2018 00:30:00 11.8 C 91 % 10.38 C
3742 03-10-2018 00:35:00 11.7 C 91 % 10.28 C
3743 03-10-2018 00:40:00 11.8 C 91 % 10.38 C
3744 03-10-2018 00:45:00 11.8 C 92 % 10.54 C
3745 03-10-2018 00:50:00 11.8 C 92 % 10.54 C
3746 03-10-2018 00:55:00 11.8 C 92 % 10.54 C
3747 03-10-2018 01:00:00 11.8 C 92 % 10.54 C
3748 03-10-2018 01:05:00 11.8 C 91 % 10.38 C
3749 03-10-2018 01:10:00 11.8 C 92 % 10.54 C
3750 03-10-2018 01:15:00 11.7 C 92 % 10.44 C
Sensor: Nr:Datum:Temp:Feuchte:Taupunkt:
Aussen-T/F 3751 03-10-2018 01:20:00 11.7 C 92 % 10.44 C
3752 03-10-2018 01:25:00 11.7 C 92 % 10.44 C
3753 03-10-2018 01:30:00 11.6 C 92 % 10.35 C
3754 03-10-2018 01:35:00 11.5 C 92 % 10.25 C
3755 03-10-2018 01:40:00 11.4 C 92 % 10.15 C
3756 03-10-2018 01:45:00 11.4 C 92 % 10.15 C
3757 03-10-2018 01:50:00 11.4 C 93 % 10.31 C
3758 03-10-2018 01:55:00 11.4 C 93 % 10.31 C
3759 03-10-2018 02:00:00 11.4 C 93 % 10.31 C
3760 03-10-2018 02:05:00 11.4 C 93 % 10.31 C
3761 03-10-2018 02:10:00 11.3 C 93 % 10.21 C
3762 03-10-2018 02:15:00 11.4 C 93 % 10.31 C
3763 03-10-2018 02:20:00 11.5 C 93 % 10.41 C
3764 03-10-2018 02:25:00 11.4 C 93 % 10.31 C
3765 03-10-2018 02:30:00 11.6 C 94 % 10.67 C
3766 03-10-2018 02:35:00 11.7 C 94 % 10.77 C
3767 03-10-2018 02:40:00 11.7 C 93 % 10.61 C
3768 03-10-2018 02:45:00 11.7 C 93 % 10.61 C
3769 03-10-2018 02:50:00 11.8 C 93 % 10.71 C
3770 03-10-2018 02:55:00 11.9 C 93 % 10.81 C
3771 03-10-2018 03:00:00 11.9 C 93 % 10.81 C
3772 03-10-2018 03:05:00 11.9 C 93 % 10.81 C
3773 03-10-2018 03:10:00 12 C 93 % 10.9 C
3774 03-10-2018 03:15:00 12.1 C 93 % 11 C
3775 03-10-2018 03:20:00 12 C 93 % 10.9 C
Sensor: Nr:Datum:Temp:Feuchte:Taupunkt:
Aussen-T/F 3776 03-10-2018 03:25:00 12 C 93 % 10.9 C
3777 03-10-2018 03:30:00 12 C 93 % 10.9 C
3778 03-10-2018 03:35:00 11.9 C 92 % 10.64 C
3779 03-10-2018 03:40:00 11.9 C 93 % 10.81 C
3780 03-10-2018 03:45:00 11.8 C 93 % 10.71 C
3781 03-10-2018 03:50:00 11.7 C 93 % 10.61 C
3782 03-10-2018 03:55:00 11.7 C 93 % 10.61 C
3783 03-10-2018 04:00:00 11.6 C 93 % 10.51 C
3784 03-10-2018 04:05:00 11.6 C 93 % 10.51 C
3785 03-10-2018 04:10:00 11.6 C 93 % 10.51 C
3786 03-10-2018 04:15:00 11.5 C 93 % 10.41 C
3787 03-10-2018 04:20:00 11.4 C 93 % 10.31 C
3788 03-10-2018 04:25:00 11.4 C 93 % 10.31 C
3789 03-10-2018 04:30:00 11.4 C 93 % 10.31 C
3790 03-10-2018 04:35:00 11.4 C 94 % 10.47 C
3791 03-10-2018 04:40:00 11.4 C 94 % 10.47 C
3792 03-10-2018 04:45:00 11.4 C 94 % 10.47 C
3793 03-10-2018 04:50:00 11.3 C 94 % 10.37 C
3794 03-10-2018 04:55:00 11.3 C 94 % 10.37 C
3795 03-10-2018 05:00:00 11.3 C 94 % 10.37 C
3796 03-10-2018 05:05:00 11.4 C 94 % 10.47 C
3797 03-10-2018 05:10:00 11.4 C 94 % 10.47 C
3798 03-10-2018 05:15:00 11.4 C 94 % 10.47 C
3799 03-10-2018 05:20:00 11.4 C 94 % 10.47 C
3800 03-10-2018 05:25:00 11.3 C 94 % 10.37 C
Sensor: Nr:Datum:Temp:Feuchte:Taupunkt:
Aussen-T/F 3801 03-10-2018 05:30:00 11.2 C 94 % 10.27 C
3802 03-10-2018 05:35:00 11.1 C 94 % 10.17 C
3803 03-10-2018 05:40:00 11 C 94 % 10.07 C
3804 03-10-2018 05:45:00 10.9 C 94 % 9.97 C
3805 03-10-2018 05:50:00 10.9 C 94 % 9.97 C
3806 03-10-2018 05:55:00 11 C 94 % 10.07 C
3807 03-10-2018 06:00:00 11.1 C 95 % 10.33 C
3808 03-10-2018 06:05:00 11.1 C 95 % 10.33 C
3809 03-10-2018 06:10:00 11.1 C 95 % 10.33 C
3810 03-10-2018 06:15:00 11.1 C 95 % 10.33 C
3811 03-10-2018 06:20:00 10.9 C 94 % 9.97 C
3812 03-10-2018 06:25:00 10.8 C 94 % 9.87 C
3813 03-10-2018 06:30:00 10.8 C 94 % 9.87 C
3814 03-10-2018 06:35:00 10.7 C 94 % 9.77 C
3815 03-10-2018 06:40:00 10.6 C 94 % 9.68 C
3816 03-10-2018 06:45:00 10.5 C 94 % 9.58 C
3817 03-10-2018 06:50:00 10.4 C 94 % 9.48 C
3818 03-10-2018 06:55:00 10.4 C 94 % 9.48 C
3819 03-10-2018 07:00:00 10.3 C 94 % 9.38 C
3820 03-10-2018 07:05:00 10.4 C 95 % 9.63 C
3821 03-10-2018 07:10:00 10.4 C 95 % 9.63 C
3822 03-10-2018 07:15:00 10.5 C 95 % 9.73 C
3823 03-10-2018 07:20:00 10.6 C 95 % 9.83 C
3824 03-10-2018 07:25:00 10.6 C 95 % 9.83 C
3825 03-10-2018 07:30:00 10.6 C 95 % 9.83 C
Sensor: Nr:Datum:Temp:Feuchte:Taupunkt:
Aussen-T/F 3826 03-10-2018 07:35:00 10.5 C 95 % 9.73 C
3827 03-10-2018 07:40:00 10.4 C 95 % 9.63 C
3828 03-10-2018 07:45:00 10.4 C 95 % 9.63 C
3829 03-10-2018 07:50:00 10.4 C 95 % 9.63 C
3830 03-10-2018 07:55:00 10.4 C 95 % 9.63 C
3831 03-10-2018 08:00:00 10.4 C 95 % 9.63 C
3832 03-10-2018 08:05:00 10.4 C 95 % 9.63 C
3833 03-10-2018 08:10:00 10.3 C 95 % 9.54 C
3834 03-10-2018 08:15:00 10.4 C 95 % 9.63 C
3835 03-10-2018 08:20:00 10.4 C 95 % 9.63 C
3836 03-10-2018 08:25:00 10.4 C 95 % 9.63 C
3837 03-10-2018 08:30:00 10.4 C 95 % 9.63 C
3838 03-10-2018 08:35:00 10.4 C 95 % 9.63 C
3839 03-10-2018 08:40:00 10.4 C 95 % 9.63 C
3840 03-10-2018 08:45:00 10.4 C 95 % 9.63 C
3841 03-10-2018 08:50:00 10.4 C 95 % 9.63 C
3842 03-10-2018 08:55:00 10.5 C 95 % 9.73 C
3843 03-10-2018 09:00:00 10.6 C 95 % 9.83 C
3844 03-10-2018 09:05:00 10.6 C 95 % 9.83 C
3845 03-10-2018 09:10:00 10.6 C 95 % 9.83 C
3846 03-10-2018 09:15:00 10.7 C 95 % 9.93 C
3847 03-10-2018 09:20:00 10.7 C 95 % 9.93 C
3848 03-10-2018 09:25:00 10.8 C 95 % 10.03 C
3849 03-10-2018 09:30:00 10.9 C 95 % 10.13 C
3850 03-10-2018 09:35:00 11 C 95 % 10.23 C
Sensor: Nr:Datum:Temp:Feuchte:Taupunkt:
Aussen-T/F 3851 03-10-2018 09:40:00 11.2 C 95 % 10.43 C
3852 03-10-2018 09:45:00 11.3 C 95 % 10.53 C
3853 03-10-2018 09:50:00 11.4 C 95 % 10.63 C
3854 03-10-2018 09:55:00 11.5 C 94 % 10.57 C
3855 03-10-2018 10:00:00 11.6 C 94 % 10.67 C
3856 03-10-2018 10:05:00 11.7 C 94 % 10.77 C
3857 03-10-2018 10:10:00 11.8 C 93 % 10.71 C
3858 03-10-2018 10:15:00 11.8 C 93 % 10.71 C
3859 03-10-2018 10:20:00 11.9 C 92 % 10.64 C
3860 03-10-2018 10:25:00 12.1 C 92 % 10.84 C
3861 03-10-2018 10:30:00 12.2 C 92 % 10.94 C
3862 03-10-2018 10:35:00 12.3 C 92 % 11.04 C
3863 03-10-2018 10:40:00 12.4 C 90 % 10.81 C
3864 03-10-2018 10:45:00 12.6 C 89 % 10.84 C
3865 03-10-2018 10:50:00 12.7 C 88 % 10.77 C
3866 03-10-2018 10:55:00 12.9 C 88 % 10.96 C
3867 03-10-2018 11:00:00 13.1 C 86 % 10.81 C
3868 03-10-2018 11:05:00 13.2 C 85 % 10.74 C
3869 03-10-2018 11:10:00 13.3 C 83 % 10.48 C
3870 03-10-2018 11:15:00 13.5 C 80 % 10.12 C
3871 03-10-2018 11:20:00 13.6 C 78 % 9.84 C
3872 03-10-2018 11:25:00 13.8 C 77 % 9.84 C
3873 03-10-2018 11:30:00 13.9 C 78 % 10.13 C
3874 03-10-2018 11:35:00 13.9 C 76 % 9.74 C
3875 03-10-2018 11:40:00 14 C 76 % 9.84 C
Sensor: Nr:Datum:Temp:Feuchte:Taupunkt:
Aussen-T/F 3876 03-10-2018 11:45:00 14 C 76 % 9.84 C
3877 03-10-2018 11:50:00 14.1 C 75 % 9.74 C
3878 03-10-2018 11:55:00 14.2 C 74 % 9.64 C
3879 03-10-2018 12:00:00 14.3 C 74 % 9.73 C
3880 03-10-2018 12:05:00 14.4 C 74 % 9.83 C
3881 03-10-2018 12:10:00 14.4 C 73 % 9.63 C
3882 03-10-2018 12:15:00 14.6 C 73 % 9.82 C
3883 03-10-2018 12:20:00 14.6 C 73 % 9.82 C
3884 03-10-2018 12:25:00 14.6 C 71 % 9.41 C
3885 03-10-2018 12:30:00 14.7 C 71 % 9.5 C
3886 03-10-2018 12:35:00 14.7 C 71 % 9.5 C
3887 03-10-2018 12:40:00 14.7 C 72 % 9.71 C
3888 03-10-2018 12:45:00 14.7 C 72 % 9.71 C
3889 03-10-2018 12:50:00 14.6 C 72 % 9.61 C
3890 03-10-2018 12:55:00 14.7 C 72 % 9.71 C
3891 03-10-2018 13:00:00 14.7 C 72 % 9.71 C